<?xml version="1.0" encoding="UTF-8" standalone="no" ?>
<gpx xmlns="http://www.topografix.com/GPX/1/1" xmlns:xsi="http://www.w3.org/2001/XMLSchema-instance" xsi:schemaLocation="http://www.topografix.com/GPX/1/1 http://www.topografix.com/GPX/1/1/gpx.xsd" version="1.1" creator="VisuGPX - https://www.visugpx.com">
  <metadata>
    <name>Sainte Pezenne (surimeau)</name>
    <desc><![CDATA[Promenade autour de Surimeau St Pezenne.Bords de Sèvre. Club rando Bessines]]></desc>
  </metadata>
  <wpt lat="46.34884" lon="-0.46762">
    <ele>29.1</ele>
  </wpt>
  <wpt lat="46.35005" lon="-0.46131">
    <ele>14.3</ele>
  </wpt>
  <wpt lat="46.35544" lon="-0.45666">
    <ele>14</ele>
  </wpt>
  <wpt lat="46.35666" lon="-0.4486">
    <ele>40</ele>
    <type><![CDATA[]]></type>
  </wpt>
  <trk>
    <name><![CDATA[Sainte Pezenne (surimeau)_1]]></name>
    <trkseg>
      <trkpt lat="46.34795" lon="-0.47007">
        <ele>99</ele>
        <time>2012-10-23T13:55:50Z</time>
      </trkpt>
      <trkpt lat="46.34795" lon="-0.47007">
        <ele>99</ele>
        <time>2012-10-23T13:55:55Z</time>
      </trkpt>
      <trkpt lat="46.34795" lon="-0.47005">
        <ele>100</ele>
        <time>2012-10-23T13:56:00Z</time>
      </trkpt>
      <trkpt lat="46.34796" lon="-0.47002">
        <ele>100</ele>
        <time>2012-10-23T13:56:05Z</time>
      </trkpt>
      <trkpt lat="46.34797" lon="-0.47001">
        <ele>100</ele>
        <time>2012-10-23T13:56:10Z</time>
      </trkpt>
      <trkpt lat="46.34799" lon="-0.46999">
        <ele>101</ele>
        <time>2012-10-23T13:56:15Z</time>
      </trkpt>
      <trkpt lat="46.348" lon="-0.46998">
        <ele>100</ele>
        <time>2012-10-23T13:56:20Z</time>
      </trkpt>
      <trkpt lat="46.34802" lon="-0.46999">
        <ele>100</ele>
        <time>2012-10-23T13:56:25Z</time>
      </trkpt>
      <trkpt lat="46.34803" lon="-0.46997">
        <ele>100</ele>
        <time>2012-10-23T13:56:30Z</time>
      </trkpt>
      <trkpt lat="46.34805" lon="-0.46992">
        <ele>98</ele>
        <time>2012-10-23T13:56:35Z</time>
      </trkpt>
      <trkpt lat="46.34804" lon="-0.4699">
        <ele>98</ele>
        <time>2012-10-23T13:56:40Z</time>
      </trkpt>
      <trkpt lat="46.34801" lon="-0.46991">
        <ele>98</ele>
        <time>2012-10-23T13:56:45Z</time>
      </trkpt>
      <trkpt lat="46.34795" lon="-0.46991">
        <ele>97</ele>
        <time>2012-10-23T13:56:50Z</time>
      </trkpt>
      <trkpt lat="46.34795" lon="-0.46991">
        <ele>91</ele>
        <time>2012-10-23T13:56:55Z</time>
      </trkpt>
      <trkpt lat="46.34794" lon="-0.46989">
        <ele>91</ele>
        <time>2012-10-23T13:57:00Z</time>
      </trkpt>
      <trkpt lat="46.34796" lon="-0.46983">
        <ele>95</ele>
        <time>2012-10-23T13:57:05Z</time>
      </trkpt>
      <trkpt lat="46.34796" lon="-0.46977">
        <ele>97</ele>
        <time>2012-10-23T13:57:10Z</time>
      </trkpt>
      <trkpt lat="46.34795" lon="-0.46977">
        <ele>95</ele>
        <time>2012-10-23T13:57:15Z</time>
      </trkpt>
      <trkpt lat="46.34795" lon="-0.46977">
        <ele>95</ele>
        <time>2012-10-23T13:57:20Z</time>
      </trkpt>
      <trkpt lat="46.34793" lon="-0.46975">
        <ele>95</ele>
        <time>2012-10-23T13:57:25Z</time>
      </trkpt>
      <trkpt lat="46.34792" lon="-0.46976">
        <ele>94</ele>
        <time>2012-10-23T13:57:30Z</time>
      </trkpt>
      <trkpt lat="46.34792" lon="-0.46976">
        <ele>93</ele>
        <time>2012-10-23T13:57:35Z</time>
      </trkpt>
      <trkpt lat="46.34793" lon="-0.46973">
        <ele>98</ele>
        <time>2012-10-23T14:04:30Z</time>
      </trkpt>
      <trkpt lat="46.34791" lon="-0.46974">
        <ele>100</ele>
        <time>2012-10-23T14:05:35Z</time>
      </trkpt>
      <trkpt lat="46.34789" lon="-0.46977">
        <ele>100</ele>
        <time>2012-10-23T14:05:40Z</time>
      </trkpt>
      <trkpt lat="46.34785" lon="-0.46982">
        <ele>98</ele>
        <time>2012-10-23T14:05:45Z</time>
      </trkpt>
      <trkpt lat="46.34784" lon="-0.46982">
        <ele>99</ele>
        <time>2012-10-23T14:05:50Z</time>
      </trkpt>
      <trkpt lat="46.34781" lon="-0.46983">
        <ele>100</ele>
        <time>2012-10-23T14:05:55Z</time>
      </trkpt>
      <trkpt lat="46.34776" lon="-0.46986">
        <ele>99</ele>
        <time>2012-10-23T14:06:00Z</time>
      </trkpt>
      <trkpt lat="46.34775" lon="-0.46986">
        <ele>98</ele>
        <time>2012-10-23T14:06:05Z</time>
      </trkpt>
      <trkpt lat="46.3477" lon="-0.4699">
        <ele>97</ele>
        <time>2012-10-23T14:06:10Z</time>
      </trkpt>
      <trkpt lat="46.34764" lon="-0.46993">
        <ele>97</ele>
        <time>2012-10-23T14:06:15Z</time>
      </trkpt>
      <trkpt lat="46.3476" lon="-0.46993">
        <ele>97</ele>
        <time>2012-10-23T14:06:20Z</time>
      </trkpt>
      <trkpt lat="46.34754" lon="-0.46999">
        <ele>96</ele>
        <time>2012-10-23T14:06:25Z</time>
      </trkpt>
      <trkpt lat="46.34745" lon="-0.47008">
        <ele>95</ele>
        <time>2012-10-23T14:06:30Z</time>
      </trkpt>
      <trkpt lat="46.3474" lon="-0.47011">
        <ele>95</ele>
        <time>2012-10-23T14:06:35Z</time>
      </trkpt>
      <trkpt lat="46.34732" lon="-0.47016">
        <ele>93</ele>
        <time>2012-10-23T14:06:40Z</time>
      </trkpt>
      <trkpt lat="46.34732" lon="-0.47018">
        <ele>97</ele>
        <time>2012-10-23T14:06:45Z</time>
      </trkpt>
      <trkpt lat="46.3473" lon="-0.47024">
        <ele>95</ele>
        <time>2012-10-23T14:06:50Z</time>
      </trkpt>
      <trkpt lat="46.34724" lon="-0.47033">
        <ele>93</ele>
        <time>2012-10-23T14:06:55Z</time>
      </trkpt>
      <trkpt lat="46.34718" lon="-0.47033">
        <ele>93</ele>
        <time>2012-10-23T14:07:00Z</time>
      </trkpt>
      <trkpt lat="46.34714" lon="-0.47034">
        <ele>92</ele>
        <time>2012-10-23T14:07:05Z</time>
      </trkpt>
      <trkpt lat="46.34717" lon="-0.47027">
        <ele>91</ele>
        <time>2012-10-23T14:07:10Z</time>
      </trkpt>
      <trkpt lat="46.34724" lon="-0.4702">
        <ele>89</ele>
        <time>2012-10-23T14:07:15Z</time>
      </trkpt>
      <trkpt lat="46.34729" lon="-0.47017">
        <ele>90</ele>
        <time>2012-10-23T14:07:20Z</time>
      </trkpt>
      <trkpt lat="46.34731" lon="-0.47015">
        <ele>91</ele>
        <time>2012-10-23T14:07:25Z</time>
      </trkpt>
      <trkpt lat="46.34735" lon="-0.47008">
        <ele>90</ele>
        <time>2012-10-23T14:07:30Z</time>
      </trkpt>
      <trkpt lat="46.3474" lon="-0.47001">
        <ele>89</ele>
        <time>2012-10-23T14:07:35Z</time>
      </trkpt>
      <trkpt lat="46.34745" lon="-0.46997">
        <ele>89</ele>
        <time>2012-10-23T14:07:40Z</time>
      </trkpt>
      <trkpt lat="46.3475" lon="-0.46996">
        <ele>88</ele>
        <time>2012-10-23T14:07:45Z</time>
      </trkpt>
      <trkpt lat="46.34754" lon="-0.46992">
        <ele>89</ele>
        <time>2012-10-23T14:07:50Z</time>
      </trkpt>
      <trkpt lat="46.34755" lon="-0.46986">
        <ele>88</ele>
        <time>2012-10-23T14:07:55Z</time>
      </trkpt>
      <trkpt lat="46.34761" lon="-0.46981">
        <ele>87</ele>
        <time>2012-10-23T14:08:00Z</time>
      </trkpt>
      <trkpt lat="46.34768" lon="-0.46976">
        <ele>87</ele>
        <time>2012-10-23T14:08:05Z</time>
      </trkpt>
      <trkpt lat="46.34773" lon="-0.4697">
        <ele>89</ele>
        <time>2012-10-23T14:08:10Z</time>
      </trkpt>
      <trkpt lat="46.34779" lon="-0.46965">
        <ele>85</ele>
        <time>2012-10-23T14:08:15Z</time>
      </trkpt>
      <trkpt lat="46.34783" lon="-0.4696">
        <ele>86</ele>
        <time>2012-10-23T14:08:20Z</time>
      </trkpt>
      <trkpt lat="46.34785" lon="-0.46956">
        <ele>88</ele>
        <time>2012-10-23T14:08:25Z</time>
      </trkpt>
      <trkpt lat="46.34787" lon="-0.46949">
        <ele>89</ele>
        <time>2012-10-23T14:08:30Z</time>
      </trkpt>
      <trkpt lat="46.34791" lon="-0.46945">
        <ele>89</ele>
        <time>2012-10-23T14:08:35Z</time>
      </trkpt>
      <trkpt lat="46.34794" lon="-0.46943">
        <ele>90</ele>
        <time>2012-10-23T14:08:40Z</time>
      </trkpt>
      <trkpt lat="46.34796" lon="-0.46939">
        <ele>90</ele>
        <time>2012-10-23T14:08:45Z</time>
      </trkpt>
      <trkpt lat="46.348" lon="-0.46937">
        <ele>92</ele>
        <time>2012-10-23T14:08:50Z</time>
      </trkpt>
      <trkpt lat="46.34801" lon="-0.46936">
        <ele>91</ele>
        <time>2012-10-23T14:08:55Z</time>
      </trkpt>
      <trkpt lat="46.34805" lon="-0.46933">
        <ele>91</ele>
        <time>2012-10-23T14:09:00Z</time>
      </trkpt>
      <trkpt lat="46.34808" lon="-0.46925">
        <ele>92</ele>
        <time>2012-10-23T14:09:05Z</time>
      </trkpt>
      <trkpt lat="46.34815" lon="-0.46915">
        <ele>92</ele>
        <time>2012-10-23T14:09:10Z</time>
      </trkpt>
      <trkpt lat="46.34822" lon="-0.46909">
        <ele>94</ele>
        <time>2012-10-23T14:09:15Z</time>
      </trkpt>
      <trkpt lat="46.34827" lon="-0.46906">
        <ele>95</ele>
        <time>2012-10-23T14:09:20Z</time>
      </trkpt>
      <trkpt lat="46.3483" lon="-0.46901">
        <ele>96</ele>
        <time>2012-10-23T14:09:25Z</time>
      </trkpt>
      <trkpt lat="46.34836" lon="-0.46894">
        <ele>96</ele>
        <time>2012-10-23T14:09:30Z</time>
      </trkpt>
      <trkpt lat="46.3484" lon="-0.46891">
        <ele>97</ele>
        <time>2012-10-23T14:09:35Z</time>
      </trkpt>
      <trkpt lat="46.34841" lon="-0.46887">
        <ele>97</ele>
        <time>2012-10-23T14:09:40Z</time>
      </trkpt>
      <trkpt lat="46.34846" lon="-0.46882">
        <ele>96</ele>
        <time>2012-10-23T14:09:45Z</time>
      </trkpt>
      <trkpt lat="46.34852" lon="-0.46878">
        <ele>94</ele>
        <time>2012-10-23T14:09:50Z</time>
      </trkpt>
      <trkpt lat="46.34853" lon="-0.46876">
        <ele>94</ele>
        <time>2012-10-23T14:09:55Z</time>
      </trkpt>
      <trkpt lat="46.34858" lon="-0.46868">
        <ele>95</ele>
        <time>2012-10-23T14:10:00Z</time>
      </trkpt>
      <trkpt lat="46.34866" lon="-0.46862">
        <ele>95</ele>
        <time>2012-10-23T14:10:05Z</time>
      </trkpt>
      <trkpt lat="46.3487" lon="-0.46854">
        <ele>95</ele>
        <time>2012-10-23T14:10:10Z</time>
      </trkpt>
      <trkpt lat="46.3487" lon="-0.46851">
        <ele>91</ele>
        <time>2012-10-23T14:10:15Z</time>
      </trkpt>
      <trkpt lat="46.3487" lon="-0.46849">
        <ele>91</ele>
        <time>2012-10-23T14:10:20Z</time>
      </trkpt>
      <trkpt lat="46.34872" lon="-0.46843">
        <ele>91</ele>
        <time>2012-10-23T14:10:25Z</time>
      </trkpt>
      <trkpt lat="46.34873" lon="-0.46839">
        <ele>92</ele>
        <time>2012-10-23T14:10:30Z</time>
      </trkpt>
      <trkpt lat="46.34874" lon="-0.46836">
        <ele>93</ele>
        <time>2012-10-23T14:10:35Z</time>
      </trkpt>
      <trkpt lat="46.34874" lon="-0.46835">
        <ele>93</ele>
        <time>2012-10-23T14:10:40Z</time>
      </trkpt>
      <trkpt lat="46.34874" lon="-0.46835">
        <ele>92</ele>
        <time>2012-10-23T14:10:45Z</time>
      </trkpt>
      <trkpt lat="46.34873" lon="-0.46826">
        <ele>92</ele>
        <time>2012-10-23T14:10:50Z</time>
      </trkpt>
      <trkpt lat="46.34871" lon="-0.46816">
        <ele>92</ele>
        <time>2012-10-23T14:10:55Z</time>
      </trkpt>
      <trkpt lat="46.34871" lon="-0.4681">
        <ele>92</ele>
        <time>2012-10-23T14:11:00Z</time>
      </trkpt>
      <trkpt lat="46.34873" lon="-0.468">
        <ele>92</ele>
        <time>2012-10-23T14:11:05Z</time>
      </trkpt>
      <trkpt lat="46.34872" lon="-0.46793">
        <ele>90</ele>
        <time>2012-10-23T14:11:10Z</time>
      </trkpt>
      <trkpt lat="46.34872" lon="-0.46786">
        <ele>92</ele>
        <time>2012-10-23T14:11:15Z</time>
      </trkpt>
      <trkpt lat="46.34873" lon="-0.46781">
        <ele>94</ele>
        <time>2012-10-23T14:11:20Z</time>
      </trkpt>
      <trkpt lat="46.34874" lon="-0.46782">
        <ele>89</ele>
        <time>2012-10-23T14:11:25Z</time>
      </trkpt>
      <trkpt lat="46.34877" lon="-0.46778">
        <ele>88</ele>
        <time>2012-10-23T14:11:30Z</time>
      </trkpt>
      <trkpt lat="46.34878" lon="-0.46772">
        <ele>86</ele>
        <time>2012-10-23T14:11:35Z</time>
      </trkpt>
      <trkpt lat="46.34882" lon="-0.46767">
        <ele>85</ele>
        <time>2012-10-23T14:11:40Z</time>
      </trkpt>
      <trkpt lat="46.34887" lon="-0.46762">
        <ele>84</ele>
        <time>2012-10-23T14:11:45Z</time>
      </trkpt>
      <trkpt lat="46.34885" lon="-0.46761">
        <ele>79</ele>
        <time>2012-10-23T14:11:50Z</time>
      </trkpt>
      <trkpt lat="46.34886" lon="-0.46761">
        <ele>77</ele>
        <time>2012-10-23T14:11:55Z</time>
      </trkpt>
      <trkpt lat="46.34883" lon="-0.46762">
        <ele>77</ele>
        <time>2012-10-23T14:12:00Z</time>
      </trkpt>
      <trkpt lat="46.34884" lon="-0.46762">
        <ele>77</ele>
        <time>2012-10-23T14:12:05Z</time>
      </trkpt>
      <trkpt lat="46.34881" lon="-0.46766">
        <ele>77</ele>
        <time>2012-10-23T14:12:10Z</time>
      </trkpt>
      <trkpt lat="46.3488" lon="-0.46767">
        <ele>77</ele>
        <time>2012-10-23T14:12:20Z</time>
      </trkpt>
      <trkpt lat="46.34876" lon="-0.4677">
        <ele>75</ele>
        <time>2012-10-23T14:12:25Z</time>
      </trkpt>
      <trkpt lat="46.34871" lon="-0.46772">
        <ele>73</ele>
        <time>2012-10-23T14:12:30Z</time>
      </trkpt>
      <trkpt lat="46.34865" lon="-0.46777">
        <ele>72</ele>
        <time>2012-10-23T14:12:35Z</time>
      </trkpt>
      <trkpt lat="46.3486" lon="-0.46771">
        <ele>74</ele>
        <time>2012-10-23T14:12:40Z</time>
      </trkpt>
      <trkpt lat="46.34859" lon="-0.4677">
        <ele>71</ele>
        <time>2012-10-23T14:12:45Z</time>
      </trkpt>
      <trkpt lat="46.34859" lon="-0.46766">
        <ele>71</ele>
        <time>2012-10-23T14:12:50Z</time>
      </trkpt>
      <trkpt lat="46.34859" lon="-0.46763">
        <ele>71</ele>
        <time>2012-10-23T14:12:55Z</time>
      </trkpt>
      <trkpt lat="46.34859" lon="-0.46756">
        <ele>68</ele>
        <time>2012-10-23T14:13:00Z</time>
      </trkpt>
      <trkpt lat="46.34859" lon="-0.46747">
        <ele>67</ele>
        <time>2012-10-23T14:13:05Z</time>
      </trkpt>
      <trkpt lat="46.34859" lon="-0.46745">
        <ele>66</ele>
        <time>2012-10-23T14:13:10Z</time>
      </trkpt>
      <trkpt lat="46.34861" lon="-0.4674">
        <ele>64</ele>
        <time>2012-10-23T14:13:15Z</time>
      </trkpt>
      <trkpt lat="46.34865" lon="-0.46734">
        <ele>64</ele>
        <time>2012-10-23T14:13:20Z</time>
      </trkpt>
      <trkpt lat="46.34867" lon="-0.46728">
        <ele>66</ele>
        <time>2012-10-23T14:13:25Z</time>
      </trkpt>
      <trkpt lat="46.34869" lon="-0.46726">
        <ele>66</ele>
        <time>2012-10-23T14:13:30Z</time>
      </trkpt>
      <trkpt lat="46.34871" lon="-0.46717">
        <ele>68</ele>
        <time>2012-10-23T14:13:35Z</time>
      </trkpt>
      <trkpt lat="46.34876" lon="-0.4671">
        <ele>69</ele>
        <time>2012-10-23T14:13:40Z</time>
      </trkpt>
      <trkpt lat="46.34881" lon="-0.467">
        <ele>70</ele>
        <time>2012-10-23T14:13:45Z</time>
      </trkpt>
      <trkpt lat="46.34885" lon="-0.46692">
        <ele>71</ele>
        <time>2012-10-23T14:13:50Z</time>
      </trkpt>
      <trkpt lat="46.3489" lon="-0.46684">
        <ele>74</ele>
        <time>2012-10-23T14:13:55Z</time>
      </trkpt>
      <trkpt lat="46.34893" lon="-0.46678">
        <ele>72</ele>
        <time>2012-10-23T14:14:00Z</time>
      </trkpt>
      <trkpt lat="46.34896" lon="-0.46671">
        <ele>71</ele>
        <time>2012-10-23T14:14:05Z</time>
      </trkpt>
      <trkpt lat="46.34899" lon="-0.46663">
        <ele>71</ele>
        <time>2012-10-23T14:14:10Z</time>
      </trkpt>
      <trkpt lat="46.34903" lon="-0.46656">
        <ele>71</ele>
        <time>2012-10-23T14:14:15Z</time>
      </trkpt>
      <trkpt lat="46.34907" lon="-0.46648">
        <ele>71</ele>
        <time>2012-10-23T14:14:20Z</time>
      </trkpt>
      <trkpt lat="46.3491" lon="-0.4664">
        <ele>70</ele>
        <time>2012-10-23T14:14:25Z</time>
      </trkpt>
      <trkpt lat="46.34912" lon="-0.46633">
        <ele>70</ele>
        <time>2012-10-23T14:14:30Z</time>
      </trkpt>
      <trkpt lat="46.34917" lon="-0.46631">
        <ele>62</ele>
        <time>2012-10-23T14:14:35Z</time>
      </trkpt>
      <trkpt lat="46.34919" lon="-0.46625">
        <ele>62</ele>
        <time>2012-10-23T14:14:40Z</time>
      </trkpt>
      <trkpt lat="46.34922" lon="-0.46616">
        <ele>63</ele>
        <time>2012-10-23T14:14:45Z</time>
      </trkpt>
      <trkpt lat="46.34924" lon="-0.46609">
        <ele>64</ele>
        <time>2012-10-23T14:14:50Z</time>
      </trkpt>
      <trkpt lat="46.34927" lon="-0.46597">
        <ele>64</ele>
        <time>2012-10-23T14:14:55Z</time>
      </trkpt>
      <trkpt lat="46.3493" lon="-0.46587">
        <ele>67</ele>
        <time>2012-10-23T14:15:00Z</time>
      </trkpt>
      <trkpt lat="46.34933" lon="-0.46579">
        <ele>67</ele>
        <time>2012-10-23T14:15:05Z</time>
      </trkpt>
      <trkpt lat="46.34937" lon="-0.46573">
        <ele>69</ele>
        <time>2012-10-23T14:15:10Z</time>
      </trkpt>
      <trkpt lat="46.3494" lon="-0.46565">
        <ele>70</ele>
        <time>2012-10-23T14:15:15Z</time>
      </trkpt>
      <trkpt lat="46.34942" lon="-0.46557">
        <ele>68</ele>
        <time>2012-10-23T14:15:20Z</time>
      </trkpt>
      <trkpt lat="46.34945" lon="-0.46547">
        <ele>68</ele>
        <time>2012-10-23T14:15:25Z</time>
      </trkpt>
      <trkpt lat="46.34947" lon="-0.46538">
        <ele>68</ele>
        <time>2012-10-23T14:15:30Z</time>
      </trkpt>
      <trkpt lat="46.34948" lon="-0.46529">
        <ele>71</ele>
        <time>2012-10-23T14:15:35Z</time>
      </trkpt>
      <trkpt lat="46.34952" lon="-0.46524">
        <ele>72</ele>
        <time>2012-10-23T14:15:40Z</time>
      </trkpt>
      <trkpt lat="46.34955" lon="-0.46517">
        <ele>73</ele>
        <time>2012-10-23T14:15:45Z</time>
      </trkpt>
      <trkpt lat="46.34959" lon="-0.46511">
        <ele>74</ele>
        <time>2012-10-23T14:15:50Z</time>
      </trkpt>
      <trkpt lat="46.34965" lon="-0.46501">
        <ele>76</ele>
        <time>2012-10-23T14:15:55Z</time>
      </trkpt>
      <trkpt lat="46.34969" lon="-0.4649">
        <ele>75</ele>
        <time>2012-10-23T14:16:00Z</time>
      </trkpt>
      <trkpt lat="46.34974" lon="-0.46488">
        <ele>73</ele>
        <time>2012-10-23T14:16:05Z</time>
      </trkpt>
      <trkpt lat="46.34974" lon="-0.46478">
        <ele>73</ele>
        <time>2012-10-23T14:16:10Z</time>
      </trkpt>
      <trkpt lat="46.34976" lon="-0.4647">
        <ele>74</ele>
        <time>2012-10-23T14:16:15Z</time>
      </trkpt>
      <trkpt lat="46.34979" lon="-0.46463">
        <ele>73</ele>
        <time>2012-10-23T14:16:20Z</time>
      </trkpt>
      <trkpt lat="46.34982" lon="-0.46455">
        <ele>74</ele>
        <time>2012-10-23T14:16:25Z</time>
      </trkpt>
      <trkpt lat="46.34984" lon="-0.46448">
        <ele>74</ele>
        <time>2012-10-23T14:16:30Z</time>
      </trkpt>
      <trkpt lat="46.34984" lon="-0.46437">
        <ele>75</ele>
        <time>2012-10-23T14:16:35Z</time>
      </trkpt>
      <trkpt lat="46.34987" lon="-0.46427">
        <ele>74</ele>
        <time>2012-10-23T14:16:40Z</time>
      </trkpt>
      <trkpt lat="46.3499" lon="-0.46417">
        <ele>75</ele>
        <time>2012-10-23T14:16:45Z</time>
      </trkpt>
      <trkpt lat="46.34992" lon="-0.46407">
        <ele>77</ele>
        <time>2012-10-23T14:16:50Z</time>
      </trkpt>
      <trkpt lat="46.34993" lon="-0.46398">
        <ele>76</ele>
        <time>2012-10-23T14:16:55Z</time>
      </trkpt>
      <trkpt lat="46.34993" lon="-0.46389">
        <ele>77</ele>
        <time>2012-10-23T14:17:00Z</time>
      </trkpt>
      <trkpt lat="46.34992" lon="-0.46381">
        <ele>74</ele>
        <time>2012-10-23T14:17:05Z</time>
      </trkpt>
      <trkpt lat="46.34997" lon="-0.46374">
        <ele>74</ele>
        <time>2012-10-23T14:17:10Z</time>
      </trkpt>
      <trkpt lat="46.34998" lon="-0.46366">
        <ele>75</ele>
        <time>2012-10-23T14:17:15Z</time>
      </trkpt>
      <trkpt lat="46.35001" lon="-0.46357">
        <ele>75</ele>
        <time>2012-10-23T14:17:20Z</time>
      </trkpt>
      <trkpt lat="46.35003" lon="-0.46347">
        <ele>76</ele>
        <time>2012-10-23T14:17:25Z</time>
      </trkpt>
      <trkpt lat="46.35002" lon="-0.46337">
        <ele>80</ele>
        <time>2012-10-23T14:17:30Z</time>
      </trkpt>
      <trkpt lat="46.35003" lon="-0.46328">
        <ele>82</ele>
        <time>2012-10-23T14:17:35Z</time>
      </trkpt>
      <trkpt lat="46.35007" lon="-0.46329">
        <ele>68</ele>
        <time>2012-10-23T14:17:40Z</time>
      </trkpt>
      <trkpt lat="46.3501" lon="-0.4632">
        <ele>67</ele>
        <time>2012-10-23T14:17:45Z</time>
      </trkpt>
      <trkpt lat="46.3501" lon="-0.46309">
        <ele>68</ele>
        <time>2012-10-23T14:17:50Z</time>
      </trkpt>
      <trkpt lat="46.3501" lon="-0.46297">
        <ele>68</ele>
        <time>2012-10-23T14:17:55Z</time>
      </trkpt>
      <trkpt lat="46.35007" lon="-0.46284">
        <ele>71</ele>
        <time>2012-10-23T14:18:00Z</time>
      </trkpt>
      <trkpt lat="46.35003" lon="-0.46276">
        <ele>76</ele>
        <time>2012-10-23T14:18:05Z</time>
      </trkpt>
      <trkpt lat="46.35001" lon="-0.46271">
        <ele>76</ele>
        <time>2012-10-23T14:18:10Z</time>
      </trkpt>
      <trkpt lat="46.34999" lon="-0.46262">
        <ele>74</ele>
        <time>2012-10-23T14:18:15Z</time>
      </trkpt>
      <trkpt lat="46.34998" lon="-0.46254">
        <ele>73</ele>
        <time>2012-10-23T14:18:20Z</time>
      </trkpt>
      <trkpt lat="46.34998" lon="-0.46248">
        <ele>72</ele>
        <time>2012-10-23T14:18:25Z</time>
      </trkpt>
      <trkpt lat="46.34997" lon="-0.46238">
        <ele>71</ele>
        <time>2012-10-23T14:18:30Z</time>
      </trkpt>
      <trkpt lat="46.34999" lon="-0.46228">
        <ele>71</ele>
        <time>2012-10-23T14:18:35Z</time>
      </trkpt>
      <trkpt lat="46.35001" lon="-0.46218">
        <ele>75</ele>
        <time>2012-10-23T14:18:40Z</time>
      </trkpt>
      <trkpt lat="46.35001" lon="-0.4621">
        <ele>74</ele>
        <time>2012-10-23T14:18:45Z</time>
      </trkpt>
      <trkpt lat="46.35007" lon="-0.46202">
        <ele>76</ele>
        <time>2012-10-23T14:18:50Z</time>
      </trkpt>
      <trkpt lat="46.35009" lon="-0.46192">
        <ele>77</ele>
        <time>2012-10-23T14:18:55Z</time>
      </trkpt>
      <trkpt lat="46.3501" lon="-0.46184">
        <ele>76</ele>
        <time>2012-10-23T14:19:00Z</time>
      </trkpt>
      <trkpt lat="46.35015" lon="-0.46175">
        <ele>77</ele>
        <time>2012-10-23T14:19:05Z</time>
      </trkpt>
      <trkpt lat="46.35012" lon="-0.46166">
        <ele>75</ele>
        <time>2012-10-23T14:19:10Z</time>
      </trkpt>
      <trkpt lat="46.35011" lon="-0.46158">
        <ele>75</ele>
        <time>2012-10-23T14:19:15Z</time>
      </trkpt>
      <trkpt lat="46.3501" lon="-0.46151">
        <ele>73</ele>
        <time>2012-10-23T14:19:20Z</time>
      </trkpt>
      <trkpt lat="46.35007" lon="-0.4614">
        <ele>83</ele>
        <time>2012-10-23T14:19:25Z</time>
      </trkpt>
      <trkpt lat="46.35007" lon="-0.46132">
        <ele>85</ele>
        <time>2012-10-23T14:19:30Z</time>
      </trkpt>
      <trkpt lat="46.35004" lon="-0.46131">
        <ele>83</ele>
        <time>2012-10-23T14:19:35Z</time>
      </trkpt>
      <trkpt lat="46.35004" lon="-0.46131">
        <ele>82</ele>
        <time>2012-10-23T14:19:40Z</time>
      </trkpt>
      <trkpt lat="46.35004" lon="-0.46129">
        <ele>81</ele>
        <time>2012-10-23T14:19:45Z</time>
      </trkpt>
      <trkpt lat="46.35006" lon="-0.46121">
        <ele>78</ele>
        <time>2012-10-23T14:19:50Z</time>
      </trkpt>
      <trkpt lat="46.35009" lon="-0.4611">
        <ele>80</ele>
        <time>2012-10-23T14:19:55Z</time>
      </trkpt>
      <trkpt lat="46.35012" lon="-0.461">
        <ele>79</ele>
        <time>2012-10-23T14:20:00Z</time>
      </trkpt>
      <trkpt lat="46.35014" lon="-0.46089">
        <ele>78</ele>
        <time>2012-10-23T14:20:05Z</time>
      </trkpt>
      <trkpt lat="46.35017" lon="-0.4608">
        <ele>77</ele>
        <time>2012-10-23T14:20:10Z</time>
      </trkpt>
      <trkpt lat="46.35017" lon="-0.46072">
        <ele>76</ele>
        <time>2012-10-23T14:20:15Z</time>
      </trkpt>
      <trkpt lat="46.35018" lon="-0.46061">
        <ele>75</ele>
        <time>2012-10-23T14:20:20Z</time>
      </trkpt>
      <trkpt lat="46.3502" lon="-0.4605">
        <ele>72</ele>
        <time>2012-10-23T14:20:25Z</time>
      </trkpt>
      <trkpt lat="46.35022" lon="-0.46045">
        <ele>72</ele>
        <time>2012-10-23T14:20:30Z</time>
      </trkpt>
      <trkpt lat="46.35028" lon="-0.46042">
        <ele>69</ele>
        <time>2012-10-23T14:20:35Z</time>
      </trkpt>
      <trkpt lat="46.35028" lon="-0.46042">
        <ele>70</ele>
        <time>2012-10-23T14:20:40Z</time>
      </trkpt>
      <trkpt lat="46.35028" lon="-0.46041">
        <ele>69</ele>
        <time>2012-10-23T14:20:45Z</time>
      </trkpt>
      <trkpt lat="46.3503" lon="-0.46036">
        <ele>69</ele>
        <time>2012-10-23T14:21:05Z</time>
      </trkpt>
      <trkpt lat="46.35031" lon="-0.46035">
        <ele>70</ele>
        <time>2012-10-23T14:21:10Z</time>
      </trkpt>
      <trkpt lat="46.3503" lon="-0.4603">
        <ele>69</ele>
        <time>2012-10-23T14:21:15Z</time>
      </trkpt>
      <trkpt lat="46.35029" lon="-0.46024">
        <ele>68</ele>
        <time>2012-10-23T14:21:20Z</time>
      </trkpt>
      <trkpt lat="46.3503" lon="-0.46016">
        <ele>67</ele>
        <time>2012-10-23T14:21:25Z</time>
      </trkpt>
      <trkpt lat="46.35031" lon="-0.46007">
        <ele>69</ele>
        <time>2012-10-23T14:21:30Z</time>
      </trkpt>
      <trkpt lat="46.35032" lon="-0.46">
        <ele>69</ele>
        <time>2012-10-23T14:21:35Z</time>
      </trkpt>
      <trkpt lat="46.35033" lon="-0.45992">
        <ele>69</ele>
        <time>2012-10-23T14:21:40Z</time>
      </trkpt>
      <trkpt lat="46.35034" lon="-0.45984">
        <ele>70</ele>
        <time>2012-10-23T14:21:45Z</time>
      </trkpt>
      <trkpt lat="46.35038" lon="-0.45977">
        <ele>71</ele>
        <time>2012-10-23T14:21:50Z</time>
      </trkpt>
      <trkpt lat="46.35038" lon="-0.4597">
        <ele>69</ele>
        <time>2012-10-23T14:21:55Z</time>
      </trkpt>
      <trkpt lat="46.35039" lon="-0.45963">
        <ele>70</ele>
        <time>2012-10-23T14:22:00Z</time>
      </trkpt>
      <trkpt lat="46.35039" lon="-0.45954">
        <ele>70</ele>
        <time>2012-10-23T14:22:05Z</time>
      </trkpt>
      <trkpt lat="46.35037" lon="-0.45947">
        <ele>68</ele>
        <time>2012-10-23T14:22:10Z</time>
      </trkpt>
      <trkpt lat="46.35037" lon="-0.45939">
        <ele>67</ele>
        <time>2012-10-23T14:22:15Z</time>
      </trkpt>
      <trkpt lat="46.35041" lon="-0.45931">
        <ele>70</ele>
        <time>2012-10-23T14:22:20Z</time>
      </trkpt>
      <trkpt lat="46.35042" lon="-0.45924">
        <ele>70</ele>
        <time>2012-10-23T14:22:25Z</time>
      </trkpt>
      <trkpt lat="46.35042" lon="-0.45916">
        <ele>70</ele>
        <time>2012-10-23T14:22:30Z</time>
      </trkpt>
      <trkpt lat="46.35038" lon="-0.45905">
        <ele>72</ele>
        <time>2012-10-23T14:22:35Z</time>
      </trkpt>
      <trkpt lat="46.35037" lon="-0.45897">
        <ele>73</ele>
        <time>2012-10-23T14:22:40Z</time>
      </trkpt>
      <trkpt lat="46.35035" lon="-0.45893">
        <ele>73</ele>
        <time>2012-10-23T14:22:45Z</time>
      </trkpt>
      <trkpt lat="46.35035" lon="-0.45883">
        <ele>75</ele>
        <time>2012-10-23T14:22:50Z</time>
      </trkpt>
      <trkpt lat="46.35036" lon="-0.45875">
        <ele>76</ele>
        <time>2012-10-23T14:22:55Z</time>
      </trkpt>
      <trkpt lat="46.35033" lon="-0.45864">
        <ele>73</ele>
        <time>2012-10-23T14:23:00Z</time>
      </trkpt>
      <trkpt lat="46.3503" lon="-0.45856">
        <ele>72</ele>
        <time>2012-10-23T14:23:05Z</time>
      </trkpt>
      <trkpt lat="46.35031" lon="-0.45847">
        <ele>72</ele>
        <time>2012-10-23T14:23:10Z</time>
      </trkpt>
      <trkpt lat="46.35039" lon="-0.45842">
        <ele>76</ele>
        <time>2012-10-23T14:23:15Z</time>
      </trkpt>
      <trkpt lat="46.35042" lon="-0.45838">
        <ele>75</ele>
        <time>2012-10-23T14:23:20Z</time>
      </trkpt>
      <trkpt lat="46.35041" lon="-0.4583">
        <ele>74</ele>
        <time>2012-10-23T14:23:25Z</time>
      </trkpt>
      <trkpt lat="46.35041" lon="-0.45827">
        <ele>74</ele>
        <time>2012-10-23T14:23:30Z</time>
      </trkpt>
      <trkpt lat="46.35047" lon="-0.45822">
        <ele>75</ele>
        <time>2012-10-23T14:23:35Z</time>
      </trkpt>
      <trkpt lat="46.35045" lon="-0.45817">
        <ele>75</ele>
        <time>2012-10-23T14:23:40Z</time>
      </trkpt>
      <trkpt lat="46.35045" lon="-0.45812">
        <ele>75</ele>
        <time>2012-10-23T14:23:45Z</time>
      </trkpt>
      <trkpt lat="46.35044" lon="-0.45807">
        <ele>74</ele>
        <time>2012-10-23T14:23:50Z</time>
      </trkpt>
      <trkpt lat="46.35049" lon="-0.458">
        <ele>75</ele>
        <time>2012-10-23T14:23:55Z</time>
      </trkpt>
      <trkpt lat="46.3505" lon="-0.45793">
        <ele>74</ele>
        <time>2012-10-23T14:24:00Z</time>
      </trkpt>
      <trkpt lat="46.35056" lon="-0.45784">
        <ele>76</ele>
        <time>2012-10-23T14:24:05Z</time>
      </trkpt>
      <trkpt lat="46.35058" lon="-0.4578">
        <ele>73</ele>
        <time>2012-10-23T14:24:10Z</time>
      </trkpt>
      <trkpt lat="46.3506" lon="-0.45779">
        <ele>71</ele>
        <time>2012-10-23T14:24:15Z</time>
      </trkpt>
      <trkpt lat="46.35064" lon="-0.45775">
        <ele>71</ele>
        <time>2012-10-23T14:24:20Z</time>
      </trkpt>
      <trkpt lat="46.35065" lon="-0.45767">
        <ele>71</ele>
        <time>2012-10-23T14:24:25Z</time>
      </trkpt>
      <trkpt lat="46.35067" lon="-0.45758">
        <ele>70</ele>
        <time>2012-10-23T14:24:30Z</time>
      </trkpt>
      <trkpt lat="46.35067" lon="-0.45753">
        <ele>67</ele>
        <time>2012-10-23T14:24:35Z</time>
      </trkpt>
      <trkpt lat="46.3507" lon="-0.45745">
        <ele>66</ele>
        <time>2012-10-23T14:24:40Z</time>
      </trkpt>
      <trkpt lat="46.35075" lon="-0.45738">
        <ele>66</ele>
        <time>2012-10-23T14:24:45Z</time>
      </trkpt>
      <trkpt lat="46.3508" lon="-0.45731">
        <ele>67</ele>
        <time>2012-10-23T14:24:50Z</time>
      </trkpt>
      <trkpt lat="46.35082" lon="-0.45724">
        <ele>69</ele>
        <time>2012-10-23T14:24:55Z</time>
      </trkpt>
      <trkpt lat="46.35084" lon="-0.45717">
        <ele>67</ele>
        <time>2012-10-23T14:25:00Z</time>
      </trkpt>
      <trkpt lat="46.35085" lon="-0.45712">
        <ele>69</ele>
        <time>2012-10-23T14:25:05Z</time>
      </trkpt>
      <trkpt lat="46.35086" lon="-0.45708">
        <ele>69</ele>
        <time>2012-10-23T14:25:10Z</time>
      </trkpt>
      <trkpt lat="46.35087" lon="-0.45702">
        <ele>68</ele>
        <time>2012-10-23T14:25:15Z</time>
      </trkpt>
      <trkpt lat="46.35091" lon="-0.45696">
        <ele>69</ele>
        <time>2012-10-23T14:25:20Z</time>
      </trkpt>
      <trkpt lat="46.35092" lon="-0.4569">
        <ele>69</ele>
        <time>2012-10-23T14:25:25Z</time>
      </trkpt>
      <trkpt lat="46.35095" lon="-0.45686">
        <ele>68</ele>
        <time>2012-10-23T14:25:30Z</time>
      </trkpt>
      <trkpt lat="46.351" lon="-0.45675">
        <ele>67</ele>
        <time>2012-10-23T14:25:35Z</time>
      </trkpt>
      <trkpt lat="46.35102" lon="-0.4567">
        <ele>66</ele>
        <time>2012-10-23T14:25:40Z</time>
      </trkpt>
      <trkpt lat="46.35107" lon="-0.45664">
        <ele>65</ele>
        <time>2012-10-23T14:25:45Z</time>
      </trkpt>
      <trkpt lat="46.35114" lon="-0.45658">
        <ele>66</ele>
        <time>2012-10-23T14:25:50Z</time>
      </trkpt>
      <trkpt lat="46.35118" lon="-0.45651">
        <ele>66</ele>
        <time>2012-10-23T14:25:55Z</time>
      </trkpt>
      <trkpt lat="46.35123" lon="-0.45643">
        <ele>67</ele>
        <time>2012-10-23T14:26:00Z</time>
      </trkpt>
      <trkpt lat="46.35128" lon="-0.45636">
        <ele>67</ele>
        <time>2012-10-23T14:26:05Z</time>
      </trkpt>
      <trkpt lat="46.35132" lon="-0.4563">
        <ele>65</ele>
        <time>2012-10-23T14:26:10Z</time>
      </trkpt>
      <trkpt lat="46.35136" lon="-0.45625">
        <ele>66</ele>
        <time>2012-10-23T14:26:15Z</time>
      </trkpt>
      <trkpt lat="46.35141" lon="-0.4562">
        <ele>67</ele>
        <time>2012-10-23T14:26:20Z</time>
      </trkpt>
      <trkpt lat="46.35146" lon="-0.45617">
        <ele>67</ele>
        <time>2012-10-23T14:26:25Z</time>
      </trkpt>
      <trkpt lat="46.35151" lon="-0.45613">
        <ele>67</ele>
        <time>2012-10-23T14:26:30Z</time>
      </trkpt>
      <trkpt lat="46.35155" lon="-0.45609">
        <ele>67</ele>
        <time>2012-10-23T14:26:35Z</time>
      </trkpt>
      <trkpt lat="46.35159" lon="-0.45603">
        <ele>66</ele>
        <time>2012-10-23T14:26:40Z</time>
      </trkpt>
      <trkpt lat="46.35165" lon="-0.45599">
        <ele>66</ele>
        <time>2012-10-23T14:26:45Z</time>
      </trkpt>
      <trkpt lat="46.3517" lon="-0.45594">
        <ele>65</ele>
        <time>2012-10-23T14:26:50Z</time>
      </trkpt>
      <trkpt lat="46.35175" lon="-0.4559">
        <ele>65</ele>
        <time>2012-10-23T14:26:55Z</time>
      </trkpt>
      <trkpt lat="46.35181" lon="-0.45587">
        <ele>64</ele>
        <time>2012-10-23T14:27:00Z</time>
      </trkpt>
      <trkpt lat="46.35184" lon="-0.45585">
        <ele>62</ele>
        <time>2012-10-23T14:27:05Z</time>
      </trkpt>
      <trkpt lat="46.35191" lon="-0.45583">
        <ele>63</ele>
        <time>2012-10-23T14:27:10Z</time>
      </trkpt>
      <trkpt lat="46.35201" lon="-0.45579">
        <ele>65</ele>
        <time>2012-10-23T14:27:15Z</time>
      </trkpt>
      <trkpt lat="46.35206" lon="-0.45577">
        <ele>65</ele>
        <time>2012-10-23T14:27:20Z</time>
      </trkpt>
      <trkpt lat="46.35211" lon="-0.45575">
        <ele>65</ele>
        <time>2012-10-23T14:27:25Z</time>
      </trkpt>
      <trkpt lat="46.35215" lon="-0.45574">
        <ele>65</ele>
        <time>2012-10-23T14:27:30Z</time>
      </trkpt>
      <trkpt lat="46.35218" lon="-0.45576">
        <ele>66</ele>
        <time>2012-10-23T14:27:35Z</time>
      </trkpt>
      <trkpt lat="46.35223" lon="-0.45574">
        <ele>65</ele>
        <time>2012-10-23T14:27:40Z</time>
      </trkpt>
      <trkpt lat="46.35229" lon="-0.45572">
        <ele>64</ele>
        <time>2012-10-23T14:27:45Z</time>
      </trkpt>
      <trkpt lat="46.35235" lon="-0.45569">
        <ele>64</ele>
        <time>2012-10-23T14:27:50Z</time>
      </trkpt>
      <trkpt lat="46.35241" lon="-0.45565">
        <ele>64</ele>
        <time>2012-10-23T14:27:55Z</time>
      </trkpt>
      <trkpt lat="46.35246" lon="-0.45564">
        <ele>64</ele>
        <time>2012-10-23T14:28:00Z</time>
      </trkpt>
      <trkpt lat="46.35254" lon="-0.45563">
        <ele>64</ele>
        <time>2012-10-23T14:28:05Z</time>
      </trkpt>
      <trkpt lat="46.35258" lon="-0.45562">
        <ele>64</ele>
        <time>2012-10-23T14:28:10Z</time>
      </trkpt>
      <trkpt lat="46.35264" lon="-0.45561">
        <ele>64</ele>
        <time>2012-10-23T14:28:15Z</time>
      </trkpt>
      <trkpt lat="46.3527" lon="-0.45561">
        <ele>65</ele>
        <time>2012-10-23T14:28:20Z</time>
      </trkpt>
      <trkpt lat="46.35276" lon="-0.45562">
        <ele>65</ele>
        <time>2012-10-23T14:28:25Z</time>
      </trkpt>
      <trkpt lat="46.35281" lon="-0.45563">
        <ele>64</ele>
        <time>2012-10-23T14:28:30Z</time>
      </trkpt>
      <trkpt lat="46.35286" lon="-0.45564">
        <ele>64</ele>
        <time>2012-10-23T14:28:35Z</time>
      </trkpt>
      <trkpt lat="46.35291" lon="-0.45568">
        <ele>64</ele>
        <time>2012-10-23T14:28:40Z</time>
      </trkpt>
      <trkpt lat="46.35297" lon="-0.45569">
        <ele>64</ele>
        <time>2012-10-23T14:28:45Z</time>
      </trkpt>
      <trkpt lat="46.35301" lon="-0.45573">
        <ele>65</ele>
        <time>2012-10-23T14:28:50Z</time>
      </trkpt>
      <trkpt lat="46.35309" lon="-0.45574">
        <ele>65</ele>
        <time>2012-10-23T14:28:55Z</time>
      </trkpt>
      <trkpt lat="46.35315" lon="-0.45576">
        <ele>65</ele>
        <time>2012-10-23T14:29:00Z</time>
      </trkpt>
      <trkpt lat="46.3532" lon="-0.45574">
        <ele>65</ele>
        <time>2012-10-23T14:29:05Z</time>
      </trkpt>
      <trkpt lat="46.35324" lon="-0.45577">
        <ele>66</ele>
        <time>2012-10-23T14:29:10Z</time>
      </trkpt>
      <trkpt lat="46.3533" lon="-0.4558">
        <ele>68</ele>
        <time>2012-10-23T14:29:15Z</time>
      </trkpt>
      <trkpt lat="46.35336" lon="-0.45583">
        <ele>66</ele>
        <time>2012-10-23T14:29:20Z</time>
      </trkpt>
      <trkpt lat="46.35339" lon="-0.45585">
        <ele>65</ele>
        <time>2012-10-23T14:29:25Z</time>
      </trkpt>
      <trkpt lat="46.35344" lon="-0.45586">
        <ele>64</ele>
        <time>2012-10-23T14:29:30Z</time>
      </trkpt>
      <trkpt lat="46.3535" lon="-0.45587">
        <ele>65</ele>
        <time>2012-10-23T14:29:35Z</time>
      </trkpt>
      <trkpt lat="46.35354" lon="-0.4559">
        <ele>67</ele>
        <time>2012-10-23T14:29:40Z</time>
      </trkpt>
      <trkpt lat="46.3536" lon="-0.45591">
        <ele>68</ele>
        <time>2012-10-23T14:29:45Z</time>
      </trkpt>
      <trkpt lat="46.35363" lon="-0.45592">
        <ele>67</ele>
        <time>2012-10-23T14:29:50Z</time>
      </trkpt>
      <trkpt lat="46.35366" lon="-0.45593">
        <ele>67</ele>
        <time>2012-10-23T14:29:55Z</time>
      </trkpt>
      <trkpt lat="46.35369" lon="-0.45596">
        <ele>66</ele>
        <time>2012-10-23T14:30:00Z</time>
      </trkpt>
      <trkpt lat="46.35376" lon="-0.45599">
        <ele>67</ele>
        <time>2012-10-23T14:30:05Z</time>
      </trkpt>
      <trkpt lat="46.35381" lon="-0.456">
        <ele>68</ele>
        <time>2012-10-23T14:30:10Z</time>
      </trkpt>
      <trkpt lat="46.35389" lon="-0.45603">
        <ele>70</ele>
        <time>2012-10-23T14:30:15Z</time>
      </trkpt>
      <trkpt lat="46.35393" lon="-0.45606">
        <ele>71</ele>
        <time>2012-10-23T14:30:20Z</time>
      </trkpt>
      <trkpt lat="46.354" lon="-0.45607">
        <ele>71</ele>
        <time>2012-10-23T14:30:25Z</time>
      </trkpt>
      <trkpt lat="46.35404" lon="-0.45612">
        <ele>69</ele>
        <time>2012-10-23T14:30:30Z</time>
      </trkpt>
      <trkpt lat="46.35409" lon="-0.45618">
        <ele>70</ele>
        <time>2012-10-23T14:30:35Z</time>
      </trkpt>
      <trkpt lat="46.35412" lon="-0.45623">
        <ele>69</ele>
        <time>2012-10-23T14:30:40Z</time>
      </trkpt>
      <trkpt lat="46.35414" lon="-0.4563">
        <ele>70</ele>
        <time>2012-10-23T14:30:45Z</time>
      </trkpt>
      <trkpt lat="46.3542" lon="-0.45633">
        <ele>70</ele>
        <time>2012-10-23T14:30:50Z</time>
      </trkpt>
      <trkpt lat="46.35421" lon="-0.45639">
        <ele>69</ele>
        <time>2012-10-23T14:30:55Z</time>
      </trkpt>
      <trkpt lat="46.35426" lon="-0.45644">
        <ele>69</ele>
        <time>2012-10-23T14:31:00Z</time>
      </trkpt>
      <trkpt lat="46.35428" lon="-0.4565">
        <ele>66</ele>
        <time>2012-10-23T14:31:05Z</time>
      </trkpt>
      <trkpt lat="46.35432" lon="-0.45657">
        <ele>65</ele>
        <time>2012-10-23T14:31:10Z</time>
      </trkpt>
      <trkpt lat="46.35431" lon="-0.4566">
        <ele>65</ele>
        <time>2012-10-23T14:31:15Z</time>
      </trkpt>
      <trkpt lat="46.35428" lon="-0.45665">
        <ele>66</ele>
        <time>2012-10-23T14:31:20Z</time>
      </trkpt>
      <trkpt lat="46.35425" lon="-0.45668">
        <ele>65</ele>
        <time>2012-10-23T14:31:25Z</time>
      </trkpt>
      <trkpt lat="46.35422" lon="-0.45672">
        <ele>64</ele>
        <time>2012-10-23T14:31:30Z</time>
      </trkpt>
      <trkpt lat="46.35419" lon="-0.4568">
        <ele>64</ele>
        <time>2012-10-23T14:31:35Z</time>
      </trkpt>
      <trkpt lat="46.35417" lon="-0.45681">
        <ele>65</ele>
        <time>2012-10-23T14:31:40Z</time>
      </trkpt>
      <trkpt lat="46.35412" lon="-0.4569">
        <ele>65</ele>
        <time>2012-10-23T14:31:45Z</time>
      </trkpt>
      <trkpt lat="46.35411" lon="-0.45695">
        <ele>63</ele>
        <time>2012-10-23T14:31:50Z</time>
      </trkpt>
      <trkpt lat="46.35412" lon="-0.45704">
        <ele>64</ele>
        <time>2012-10-23T14:31:55Z</time>
      </trkpt>
      <trkpt lat="46.35416" lon="-0.45708">
        <ele>64</ele>
        <time>2012-10-23T14:32:00Z</time>
      </trkpt>
      <trkpt lat="46.35421" lon="-0.45711">
        <ele>65</ele>
        <time>2012-10-23T14:32:05Z</time>
      </trkpt>
      <trkpt lat="46.35426" lon="-0.45714">
        <ele>65</ele>
        <time>2012-10-23T14:32:10Z</time>
      </trkpt>
      <trkpt lat="46.3543" lon="-0.45719">
        <ele>66</ele>
        <time>2012-10-23T14:32:15Z</time>
      </trkpt>
      <trkpt lat="46.35435" lon="-0.45724">
        <ele>67</ele>
        <time>2012-10-23T14:32:20Z</time>
      </trkpt>
      <trkpt lat="46.3544" lon="-0.4573">
        <ele>66</ele>
        <time>2012-10-23T14:32:25Z</time>
      </trkpt>
      <trkpt lat="46.35445" lon="-0.45733">
        <ele>65</ele>
        <time>2012-10-23T14:32:30Z</time>
      </trkpt>
      <trkpt lat="46.3545" lon="-0.45738">
        <ele>64</ele>
        <time>2012-10-23T14:32:35Z</time>
      </trkpt>
      <trkpt lat="46.35454" lon="-0.45738">
        <ele>63</ele>
        <time>2012-10-23T14:32:40Z</time>
      </trkpt>
      <trkpt lat="46.35458" lon="-0.45745">
        <ele>63</ele>
        <time>2012-10-23T14:32:45Z</time>
      </trkpt>
      <trkpt lat="46.35462" lon="-0.45754">
        <ele>63</ele>
        <time>2012-10-23T14:32:50Z</time>
      </trkpt>
      <trkpt lat="46.35466" lon="-0.45761">
        <ele>65</ele>
        <time>2012-10-23T14:32:55Z</time>
      </trkpt>
      <trkpt lat="46.3547" lon="-0.45767">
        <ele>65</ele>
        <time>2012-10-23T14:33:00Z</time>
      </trkpt>
      <trkpt lat="46.35472" lon="-0.4577">
        <ele>64</ele>
        <time>2012-10-23T14:33:05Z</time>
      </trkpt>
      <trkpt lat="46.35473" lon="-0.45767">
        <ele>64</ele>
        <time>2012-10-23T14:33:10Z</time>
      </trkpt>
      <trkpt lat="46.35473" lon="-0.45767">
        <ele>63</ele>
        <time>2012-10-23T14:33:15Z</time>
      </trkpt>
      <trkpt lat="46.35474" lon="-0.45767">
        <ele>63</ele>
        <time>2012-10-23T14:33:35Z</time>
      </trkpt>
      <trkpt lat="46.35477" lon="-0.45765">
        <ele>64</ele>
        <time>2012-10-23T14:33:40Z</time>
      </trkpt>
      <trkpt lat="46.35482" lon="-0.45758">
        <ele>63</ele>
        <time>2012-10-23T14:33:45Z</time>
      </trkpt>
      <trkpt lat="46.35486" lon="-0.4575">
        <ele>63</ele>
        <time>2012-10-23T14:33:50Z</time>
      </trkpt>
      <trkpt lat="46.35491" lon="-0.45747">
        <ele>64</ele>
        <time>2012-10-23T14:33:55Z</time>
      </trkpt>
      <trkpt lat="46.35494" lon="-0.45745">
        <ele>62</ele>
        <time>2012-10-23T14:34:00Z</time>
      </trkpt>
      <trkpt lat="46.35498" lon="-0.45739">
        <ele>63</ele>
        <time>2012-10-23T14:34:05Z</time>
      </trkpt>
      <trkpt lat="46.35504" lon="-0.45732">
        <ele>63</ele>
        <time>2012-10-23T14:34:10Z</time>
      </trkpt>
      <trkpt lat="46.35509" lon="-0.45727">
        <ele>63</ele>
        <time>2012-10-23T14:34:15Z</time>
      </trkpt>
      <trkpt lat="46.35512" lon="-0.45722">
        <ele>65</ele>
        <time>2012-10-23T14:34:20Z</time>
      </trkpt>
      <trkpt lat="46.35515" lon="-0.45717">
        <ele>66</ele>
        <time>2012-10-23T14:34:25Z</time>
      </trkpt>
      <trkpt lat="46.3552" lon="-0.45711">
        <ele>67</ele>
        <time>2012-10-23T14:34:30Z</time>
      </trkpt>
      <trkpt lat="46.35522" lon="-0.45704">
        <ele>66</ele>
        <time>2012-10-23T14:34:35Z</time>
      </trkpt>
      <trkpt lat="46.35526" lon="-0.45696">
        <ele>67</ele>
        <time>2012-10-23T14:34:40Z</time>
      </trkpt>
      <trkpt lat="46.35531" lon="-0.45687">
        <ele>69</ele>
        <time>2012-10-23T14:34:45Z</time>
      </trkpt>
      <trkpt lat="46.35536" lon="-0.45681">
        <ele>69</ele>
        <time>2012-10-23T14:34:50Z</time>
      </trkpt>
      <trkpt lat="46.3554" lon="-0.45677">
        <ele>69</ele>
        <time>2012-10-23T14:34:55Z</time>
      </trkpt>
      <trkpt lat="46.35544" lon="-0.45672">
        <ele>71</ele>
        <time>2012-10-23T14:35:00Z</time>
      </trkpt>
      <trkpt lat="46.35545" lon="-0.45666">
        <ele>74</ele>
        <time>2012-10-23T14:35:05Z</time>
      </trkpt>
      <trkpt lat="46.35547" lon="-0.45664">
        <ele>73</ele>
        <time>2012-10-23T14:35:10Z</time>
      </trkpt>
      <trkpt lat="46.35544" lon="-0.45666">
        <ele>72</ele>
        <time>2012-10-23T14:35:15Z</time>
      </trkpt>
      <trkpt lat="46.35544" lon="-0.45665">
        <ele>73</ele>
        <time>2012-10-23T14:35:25Z</time>
      </trkpt>
      <trkpt lat="46.35548" lon="-0.45662">
        <ele>70</ele>
        <time>2012-10-23T14:35:30Z</time>
      </trkpt>
      <trkpt lat="46.35549" lon="-0.45659">
        <ele>71</ele>
        <time>2012-10-23T14:35:35Z</time>
      </trkpt>
      <trkpt lat="46.35551" lon="-0.45656">
        <ele>72</ele>
        <time>2012-10-23T14:35:40Z</time>
      </trkpt>
      <trkpt lat="46.35556" lon="-0.4565">
        <ele>71</ele>
        <time>2012-10-23T14:35:45Z</time>
      </trkpt>
      <trkpt lat="46.35564" lon="-0.4564">
        <ele>73</ele>
        <time>2012-10-23T14:35:50Z</time>
      </trkpt>
      <trkpt lat="46.35569" lon="-0.45637">
        <ele>74</ele>
        <time>2012-10-23T14:35:55Z</time>
      </trkpt>
      <trkpt lat="46.35573" lon="-0.45637">
        <ele>75</ele>
        <time>2012-10-23T14:36:00Z</time>
      </trkpt>
      <trkpt lat="46.35578" lon="-0.45642">
        <ele>74</ele>
        <time>2012-10-23T14:36:05Z</time>
      </trkpt>
      <trkpt lat="46.35582" lon="-0.45646">
        <ele>73</ele>
        <time>2012-10-23T14:36:10Z</time>
      </trkpt>
      <trkpt lat="46.35588" lon="-0.45654">
        <ele>72</ele>
        <time>2012-10-23T14:36:15Z</time>
      </trkpt>
      <trkpt lat="46.35594" lon="-0.45658">
        <ele>71</ele>
        <time>2012-10-23T14:36:20Z</time>
      </trkpt>
      <trkpt lat="46.35597" lon="-0.45664">
        <ele>72</ele>
        <time>2012-10-23T14:36:25Z</time>
      </trkpt>
      <trkpt lat="46.35601" lon="-0.45669">
        <ele>70</ele>
        <time>2012-10-23T14:36:30Z</time>
      </trkpt>
      <trkpt lat="46.35604" lon="-0.45676">
        <ele>69</ele>
        <time>2012-10-23T14:36:35Z</time>
      </trkpt>
      <trkpt lat="46.3561" lon="-0.45682">
        <ele>70</ele>
        <time>2012-10-23T14:36:40Z</time>
      </trkpt>
      <trkpt lat="46.35615" lon="-0.45688">
        <ele>67</ele>
        <time>2012-10-23T14:36:45Z</time>
      </trkpt>
      <trkpt lat="46.35619" lon="-0.45696">
        <ele>68</ele>
        <time>2012-10-23T14:36:50Z</time>
      </trkpt>
      <trkpt lat="46.35623" lon="-0.45707">
        <ele>70</ele>
        <time>2012-10-23T14:36:55Z</time>
      </trkpt>
      <trkpt lat="46.35625" lon="-0.45713">
        <ele>72</ele>
        <time>2012-10-23T14:37:00Z</time>
      </trkpt>
      <trkpt lat="46.35628" lon="-0.45722">
        <ele>74</ele>
        <time>2012-10-23T14:37:05Z</time>
      </trkpt>
      <trkpt lat="46.35631" lon="-0.45726">
        <ele>75</ele>
        <time>2012-10-23T14:37:10Z</time>
      </trkpt>
      <trkpt lat="46.35634" lon="-0.45732">
        <ele>75</ele>
        <time>2012-10-23T14:37:15Z</time>
      </trkpt>
      <trkpt lat="46.35639" lon="-0.45736">
        <ele>73</ele>
        <time>2012-10-23T14:37:20Z</time>
      </trkpt>
      <trkpt lat="46.35645" lon="-0.45737">
        <ele>72</ele>
        <time>2012-10-23T14:37:25Z</time>
      </trkpt>
      <trkpt lat="46.35651" lon="-0.45737">
        <ele>73</ele>
        <time>2012-10-23T14:37:30Z</time>
      </trkpt>
      <trkpt lat="46.35656" lon="-0.4574">
        <ele>72</ele>
        <time>2012-10-23T14:37:35Z</time>
      </trkpt>
      <trkpt lat="46.35653" lon="-0.45759">
        <ele>76</ele>
        <time>2012-10-23T14:37:40Z</time>
      </trkpt>
      <trkpt lat="46.35655" lon="-0.45767">
        <ele>78</ele>
        <time>2012-10-23T14:37:45Z</time>
      </trkpt>
      <trkpt lat="46.35658" lon="-0.45771">
        <ele>79</ele>
        <time>2012-10-23T14:37:50Z</time>
      </trkpt>
      <trkpt lat="46.35663" lon="-0.45779">
        <ele>81</ele>
        <time>2012-10-23T14:37:55Z</time>
      </trkpt>
      <trkpt lat="46.35667" lon="-0.45783">
        <ele>81</ele>
        <time>2012-10-23T14:38:00Z</time>
      </trkpt>
      <trkpt lat="46.35671" lon="-0.45789">
        <ele>80</ele>
        <time>2012-10-23T14:38:05Z</time>
      </trkpt>
      <trkpt lat="46.35674" lon="-0.45793">
        <ele>80</ele>
        <time>2012-10-23T14:38:10Z</time>
      </trkpt>
      <trkpt lat="46.35678" lon="-0.45798">
        <ele>79</ele>
        <time>2012-10-23T14:38:15Z</time>
      </trkpt>
      <trkpt lat="46.35682" lon="-0.45799">
        <ele>78</ele>
        <time>2012-10-23T14:38:20Z</time>
      </trkpt>
      <trkpt lat="46.35684" lon="-0.458">
        <ele>80</ele>
        <time>2012-10-23T14:38:25Z</time>
      </trkpt>
      <trkpt lat="46.35688" lon="-0.45796">
        <ele>79</ele>
        <time>2012-10-23T14:38:30Z</time>
      </trkpt>
      <trkpt lat="46.3569" lon="-0.45794">
        <ele>79</ele>
        <time>2012-10-23T14:38:35Z</time>
      </trkpt>
      <trkpt lat="46.35695" lon="-0.45787">
        <ele>77</ele>
        <time>2012-10-23T14:38:40Z</time>
      </trkpt>
      <trkpt lat="46.35698" lon="-0.45782">
        <ele>75</ele>
        <time>2012-10-23T14:38:45Z</time>
      </trkpt>
      <trkpt lat="46.35698" lon="-0.45781">
        <ele>75</ele>
        <time>2012-10-23T14:38:50Z</time>
      </trkpt>
      <trkpt lat="46.35701" lon="-0.45782">
        <ele>76</ele>
        <time>2012-10-23T14:38:55Z</time>
      </trkpt>
      <trkpt lat="46.35704" lon="-0.45777">
        <ele>76</ele>
        <time>2012-10-23T14:39:00Z</time>
      </trkpt>
      <trkpt lat="46.35705" lon="-0.45769">
        <ele>77</ele>
        <time>2012-10-23T14:39:05Z</time>
      </trkpt>
      <trkpt lat="46.35708" lon="-0.45764">
        <ele>78</ele>
        <time>2012-10-23T14:39:10Z</time>
      </trkpt>
      <trkpt lat="46.35708" lon="-0.45757">
        <ele>78</ele>
        <time>2012-10-23T14:39:15Z</time>
      </trkpt>
      <trkpt lat="46.35708" lon="-0.4575">
        <ele>79</ele>
        <time>2012-10-23T14:39:20Z</time>
      </trkpt>
      <trkpt lat="46.35706" lon="-0.45744">
        <ele>80</ele>
        <time>2012-10-23T14:39:25Z</time>
      </trkpt>
      <trkpt lat="46.35705" lon="-0.45738">
        <ele>81</ele>
        <time>2012-10-23T14:39:30Z</time>
      </trkpt>
      <trkpt lat="46.35704" lon="-0.45736">
        <ele>81</ele>
        <time>2012-10-23T14:39:35Z</time>
      </trkpt>
      <trkpt lat="46.35704" lon="-0.45727">
        <ele>83</ele>
        <time>2012-10-23T14:39:40Z</time>
      </trkpt>
      <trkpt lat="46.35702" lon="-0.45717">
        <ele>87</ele>
        <time>2012-10-23T14:39:45Z</time>
      </trkpt>
      <trkpt lat="46.357" lon="-0.45708">
        <ele>87</ele>
        <time>2012-10-23T14:39:50Z</time>
      </trkpt>
      <trkpt lat="46.35699" lon="-0.45704">
        <ele>86</ele>
        <time>2012-10-23T14:39:55Z</time>
      </trkpt>
      <trkpt lat="46.35697" lon="-0.45696">
        <ele>86</ele>
        <time>2012-10-23T14:40:00Z</time>
      </trkpt>
      <trkpt lat="46.35696" lon="-0.45692">
        <ele>87</ele>
        <time>2012-10-23T14:40:05Z</time>
      </trkpt>
      <trkpt lat="46.35694" lon="-0.45683">
        <ele>88</ele>
        <time>2012-10-23T14:40:10Z</time>
      </trkpt>
      <trkpt lat="46.35691" lon="-0.45674">
        <ele>88</ele>
        <time>2012-10-23T14:40:15Z</time>
      </trkpt>
      <trkpt lat="46.3569" lon="-0.45664">
        <ele>89</ele>
        <time>2012-10-23T14:40:20Z</time>
      </trkpt>
      <trkpt lat="46.35689" lon="-0.45658">
        <ele>92</ele>
        <time>2012-10-23T14:40:25Z</time>
      </trkpt>
      <trkpt lat="46.35687" lon="-0.45654">
        <ele>92</ele>
        <time>2012-10-23T14:40:30Z</time>
      </trkpt>
      <trkpt lat="46.35683" lon="-0.45645">
        <ele>92</ele>
        <time>2012-10-23T14:40:35Z</time>
      </trkpt>
      <trkpt lat="46.35681" lon="-0.45635">
        <ele>93</ele>
        <time>2012-10-23T14:40:40Z</time>
      </trkpt>
      <trkpt lat="46.35676" lon="-0.45627">
        <ele>92</ele>
        <time>2012-10-23T14:40:45Z</time>
      </trkpt>
      <trkpt lat="46.35675" lon="-0.45626">
        <ele>93</ele>
        <time>2012-10-23T14:40:50Z</time>
      </trkpt>
      <trkpt lat="46.35673" lon="-0.45616">
        <ele>92</ele>
        <time>2012-10-23T14:40:55Z</time>
      </trkpt>
      <trkpt lat="46.35671" lon="-0.45606">
        <ele>92</ele>
        <time>2012-10-23T14:41:00Z</time>
      </trkpt>
      <trkpt lat="46.35668" lon="-0.45597">
        <ele>92</ele>
        <time>2012-10-23T14:41:05Z</time>
      </trkpt>
      <trkpt lat="46.35666" lon="-0.45595">
        <ele>91</ele>
        <time>2012-10-23T14:41:10Z</time>
      </trkpt>
      <trkpt lat="46.35663" lon="-0.45587">
        <ele>92</ele>
        <time>2012-10-23T14:41:15Z</time>
      </trkpt>
      <trkpt lat="46.35661" lon="-0.45578">
        <ele>94</ele>
        <time>2012-10-23T14:41:20Z</time>
      </trkpt>
      <trkpt lat="46.35659" lon="-0.45571">
        <ele>95</ele>
        <time>2012-10-23T14:41:25Z</time>
      </trkpt>
      <trkpt lat="46.35656" lon="-0.45566">
        <ele>96</ele>
        <time>2012-10-23T14:41:30Z</time>
      </trkpt>
      <trkpt lat="46.35651" lon="-0.45558">
        <ele>94</ele>
        <time>2012-10-23T14:41:35Z</time>
      </trkpt>
      <trkpt lat="46.35648" lon="-0.45549">
        <ele>98</ele>
        <time>2012-10-23T14:41:40Z</time>
      </trkpt>
      <trkpt lat="46.35646" lon="-0.45543">
        <ele>97</ele>
        <time>2012-10-23T14:41:45Z</time>
      </trkpt>
      <trkpt lat="46.35645" lon="-0.45543">
        <ele>98</ele>
        <time>2012-10-23T14:41:50Z</time>
      </trkpt>
      <trkpt lat="46.35644" lon="-0.45536">
        <ele>99</ele>
        <time>2012-10-23T14:41:55Z</time>
      </trkpt>
      <trkpt lat="46.35641" lon="-0.45529">
        <ele>98</ele>
        <time>2012-10-23T14:42:00Z</time>
      </trkpt>
      <trkpt lat="46.35636" lon="-0.45523">
        <ele>96</ele>
        <time>2012-10-23T14:42:05Z</time>
      </trkpt>
      <trkpt lat="46.35631" lon="-0.45513">
        <ele>99</ele>
        <time>2012-10-23T14:42:10Z</time>
      </trkpt>
      <trkpt lat="46.35629" lon="-0.45509">
        <ele>97</ele>
        <time>2012-10-23T14:42:15Z</time>
      </trkpt>
      <trkpt lat="46.35627" lon="-0.455">
        <ele>96</ele>
        <time>2012-10-23T14:42:20Z</time>
      </trkpt>
      <trkpt lat="46.35624" lon="-0.45499">
        <ele>95</ele>
        <time>2012-10-23T14:42:25Z</time>
      </trkpt>
      <trkpt lat="46.35619" lon="-0.45491">
        <ele>96</ele>
        <time>2012-10-23T14:42:30Z</time>
      </trkpt>
      <trkpt lat="46.35615" lon="-0.45482">
        <ele>98</ele>
        <time>2012-10-23T14:42:35Z</time>
      </trkpt>
      <trkpt lat="46.35612" lon="-0.45477">
        <ele>97</ele>
        <time>2012-10-23T14:42:40Z</time>
      </trkpt>
      <trkpt lat="46.35608" lon="-0.45473">
        <ele>97</ele>
        <time>2012-10-23T14:42:45Z</time>
      </trkpt>
      <trkpt lat="46.35604" lon="-0.45466">
        <ele>96</ele>
        <time>2012-10-23T14:42:50Z</time>
      </trkpt>
      <trkpt lat="46.356" lon="-0.4546">
        <ele>94</ele>
        <time>2012-10-23T14:42:55Z</time>
      </trkpt>
      <trkpt lat="46.35598" lon="-0.45453">
        <ele>94</ele>
        <time>2012-10-23T14:43:00Z</time>
      </trkpt>
      <trkpt lat="46.35594" lon="-0.45449">
        <ele>94</ele>
        <time>2012-10-23T14:43:05Z</time>
      </trkpt>
      <trkpt lat="46.35588" lon="-0.45447">
        <ele>94</ele>
        <time>2012-10-23T14:43:10Z</time>
      </trkpt>
      <trkpt lat="46.35584" lon="-0.45434">
        <ele>95</ele>
        <time>2012-10-23T14:43:15Z</time>
      </trkpt>
      <trkpt lat="46.35582" lon="-0.45424">
        <ele>101</ele>
        <time>2012-10-23T14:43:20Z</time>
      </trkpt>
      <trkpt lat="46.35579" lon="-0.45417">
        <ele>102</ele>
        <time>2012-10-23T14:43:25Z</time>
      </trkpt>
      <trkpt lat="46.35575" lon="-0.45411">
        <ele>101</ele>
        <time>2012-10-23T14:43:30Z</time>
      </trkpt>
      <trkpt lat="46.3557" lon="-0.45404">
        <ele>101</ele>
        <time>2012-10-23T14:43:35Z</time>
      </trkpt>
      <trkpt lat="46.35566" lon="-0.454">
        <ele>101</ele>
        <time>2012-10-23T14:43:40Z</time>
      </trkpt>
      <trkpt lat="46.3556" lon="-0.45395">
        <ele>98</ele>
        <time>2012-10-23T14:43:45Z</time>
      </trkpt>
      <trkpt lat="46.35559" lon="-0.45393">
        <ele>98</ele>
        <time>2012-10-23T14:43:50Z</time>
      </trkpt>
      <trkpt lat="46.3556" lon="-0.45392">
        <ele>97</ele>
        <time>2012-10-23T14:43:55Z</time>
      </trkpt>
      <trkpt lat="46.35556" lon="-0.45389">
        <ele>96</ele>
        <time>2012-10-23T14:44:15Z</time>
      </trkpt>
      <trkpt lat="46.35549" lon="-0.45368">
        <ele>97</ele>
        <time>2012-10-23T14:44:20Z</time>
      </trkpt>
      <trkpt lat="46.35545" lon="-0.45349">
        <ele>102</ele>
        <time>2012-10-23T14:44:25Z</time>
      </trkpt>
      <trkpt lat="46.35544" lon="-0.45345">
        <ele>102</ele>
        <time>2012-10-23T14:44:30Z</time>
      </trkpt>
      <trkpt lat="46.35544" lon="-0.45345">
        <ele>101</ele>
        <time>2012-10-23T14:44:35Z</time>
      </trkpt>
      <trkpt lat="46.35546" lon="-0.45328">
        <ele>105</ele>
        <time>2012-10-23T14:44:40Z</time>
      </trkpt>
      <trkpt lat="46.35547" lon="-0.4532">
        <ele>105</ele>
        <time>2012-10-23T14:44:45Z</time>
      </trkpt>
      <trkpt lat="46.35545" lon="-0.45314">
        <ele>102</ele>
        <time>2012-10-23T14:44:50Z</time>
      </trkpt>
      <trkpt lat="46.35548" lon="-0.45306">
        <ele>101</ele>
        <time>2012-10-23T14:44:55Z</time>
      </trkpt>
      <trkpt lat="46.3555" lon="-0.45299">
        <ele>100</ele>
        <time>2012-10-23T14:45:00Z</time>
      </trkpt>
      <trkpt lat="46.35543" lon="-0.45296">
        <ele>95</ele>
        <time>2012-10-23T14:45:05Z</time>
      </trkpt>
      <trkpt lat="46.35537" lon="-0.45294">
        <ele>94</ele>
        <time>2012-10-23T14:45:10Z</time>
      </trkpt>
      <trkpt lat="46.35532" lon="-0.45291">
        <ele>91</ele>
        <time>2012-10-23T14:45:15Z</time>
      </trkpt>
      <trkpt lat="46.35538" lon="-0.45286">
        <ele>91</ele>
        <time>2012-10-23T14:45:20Z</time>
      </trkpt>
      <trkpt lat="46.35545" lon="-0.45287">
        <ele>91</ele>
        <time>2012-10-23T14:45:25Z</time>
      </trkpt>
      <trkpt lat="46.35552" lon="-0.45286">
        <ele>93</ele>
        <time>2012-10-23T14:45:30Z</time>
      </trkpt>
      <trkpt lat="46.35556" lon="-0.45285">
        <ele>93</ele>
        <time>2012-10-23T14:45:35Z</time>
      </trkpt>
      <trkpt lat="46.35565" lon="-0.45283">
        <ele>94</ele>
        <time>2012-10-23T14:45:40Z</time>
      </trkpt>
      <trkpt lat="46.3557" lon="-0.45283">
        <ele>95</ele>
        <time>2012-10-23T14:45:45Z</time>
      </trkpt>
      <trkpt lat="46.35575" lon="-0.45282">
        <ele>92</ele>
        <time>2012-10-23T14:45:50Z</time>
      </trkpt>
      <trkpt lat="46.35579" lon="-0.4528">
        <ele>92</ele>
        <time>2012-10-23T14:45:55Z</time>
      </trkpt>
      <trkpt lat="46.35585" lon="-0.45278">
        <ele>92</ele>
        <time>2012-10-23T14:46:00Z</time>
      </trkpt>
      <trkpt lat="46.35591" lon="-0.45273">
        <ele>92</ele>
        <time>2012-10-23T14:46:05Z</time>
      </trkpt>
      <trkpt lat="46.35595" lon="-0.45268">
        <ele>92</ele>
        <time>2012-10-23T14:46:10Z</time>
      </trkpt>
      <trkpt lat="46.35601" lon="-0.45264">
        <ele>93</ele>
        <time>2012-10-23T14:46:15Z</time>
      </trkpt>
      <trkpt lat="46.35604" lon="-0.4526">
        <ele>94</ele>
        <time>2012-10-23T14:46:20Z</time>
      </trkpt>
      <trkpt lat="46.35608" lon="-0.45254">
        <ele>94</ele>
        <time>2012-10-23T14:46:25Z</time>
      </trkpt>
      <trkpt lat="46.3561" lon="-0.4525">
        <ele>96</ele>
        <time>2012-10-23T14:46:30Z</time>
      </trkpt>
      <trkpt lat="46.35618" lon="-0.45244">
        <ele>98</ele>
        <time>2012-10-23T14:46:35Z</time>
      </trkpt>
      <trkpt lat="46.35623" lon="-0.45244">
        <ele>97</ele>
        <time>2012-10-23T14:46:40Z</time>
      </trkpt>
      <trkpt lat="46.35628" lon="-0.45241">
        <ele>97</ele>
        <time>2012-10-23T14:46:45Z</time>
      </trkpt>
      <trkpt lat="46.35628" lon="-0.45232">
        <ele>92</ele>
        <time>2012-10-23T14:46:50Z</time>
      </trkpt>
      <trkpt lat="46.35628" lon="-0.45227">
        <ele>92</ele>
        <time>2012-10-23T14:46:55Z</time>
      </trkpt>
      <trkpt lat="46.35628" lon="-0.45213">
        <ele>95</ele>
        <time>2012-10-23T14:47:00Z</time>
      </trkpt>
      <trkpt lat="46.35628" lon="-0.45204">
        <ele>97</ele>
        <time>2012-10-23T14:47:05Z</time>
      </trkpt>
      <trkpt lat="46.35631" lon="-0.45197">
        <ele>98</ele>
        <time>2012-10-23T14:47:10Z</time>
      </trkpt>
      <trkpt lat="46.3563" lon="-0.45191">
        <ele>98</ele>
        <time>2012-10-23T14:47:15Z</time>
      </trkpt>
      <trkpt lat="46.35634" lon="-0.45181">
        <ele>100</ele>
        <time>2012-10-23T14:47:20Z</time>
      </trkpt>
      <trkpt lat="46.35639" lon="-0.45177">
        <ele>99</ele>
        <time>2012-10-23T14:47:25Z</time>
      </trkpt>
      <trkpt lat="46.35644" lon="-0.45174">
        <ele>99</ele>
        <time>2012-10-23T14:47:30Z</time>
      </trkpt>
      <trkpt lat="46.35648" lon="-0.45168">
        <ele>99</ele>
        <time>2012-10-23T14:47:35Z</time>
      </trkpt>
      <trkpt lat="46.35649" lon="-0.45165">
        <ele>98</ele>
        <time>2012-10-23T14:47:40Z</time>
      </trkpt>
      <trkpt lat="46.35649" lon="-0.45165">
        <ele>99</ele>
        <time>2012-10-23T14:47:45Z</time>
      </trkpt>
      <trkpt lat="46.3565" lon="-0.45164">
        <ele>99</ele>
        <time>2012-10-23T14:47:50Z</time>
      </trkpt>
      <trkpt lat="46.35654" lon="-0.45165">
        <ele>99</ele>
        <time>2012-10-23T14:47:55Z</time>
      </trkpt>
      <trkpt lat="46.35659" lon="-0.45165">
        <ele>98</ele>
        <time>2012-10-23T14:48:00Z</time>
      </trkpt>
      <trkpt lat="46.35666" lon="-0.45165">
        <ele>97</ele>
        <time>2012-10-23T14:48:05Z</time>
      </trkpt>
      <trkpt lat="46.35671" lon="-0.45164">
        <ele>98</ele>
        <time>2012-10-23T14:48:10Z</time>
      </trkpt>
      <trkpt lat="46.35677" lon="-0.45161">
        <ele>100</ele>
        <time>2012-10-23T14:48:15Z</time>
      </trkpt>
      <trkpt lat="46.35682" lon="-0.4516">
        <ele>99</ele>
        <time>2012-10-23T14:48:20Z</time>
      </trkpt>
      <trkpt lat="46.35688" lon="-0.45157">
        <ele>100</ele>
        <time>2012-10-23T14:48:25Z</time>
      </trkpt>
      <trkpt lat="46.35693" lon="-0.45153">
        <ele>99</ele>
        <time>2012-10-23T14:48:30Z</time>
      </trkpt>
      <trkpt lat="46.35698" lon="-0.4515">
        <ele>99</ele>
        <time>2012-10-23T14:48:35Z</time>
      </trkpt>
      <trkpt lat="46.35704" lon="-0.45146">
        <ele>99</ele>
        <time>2012-10-23T14:48:40Z</time>
      </trkpt>
      <trkpt lat="46.3571" lon="-0.45145">
        <ele>99</ele>
        <time>2012-10-23T14:48:45Z</time>
      </trkpt>
      <trkpt lat="46.35716" lon="-0.45143">
        <ele>102</ele>
        <time>2012-10-23T14:48:50Z</time>
      </trkpt>
      <trkpt lat="46.3572" lon="-0.45141">
        <ele>101</ele>
        <time>2012-10-23T14:48:55Z</time>
      </trkpt>
      <trkpt lat="46.35725" lon="-0.45136">
        <ele>97</ele>
        <time>2012-10-23T14:49:00Z</time>
      </trkpt>
      <trkpt lat="46.35729" lon="-0.4513">
        <ele>95</ele>
        <time>2012-10-23T14:49:05Z</time>
      </trkpt>
      <trkpt lat="46.35733" lon="-0.45122">
        <ele>95</ele>
        <time>2012-10-23T14:49:10Z</time>
      </trkpt>
      <trkpt lat="46.35736" lon="-0.45117">
        <ele>95</ele>
        <time>2012-10-23T14:49:15Z</time>
      </trkpt>
      <trkpt lat="46.35737" lon="-0.45115">
        <ele>96</ele>
        <time>2012-10-23T14:49:20Z</time>
      </trkpt>
      <trkpt lat="46.35738" lon="-0.45115">
        <ele>96</ele>
        <time>2012-10-23T14:49:25Z</time>
      </trkpt>
      <trkpt lat="46.35737" lon="-0.45115">
        <ele>96</ele>
        <time>2012-10-23T14:49:55Z</time>
      </trkpt>
      <trkpt lat="46.35737" lon="-0.45116">
        <ele>96</ele>
        <time>2012-10-23T14:50:00Z</time>
      </trkpt>
      <trkpt lat="46.35737" lon="-0.45116">
        <ele>95</ele>
        <time>2012-10-23T14:50:10Z</time>
      </trkpt>
      <trkpt lat="46.35736" lon="-0.45117">
        <ele>95</ele>
        <time>2012-10-23T14:50:15Z</time>
      </trkpt>
      <trkpt lat="46.35734" lon="-0.45116">
        <ele>93</ele>
        <time>2012-10-23T14:50:20Z</time>
      </trkpt>
      <trkpt lat="46.35734" lon="-0.45116">
        <ele>93</ele>
        <time>2012-10-23T14:50:25Z</time>
      </trkpt>
      <trkpt lat="46.35734" lon="-0.45115">
        <ele>93</ele>
        <time>2012-10-23T14:50:40Z</time>
      </trkpt>
      <trkpt lat="46.35735" lon="-0.45115">
        <ele>94</ele>
        <time>2012-10-23T14:50:45Z</time>
      </trkpt>
      <trkpt lat="46.35734" lon="-0.45115">
        <ele>94</ele>
        <time>2012-10-23T14:50:50Z</time>
      </trkpt>
      <trkpt lat="46.35733" lon="-0.45115">
        <ele>93</ele>
        <time>2012-10-23T14:51:05Z</time>
      </trkpt>
      <trkpt lat="46.35733" lon="-0.45116">
        <ele>93</ele>
        <time>2012-10-23T14:51:10Z</time>
      </trkpt>
      <trkpt lat="46.35733" lon="-0.45115">
        <ele>93</ele>
        <time>2012-10-23T14:51:15Z</time>
      </trkpt>
      <trkpt lat="46.35733" lon="-0.45117">
        <ele>93</ele>
        <time>2012-10-23T14:51:55Z</time>
      </trkpt>
      <trkpt lat="46.35731" lon="-0.45125">
        <ele>92</ele>
        <time>2012-10-23T14:52:00Z</time>
      </trkpt>
      <trkpt lat="46.35727" lon="-0.45129">
        <ele>94</ele>
        <time>2012-10-23T14:52:05Z</time>
      </trkpt>
      <trkpt lat="46.35724" lon="-0.45135">
        <ele>97</ele>
        <time>2012-10-23T14:52:10Z</time>
      </trkpt>
      <trkpt lat="46.3572" lon="-0.45141">
        <ele>98</ele>
        <time>2012-10-23T14:52:15Z</time>
      </trkpt>
      <trkpt lat="46.35717" lon="-0.45145">
        <ele>96</ele>
        <time>2012-10-23T14:52:20Z</time>
      </trkpt>
      <trkpt lat="46.35714" lon="-0.45151">
        <ele>96</ele>
        <time>2012-10-23T14:52:25Z</time>
      </trkpt>
      <trkpt lat="46.3571" lon="-0.45156">
        <ele>95</ele>
        <time>2012-10-23T14:52:30Z</time>
      </trkpt>
      <trkpt lat="46.35706" lon="-0.4516">
        <ele>94</ele>
        <time>2012-10-23T14:52:35Z</time>
      </trkpt>
      <trkpt lat="46.357" lon="-0.4516">
        <ele>93</ele>
        <time>2012-10-23T14:52:40Z</time>
      </trkpt>
      <trkpt lat="46.35695" lon="-0.45167">
        <ele>93</ele>
        <time>2012-10-23T14:52:45Z</time>
      </trkpt>
      <trkpt lat="46.35691" lon="-0.45173">
        <ele>93</ele>
        <time>2012-10-23T14:52:50Z</time>
      </trkpt>
      <trkpt lat="46.35688" lon="-0.45174">
        <ele>91</ele>
        <time>2012-10-23T14:52:55Z</time>
      </trkpt>
      <trkpt lat="46.35681" lon="-0.45173">
        <ele>91</ele>
        <time>2012-10-23T14:53:00Z</time>
      </trkpt>
      <trkpt lat="46.35676" lon="-0.45172">
        <ele>91</ele>
        <time>2012-10-23T14:53:05Z</time>
      </trkpt>
      <trkpt lat="46.35669" lon="-0.45167">
        <ele>93</ele>
        <time>2012-10-23T14:53:10Z</time>
      </trkpt>
      <trkpt lat="46.35669" lon="-0.45167">
        <ele>92</ele>
        <time>2012-10-23T14:53:15Z</time>
      </trkpt>
      <trkpt lat="46.35669" lon="-0.45167">
        <ele>92</ele>
        <time>2012-10-23T14:53:20Z</time>
      </trkpt>
      <trkpt lat="46.35667" lon="-0.45167">
        <ele>93</ele>
        <time>2012-10-23T14:53:25Z</time>
      </trkpt>
      <trkpt lat="46.35667" lon="-0.45167">
        <ele>95</ele>
        <time>2012-10-23T14:53:30Z</time>
      </trkpt>
      <trkpt lat="46.35663" lon="-0.45168">
        <ele>95</ele>
        <time>2012-10-23T14:53:35Z</time>
      </trkpt>
      <trkpt lat="46.35657" lon="-0.45165">
        <ele>98</ele>
        <time>2012-10-23T14:53:40Z</time>
      </trkpt>
      <trkpt lat="46.35655" lon="-0.4516">
        <ele>100</ele>
        <time>2012-10-23T14:53:45Z</time>
      </trkpt>
      <trkpt lat="46.35655" lon="-0.45155">
        <ele>99</ele>
        <time>2012-10-23T14:53:50Z</time>
      </trkpt>
      <trkpt lat="46.35656" lon="-0.45148">
        <ele>96</ele>
        <time>2012-10-23T14:53:55Z</time>
      </trkpt>
      <trkpt lat="46.35657" lon="-0.45146">
        <ele>96</ele>
        <time>2012-10-23T14:54:00Z</time>
      </trkpt>
      <trkpt lat="46.35655" lon="-0.45144">
        <ele>96</ele>
        <time>2012-10-23T14:54:05Z</time>
      </trkpt>
      <trkpt lat="46.35654" lon="-0.45136">
        <ele>96</ele>
        <time>2012-10-23T14:54:10Z</time>
      </trkpt>
      <trkpt lat="46.35652" lon="-0.45127">
        <ele>97</ele>
        <time>2012-10-23T14:54:15Z</time>
      </trkpt>
      <trkpt lat="46.3565" lon="-0.45117">
        <ele>97</ele>
        <time>2012-10-23T14:54:20Z</time>
      </trkpt>
      <trkpt lat="46.35649" lon="-0.45113">
        <ele>97</ele>
        <time>2012-10-23T14:54:25Z</time>
      </trkpt>
      <trkpt lat="46.35648" lon="-0.4511">
        <ele>97</ele>
        <time>2012-10-23T14:54:30Z</time>
      </trkpt>
      <trkpt lat="46.35646" lon="-0.45101">
        <ele>99</ele>
        <time>2012-10-23T14:54:35Z</time>
      </trkpt>
      <trkpt lat="46.35643" lon="-0.45091">
        <ele>99</ele>
        <time>2012-10-23T14:54:40Z</time>
      </trkpt>
      <trkpt lat="46.3564" lon="-0.45082">
        <ele>100</ele>
        <time>2012-10-23T14:54:45Z</time>
      </trkpt>
      <trkpt lat="46.35639" lon="-0.45075">
        <ele>100</ele>
        <time>2012-10-23T14:54:50Z</time>
      </trkpt>
      <trkpt lat="46.35638" lon="-0.45068">
        <ele>100</ele>
        <time>2012-10-23T14:54:55Z</time>
      </trkpt>
      <trkpt lat="46.35635" lon="-0.4506">
        <ele>99</ele>
        <time>2012-10-23T14:55:00Z</time>
      </trkpt>
      <trkpt lat="46.35633" lon="-0.45053">
        <ele>99</ele>
        <time>2012-10-23T14:55:05Z</time>
      </trkpt>
      <trkpt lat="46.35631" lon="-0.45046">
        <ele>99</ele>
        <time>2012-10-23T14:55:10Z</time>
      </trkpt>
      <trkpt lat="46.3563" lon="-0.4504">
        <ele>99</ele>
        <time>2012-10-23T14:55:15Z</time>
      </trkpt>
      <trkpt lat="46.35628" lon="-0.4503">
        <ele>99</ele>
        <time>2012-10-23T14:55:20Z</time>
      </trkpt>
      <trkpt lat="46.35626" lon="-0.45022">
        <ele>99</ele>
        <time>2012-10-23T14:55:25Z</time>
      </trkpt>
      <trkpt lat="46.35625" lon="-0.45017">
        <ele>99</ele>
        <time>2012-10-23T14:55:30Z</time>
      </trkpt>
      <trkpt lat="46.35624" lon="-0.45008">
        <ele>100</ele>
        <time>2012-10-23T14:55:35Z</time>
      </trkpt>
      <trkpt lat="46.35624" lon="-0.45001">
        <ele>101</ele>
        <time>2012-10-23T14:55:40Z</time>
      </trkpt>
      <trkpt lat="46.35622" lon="-0.44992">
        <ele>101</ele>
        <time>2012-10-23T14:55:45Z</time>
      </trkpt>
      <trkpt lat="46.35621" lon="-0.44984">
        <ele>101</ele>
        <time>2012-10-23T14:55:50Z</time>
      </trkpt>
      <trkpt lat="46.35621" lon="-0.44975">
        <ele>101</ele>
        <time>2012-10-23T14:55:55Z</time>
      </trkpt>
      <trkpt lat="46.35619" lon="-0.44968">
        <ele>100</ele>
        <time>2012-10-23T14:56:00Z</time>
      </trkpt>
      <trkpt lat="46.35616" lon="-0.44957">
        <ele>99</ele>
        <time>2012-10-23T14:56:05Z</time>
      </trkpt>
      <trkpt lat="46.35615" lon="-0.44951">
        <ele>99</ele>
        <time>2012-10-23T14:56:10Z</time>
      </trkpt>
      <trkpt lat="46.35615" lon="-0.44943">
        <ele>99</ele>
        <time>2012-10-23T14:56:15Z</time>
      </trkpt>
      <trkpt lat="46.35615" lon="-0.44937">
        <ele>99</ele>
        <time>2012-10-23T14:56:20Z</time>
      </trkpt>
      <trkpt lat="46.35617" lon="-0.44925">
        <ele>99</ele>
        <time>2012-10-23T14:56:25Z</time>
      </trkpt>
      <trkpt lat="46.35621" lon="-0.4492">
        <ele>100</ele>
        <time>2012-10-23T14:56:30Z</time>
      </trkpt>
      <trkpt lat="46.35622" lon="-0.44919">
        <ele>100</ele>
        <time>2012-10-23T14:56:35Z</time>
      </trkpt>
      <trkpt lat="46.35627" lon="-0.44916">
        <ele>98</ele>
        <time>2012-10-23T14:56:40Z</time>
      </trkpt>
      <trkpt lat="46.35631" lon="-0.44912">
        <ele>98</ele>
        <time>2012-10-23T14:56:45Z</time>
      </trkpt>
      <trkpt lat="46.35636" lon="-0.4491">
        <ele>97</ele>
        <time>2012-10-23T14:56:50Z</time>
      </trkpt>
      <trkpt lat="46.3564" lon="-0.44907">
        <ele>96</ele>
        <time>2012-10-23T14:56:55Z</time>
      </trkpt>
      <trkpt lat="46.35645" lon="-0.44903">
        <ele>95</ele>
        <time>2012-10-23T14:57:00Z</time>
      </trkpt>
      <trkpt lat="46.35649" lon="-0.44899">
        <ele>95</ele>
        <time>2012-10-23T14:57:05Z</time>
      </trkpt>
      <trkpt lat="46.35652" lon="-0.44896">
        <ele>96</ele>
        <time>2012-10-23T14:57:10Z</time>
      </trkpt>
      <trkpt lat="46.35655" lon="-0.44895">
        <ele>94</ele>
        <time>2012-10-23T14:57:15Z</time>
      </trkpt>
      <trkpt lat="46.35659" lon="-0.44889">
        <ele>94</ele>
        <time>2012-10-23T14:57:20Z</time>
      </trkpt>
      <trkpt lat="46.35666" lon="-0.44883">
        <ele>94</ele>
        <time>2012-10-23T14:57:25Z</time>
      </trkpt>
      <trkpt lat="46.35666" lon="-0.44876">
        <ele>94</ele>
        <time>2012-10-23T14:57:30Z</time>
      </trkpt>
      <trkpt lat="46.35666" lon="-0.44867">
        <ele>96</ele>
        <time>2012-10-23T14:57:35Z</time>
      </trkpt>
      <trkpt lat="46.35666" lon="-0.44861">
        <ele>97</ele>
        <time>2012-10-23T14:57:40Z</time>
      </trkpt>
      <trkpt lat="46.35665" lon="-0.4486">
        <ele>97</ele>
        <time>2012-10-23T14:57:45Z</time>
      </trkpt>
      <trkpt lat="46.35664" lon="-0.4486">
        <ele>96</ele>
        <time>2012-10-23T14:57:50Z</time>
      </trkpt>
      <trkpt lat="46.35663" lon="-0.44859">
        <ele>96</ele>
        <time>2012-10-23T14:57:55Z</time>
      </trkpt>
      <trkpt lat="46.3566" lon="-0.44854">
        <ele>94</ele>
        <time>2012-10-23T14:58:00Z</time>
      </trkpt>
      <trkpt lat="46.35659" lon="-0.44847">
        <ele>95</ele>
        <time>2012-10-23T14:58:05Z</time>
      </trkpt>
      <trkpt lat="46.35658" lon="-0.44841">
        <ele>95</ele>
        <time>2012-10-23T14:58:10Z</time>
      </trkpt>
      <trkpt lat="46.35658" lon="-0.44834">
        <ele>95</ele>
        <time>2012-10-23T14:58:15Z</time>
      </trkpt>
      <trkpt lat="46.35661" lon="-0.44827">
        <ele>95</ele>
        <time>2012-10-23T14:58:20Z</time>
      </trkpt>
      <trkpt lat="46.35659" lon="-0.44816">
        <ele>95</ele>
        <time>2012-10-23T14:58:25Z</time>
      </trkpt>
      <trkpt lat="46.35658" lon="-0.44804">
        <ele>96</ele>
        <time>2012-10-23T14:58:30Z</time>
      </trkpt>
      <trkpt lat="46.35658" lon="-0.44796">
        <ele>96</ele>
        <time>2012-10-23T14:58:35Z</time>
      </trkpt>
      <trkpt lat="46.35659" lon="-0.44788">
        <ele>93</ele>
        <time>2012-10-23T14:58:40Z</time>
      </trkpt>
      <trkpt lat="46.3566" lon="-0.44781">
        <ele>92</ele>
        <time>2012-10-23T14:58:45Z</time>
      </trkpt>
      <trkpt lat="46.35662" lon="-0.44776">
        <ele>92</ele>
        <time>2012-10-23T14:58:50Z</time>
      </trkpt>
      <trkpt lat="46.35663" lon="-0.4477">
        <ele>92</ele>
        <time>2012-10-23T14:58:55Z</time>
      </trkpt>
      <trkpt lat="46.35665" lon="-0.44764">
        <ele>91</ele>
        <time>2012-10-23T14:59:00Z</time>
      </trkpt>
      <trkpt lat="46.35668" lon="-0.44759">
        <ele>91</ele>
        <time>2012-10-23T14:59:05Z</time>
      </trkpt>
      <trkpt lat="46.35669" lon="-0.44756">
        <ele>90</ele>
        <time>2012-10-23T14:59:10Z</time>
      </trkpt>
      <trkpt lat="46.35669" lon="-0.44754">
        <ele>89</ele>
        <time>2012-10-23T14:59:15Z</time>
      </trkpt>
      <trkpt lat="46.35675" lon="-0.44746">
        <ele>88</ele>
        <time>2012-10-23T14:59:20Z</time>
      </trkpt>
      <trkpt lat="46.3568" lon="-0.4474">
        <ele>86</ele>
        <time>2012-10-23T14:59:25Z</time>
      </trkpt>
      <trkpt lat="46.35684" lon="-0.44735">
        <ele>86</ele>
        <time>2012-10-23T14:59:30Z</time>
      </trkpt>
      <trkpt lat="46.3569" lon="-0.44731">
        <ele>87</ele>
        <time>2012-10-23T14:59:35Z</time>
      </trkpt>
      <trkpt lat="46.35693" lon="-0.44726">
        <ele>86</ele>
        <time>2012-10-23T14:59:40Z</time>
      </trkpt>
      <trkpt lat="46.35697" lon="-0.4472">
        <ele>85</ele>
        <time>2012-10-23T14:59:45Z</time>
      </trkpt>
      <trkpt lat="46.357" lon="-0.44715">
        <ele>83</ele>
        <time>2012-10-23T14:59:50Z</time>
      </trkpt>
      <trkpt lat="46.35705" lon="-0.44707">
        <ele>83</ele>
        <time>2012-10-23T14:59:55Z</time>
      </trkpt>
      <trkpt lat="46.35707" lon="-0.447">
        <ele>82</ele>
        <time>2012-10-23T15:00:00Z</time>
      </trkpt>
      <trkpt lat="46.35708" lon="-0.44693">
        <ele>80</ele>
        <time>2012-10-23T15:00:05Z</time>
      </trkpt>
      <trkpt lat="46.35709" lon="-0.44685">
        <ele>78</ele>
        <time>2012-10-23T15:00:10Z</time>
      </trkpt>
      <trkpt lat="46.35712" lon="-0.44677">
        <ele>79</ele>
        <time>2012-10-23T15:00:15Z</time>
      </trkpt>
      <trkpt lat="46.35715" lon="-0.44671">
        <ele>79</ele>
        <time>2012-10-23T15:00:20Z</time>
      </trkpt>
      <trkpt lat="46.35718" lon="-0.44669">
        <ele>79</ele>
        <time>2012-10-23T15:00:25Z</time>
      </trkpt>
      <trkpt lat="46.35725" lon="-0.44669">
        <ele>81</ele>
        <time>2012-10-23T15:00:30Z</time>
      </trkpt>
      <trkpt lat="46.35729" lon="-0.44669">
        <ele>81</ele>
        <time>2012-10-23T15:00:35Z</time>
      </trkpt>
      <trkpt lat="46.35735" lon="-0.44666">
        <ele>82</ele>
        <time>2012-10-23T15:00:40Z</time>
      </trkpt>
      <trkpt lat="46.35737" lon="-0.44667">
        <ele>83</ele>
        <time>2012-10-23T15:00:45Z</time>
      </trkpt>
      <trkpt lat="46.3574" lon="-0.44667">
        <ele>86</ele>
        <time>2012-10-23T15:00:50Z</time>
      </trkpt>
      <trkpt lat="46.35744" lon="-0.44667">
        <ele>87</ele>
        <time>2012-10-23T15:00:55Z</time>
      </trkpt>
      <trkpt lat="46.35751" lon="-0.44665">
        <ele>87</ele>
        <time>2012-10-23T15:01:00Z</time>
      </trkpt>
      <trkpt lat="46.35757" lon="-0.44662">
        <ele>85</ele>
        <time>2012-10-23T15:01:05Z</time>
      </trkpt>
      <trkpt lat="46.35763" lon="-0.44661">
        <ele>84</ele>
        <time>2012-10-23T15:01:10Z</time>
      </trkpt>
      <trkpt lat="46.35769" lon="-0.44661">
        <ele>86</ele>
        <time>2012-10-23T15:01:15Z</time>
      </trkpt>
      <trkpt lat="46.35772" lon="-0.44659">
        <ele>85</ele>
        <time>2012-10-23T15:01:20Z</time>
      </trkpt>
      <trkpt lat="46.35777" lon="-0.44656">
        <ele>84</ele>
        <time>2012-10-23T15:01:25Z</time>
      </trkpt>
      <trkpt lat="46.3578" lon="-0.44655">
        <ele>84</ele>
        <time>2012-10-23T15:01:30Z</time>
      </trkpt>
      <trkpt lat="46.35784" lon="-0.44652">
        <ele>85</ele>
        <time>2012-10-23T15:01:35Z</time>
      </trkpt>
      <trkpt lat="46.35786" lon="-0.4465">
        <ele>86</ele>
        <time>2012-10-23T15:01:40Z</time>
      </trkpt>
      <trkpt lat="46.35793" lon="-0.44643">
        <ele>88</ele>
        <time>2012-10-23T15:01:45Z</time>
      </trkpt>
      <trkpt lat="46.35795" lon="-0.44637">
        <ele>88</ele>
        <time>2012-10-23T15:01:50Z</time>
      </trkpt>
      <trkpt lat="46.358" lon="-0.44632">
        <ele>88</ele>
        <time>2012-10-23T15:01:55Z</time>
      </trkpt>
      <trkpt lat="46.35805" lon="-0.44629">
        <ele>86</ele>
        <time>2012-10-23T15:02:00Z</time>
      </trkpt>
      <trkpt lat="46.35809" lon="-0.44624">
        <ele>87</ele>
        <time>2012-10-23T15:02:05Z</time>
      </trkpt>
      <trkpt lat="46.35809" lon="-0.44624">
        <ele>88</ele>
        <time>2012-10-23T15:02:10Z</time>
      </trkpt>
      <trkpt lat="46.35813" lon="-0.44623">
        <ele>89</ele>
        <time>2012-10-23T15:02:15Z</time>
      </trkpt>
      <trkpt lat="46.35819" lon="-0.44616">
        <ele>89</ele>
        <time>2012-10-23T15:02:20Z</time>
      </trkpt>
      <trkpt lat="46.35823" lon="-0.44612">
        <ele>91</ele>
        <time>2012-10-23T15:02:25Z</time>
      </trkpt>
      <trkpt lat="46.35827" lon="-0.44609">
        <ele>92</ele>
        <time>2012-10-23T15:02:30Z</time>
      </trkpt>
      <trkpt lat="46.35832" lon="-0.44605">
        <ele>93</ele>
        <time>2012-10-23T15:02:35Z</time>
      </trkpt>
      <trkpt lat="46.35837" lon="-0.44601">
        <ele>93</ele>
        <time>2012-10-23T15:02:40Z</time>
      </trkpt>
      <trkpt lat="46.35842" lon="-0.44597">
        <ele>94</ele>
        <time>2012-10-23T15:02:45Z</time>
      </trkpt>
      <trkpt lat="46.35845" lon="-0.44591">
        <ele>96</ele>
        <time>2012-10-23T15:02:50Z</time>
      </trkpt>
      <trkpt lat="46.35845" lon="-0.44585">
        <ele>96</ele>
        <time>2012-10-23T15:02:55Z</time>
      </trkpt>
      <trkpt lat="46.35849" lon="-0.44579">
        <ele>98</ele>
        <time>2012-10-23T15:03:00Z</time>
      </trkpt>
      <trkpt lat="46.35851" lon="-0.44573">
        <ele>99</ele>
        <time>2012-10-23T15:03:05Z</time>
      </trkpt>
      <trkpt lat="46.35854" lon="-0.44567">
        <ele>98</ele>
        <time>2012-10-23T15:03:10Z</time>
      </trkpt>
      <trkpt lat="46.35857" lon="-0.44562">
        <ele>97</ele>
        <time>2012-10-23T15:03:15Z</time>
      </trkpt>
      <trkpt lat="46.3586" lon="-0.44555">
        <ele>97</ele>
        <time>2012-10-23T15:03:20Z</time>
      </trkpt>
      <trkpt lat="46.35864" lon="-0.4455">
        <ele>97</ele>
        <time>2012-10-23T15:03:25Z</time>
      </trkpt>
      <trkpt lat="46.35869" lon="-0.44543">
        <ele>98</ele>
        <time>2012-10-23T15:03:30Z</time>
      </trkpt>
      <trkpt lat="46.35872" lon="-0.44539">
        <ele>98</ele>
        <time>2012-10-23T15:03:35Z</time>
      </trkpt>
      <trkpt lat="46.35872" lon="-0.44534">
        <ele>98</ele>
        <time>2012-10-23T15:03:40Z</time>
      </trkpt>
      <trkpt lat="46.35876" lon="-0.44528">
        <ele>100</ele>
        <time>2012-10-23T15:03:45Z</time>
      </trkpt>
      <trkpt lat="46.3588" lon="-0.44521">
        <ele>101</ele>
        <time>2012-10-23T15:03:50Z</time>
      </trkpt>
      <trkpt lat="46.35882" lon="-0.44514">
        <ele>101</ele>
        <time>2012-10-23T15:03:55Z</time>
      </trkpt>
      <trkpt lat="46.35884" lon="-0.44509">
        <ele>101</ele>
        <time>2012-10-23T15:04:00Z</time>
      </trkpt>
      <trkpt lat="46.3589" lon="-0.44504">
        <ele>102</ele>
        <time>2012-10-23T15:04:05Z</time>
      </trkpt>
      <trkpt lat="46.35891" lon="-0.44498">
        <ele>101</ele>
        <time>2012-10-23T15:04:10Z</time>
      </trkpt>
      <trkpt lat="46.35894" lon="-0.44491">
        <ele>101</ele>
        <time>2012-10-23T15:04:15Z</time>
      </trkpt>
      <trkpt lat="46.35898" lon="-0.44483">
        <ele>101</ele>
        <time>2012-10-23T15:04:20Z</time>
      </trkpt>
      <trkpt lat="46.35901" lon="-0.44479">
        <ele>102</ele>
        <time>2012-10-23T15:04:25Z</time>
      </trkpt>
      <trkpt lat="46.35904" lon="-0.44472">
        <ele>103</ele>
        <time>2012-10-23T15:04:30Z</time>
      </trkpt>
      <trkpt lat="46.35907" lon="-0.44466">
        <ele>105</ele>
        <time>2012-10-23T15:04:35Z</time>
      </trkpt>
      <trkpt lat="46.3591" lon="-0.44461">
        <ele>105</ele>
        <time>2012-10-23T15:04:40Z</time>
      </trkpt>
      <trkpt lat="46.35913" lon="-0.44453">
        <ele>105</ele>
        <time>2012-10-23T15:04:45Z</time>
      </trkpt>
      <trkpt lat="46.35917" lon="-0.44447">
        <ele>106</ele>
        <time>2012-10-23T15:04:50Z</time>
      </trkpt>
      <trkpt lat="46.3592" lon="-0.44442">
        <ele>107</ele>
        <time>2012-10-23T15:04:55Z</time>
      </trkpt>
      <trkpt lat="46.35923" lon="-0.44434">
        <ele>107</ele>
        <time>2012-10-23T15:05:00Z</time>
      </trkpt>
      <trkpt lat="46.35927" lon="-0.44429">
        <ele>106</ele>
        <time>2012-10-23T15:05:05Z</time>
      </trkpt>
      <trkpt lat="46.3593" lon="-0.44422">
        <ele>105</ele>
        <time>2012-10-23T15:05:10Z</time>
      </trkpt>
      <trkpt lat="46.35932" lon="-0.44421">
        <ele>106</ele>
        <time>2012-10-23T15:05:15Z</time>
      </trkpt>
      <trkpt lat="46.35938" lon="-0.44413">
        <ele>106</ele>
        <time>2012-10-23T15:05:20Z</time>
      </trkpt>
      <trkpt lat="46.35942" lon="-0.44408">
        <ele>106</ele>
        <time>2012-10-23T15:05:25Z</time>
      </trkpt>
      <trkpt lat="46.35948" lon="-0.44404">
        <ele>106</ele>
        <time>2012-10-23T15:05:30Z</time>
      </trkpt>
      <trkpt lat="46.35952" lon="-0.444">
        <ele>106</ele>
        <time>2012-10-23T15:05:35Z</time>
      </trkpt>
      <trkpt lat="46.35957" lon="-0.44396">
        <ele>106</ele>
        <time>2012-10-23T15:05:40Z</time>
      </trkpt>
      <trkpt lat="46.35962" lon="-0.44392">
        <ele>107</ele>
        <time>2012-10-23T15:05:45Z</time>
      </trkpt>
      <trkpt lat="46.35966" lon="-0.44387">
        <ele>107</ele>
        <time>2012-10-23T15:05:50Z</time>
      </trkpt>
      <trkpt lat="46.35971" lon="-0.44384">
        <ele>107</ele>
        <time>2012-10-23T15:05:55Z</time>
      </trkpt>
      <trkpt lat="46.35975" lon="-0.4438">
        <ele>106</ele>
        <time>2012-10-23T15:06:00Z</time>
      </trkpt>
      <trkpt lat="46.35979" lon="-0.44378">
        <ele>107</ele>
        <time>2012-10-23T15:06:05Z</time>
      </trkpt>
      <trkpt lat="46.35985" lon="-0.44372">
        <ele>107</ele>
        <time>2012-10-23T15:06:10Z</time>
      </trkpt>
      <trkpt lat="46.3599" lon="-0.4437">
        <ele>106</ele>
        <time>2012-10-23T15:06:15Z</time>
      </trkpt>
      <trkpt lat="46.35994" lon="-0.44367">
        <ele>108</ele>
        <time>2012-10-23T15:06:20Z</time>
      </trkpt>
      <trkpt lat="46.35998" lon="-0.44364">
        <ele>108</ele>
        <time>2012-10-23T15:06:25Z</time>
      </trkpt>
      <trkpt lat="46.36003" lon="-0.44362">
        <ele>109</ele>
        <time>2012-10-23T15:06:30Z</time>
      </trkpt>
      <trkpt lat="46.36007" lon="-0.44359">
        <ele>109</ele>
        <time>2012-10-23T15:06:35Z</time>
      </trkpt>
      <trkpt lat="46.36011" lon="-0.44357">
        <ele>108</ele>
        <time>2012-10-23T15:06:40Z</time>
      </trkpt>
      <trkpt lat="46.36015" lon="-0.44355">
        <ele>109</ele>
        <time>2012-10-23T15:06:45Z</time>
      </trkpt>
      <trkpt lat="46.36019" lon="-0.44353">
        <ele>108</ele>
        <time>2012-10-23T15:06:50Z</time>
      </trkpt>
      <trkpt lat="46.3602" lon="-0.44352">
        <ele>108</ele>
        <time>2012-10-23T15:06:55Z</time>
      </trkpt>
      <trkpt lat="46.3602" lon="-0.44352">
        <ele>107</ele>
        <time>2012-10-23T15:07:00Z</time>
      </trkpt>
      <trkpt lat="46.36019" lon="-0.44352">
        <ele>107</ele>
        <time>2012-10-23T15:07:05Z</time>
      </trkpt>
      <trkpt lat="46.36019" lon="-0.44352">
        <ele>107</ele>
        <time>2012-10-23T15:07:10Z</time>
      </trkpt>
      <trkpt lat="46.36019" lon="-0.44352">
        <ele>107</ele>
        <time>2012-10-23T15:07:15Z</time>
      </trkpt>
      <trkpt lat="46.36019" lon="-0.44353">
        <ele>107</ele>
        <time>2012-10-23T15:07:20Z</time>
      </trkpt>
      <trkpt lat="46.36021" lon="-0.44357">
        <ele>107</ele>
        <time>2012-10-23T15:07:45Z</time>
      </trkpt>
      <trkpt lat="46.36023" lon="-0.44363">
        <ele>108</ele>
        <time>2012-10-23T15:07:50Z</time>
      </trkpt>
      <trkpt lat="46.36024" lon="-0.44371">
        <ele>109</ele>
        <time>2012-10-23T15:07:55Z</time>
      </trkpt>
      <trkpt lat="46.36025" lon="-0.44376">
        <ele>109</ele>
        <time>2012-10-23T15:08:00Z</time>
      </trkpt>
      <trkpt lat="46.36026" lon="-0.4438">
        <ele>109</ele>
        <time>2012-10-23T15:08:05Z</time>
      </trkpt>
      <trkpt lat="46.36026" lon="-0.44388">
        <ele>109</ele>
        <time>2012-10-23T15:08:10Z</time>
      </trkpt>
      <trkpt lat="46.36027" lon="-0.44397">
        <ele>110</ele>
        <time>2012-10-23T15:08:15Z</time>
      </trkpt>
      <trkpt lat="46.3603" lon="-0.444">
        <ele>107</ele>
        <time>2012-10-23T15:08:20Z</time>
      </trkpt>
      <trkpt lat="46.36031" lon="-0.44405">
        <ele>106</ele>
        <time>2012-10-23T15:08:25Z</time>
      </trkpt>
      <trkpt lat="46.36034" lon="-0.44414">
        <ele>107</ele>
        <time>2012-10-23T15:08:30Z</time>
      </trkpt>
      <trkpt lat="46.36034" lon="-0.44422">
        <ele>106</ele>
        <time>2012-10-23T15:08:35Z</time>
      </trkpt>
      <trkpt lat="46.36036" lon="-0.4443">
        <ele>107</ele>
        <time>2012-10-23T15:08:40Z</time>
      </trkpt>
      <trkpt lat="46.36036" lon="-0.44436">
        <ele>108</ele>
        <time>2012-10-23T15:08:45Z</time>
      </trkpt>
      <trkpt lat="46.36038" lon="-0.44446">
        <ele>110</ele>
        <time>2012-10-23T15:08:50Z</time>
      </trkpt>
      <trkpt lat="46.36038" lon="-0.44455">
        <ele>111</ele>
        <time>2012-10-23T15:08:55Z</time>
      </trkpt>
      <trkpt lat="46.36038" lon="-0.44465">
        <ele>114</ele>
        <time>2012-10-23T15:09:00Z</time>
      </trkpt>
      <trkpt lat="46.36039" lon="-0.44473">
        <ele>114</ele>
        <time>2012-10-23T15:09:05Z</time>
      </trkpt>
      <trkpt lat="46.36038" lon="-0.44483">
        <ele>114</ele>
        <time>2012-10-23T15:09:10Z</time>
      </trkpt>
      <trkpt lat="46.36039" lon="-0.44492">
        <ele>114</ele>
        <time>2012-10-23T15:09:15Z</time>
      </trkpt>
      <trkpt lat="46.36044" lon="-0.44495">
        <ele>112</ele>
        <time>2012-10-23T15:09:20Z</time>
      </trkpt>
      <trkpt lat="46.36046" lon="-0.44503">
        <ele>114</ele>
        <time>2012-10-23T15:09:25Z</time>
      </trkpt>
      <trkpt lat="46.36048" lon="-0.4451">
        <ele>112</ele>
        <time>2012-10-23T15:09:30Z</time>
      </trkpt>
      <trkpt lat="46.36052" lon="-0.44514">
        <ele>113</ele>
        <time>2012-10-23T15:09:35Z</time>
      </trkpt>
      <trkpt lat="46.36058" lon="-0.44502">
        <ele>107</ele>
        <time>2012-10-23T15:09:40Z</time>
      </trkpt>
      <trkpt lat="46.36064" lon="-0.44498">
        <ele>107</ele>
        <time>2012-10-23T15:09:45Z</time>
      </trkpt>
      <trkpt lat="46.3607" lon="-0.44497">
        <ele>108</ele>
        <time>2012-10-23T15:09:50Z</time>
      </trkpt>
      <trkpt lat="46.36077" lon="-0.44494">
        <ele>109</ele>
        <time>2012-10-23T15:09:55Z</time>
      </trkpt>
      <trkpt lat="46.36081" lon="-0.4449">
        <ele>108</ele>
        <time>2012-10-23T15:10:00Z</time>
      </trkpt>
      <trkpt lat="46.36087" lon="-0.44487">
        <ele>108</ele>
        <time>2012-10-23T15:10:05Z</time>
      </trkpt>
      <trkpt lat="46.36092" lon="-0.44484">
        <ele>108</ele>
        <time>2012-10-23T15:10:10Z</time>
      </trkpt>
      <trkpt lat="46.36097" lon="-0.44481">
        <ele>109</ele>
        <time>2012-10-23T15:10:15Z</time>
      </trkpt>
      <trkpt lat="46.36102" lon="-0.44478">
        <ele>110</ele>
        <time>2012-10-23T15:10:20Z</time>
      </trkpt>
      <trkpt lat="46.36108" lon="-0.44476">
        <ele>111</ele>
        <time>2012-10-23T15:10:25Z</time>
      </trkpt>
      <trkpt lat="46.36114" lon="-0.44473">
        <ele>111</ele>
        <time>2012-10-23T15:10:30Z</time>
      </trkpt>
      <trkpt lat="46.36118" lon="-0.4447">
        <ele>112</ele>
        <time>2012-10-23T15:10:35Z</time>
      </trkpt>
      <trkpt lat="46.36122" lon="-0.44467">
        <ele>111</ele>
        <time>2012-10-23T15:10:40Z</time>
      </trkpt>
      <trkpt lat="46.36127" lon="-0.44466">
        <ele>110</ele>
        <time>2012-10-23T15:10:45Z</time>
      </trkpt>
      <trkpt lat="46.36131" lon="-0.44462">
        <ele>110</ele>
        <time>2012-10-23T15:10:50Z</time>
      </trkpt>
      <trkpt lat="46.36137" lon="-0.4446">
        <ele>111</ele>
        <time>2012-10-23T15:10:55Z</time>
      </trkpt>
      <trkpt lat="46.36141" lon="-0.44458">
        <ele>111</ele>
        <time>2012-10-23T15:11:00Z</time>
      </trkpt>
      <trkpt lat="46.36146" lon="-0.44455">
        <ele>111</ele>
        <time>2012-10-23T15:11:05Z</time>
      </trkpt>
      <trkpt lat="46.36151" lon="-0.44452">
        <ele>111</ele>
        <time>2012-10-23T15:11:10Z</time>
      </trkpt>
      <trkpt lat="46.36156" lon="-0.44448">
        <ele>111</ele>
        <time>2012-10-23T15:11:15Z</time>
      </trkpt>
      <trkpt lat="46.36162" lon="-0.44445">
        <ele>112</ele>
        <time>2012-10-23T15:11:20Z</time>
      </trkpt>
      <trkpt lat="46.36168" lon="-0.44443">
        <ele>112</ele>
        <time>2012-10-23T15:11:25Z</time>
      </trkpt>
      <trkpt lat="46.36173" lon="-0.4444">
        <ele>112</ele>
        <time>2012-10-23T15:11:30Z</time>
      </trkpt>
      <trkpt lat="46.36177" lon="-0.44437">
        <ele>112</ele>
        <time>2012-10-23T15:11:35Z</time>
      </trkpt>
      <trkpt lat="46.36182" lon="-0.44434">
        <ele>112</ele>
        <time>2012-10-23T15:11:40Z</time>
      </trkpt>
      <trkpt lat="46.36186" lon="-0.4443">
        <ele>112</ele>
        <time>2012-10-23T15:11:45Z</time>
      </trkpt>
      <trkpt lat="46.36194" lon="-0.44427">
        <ele>113</ele>
        <time>2012-10-23T15:11:50Z</time>
      </trkpt>
      <trkpt lat="46.36197" lon="-0.44424">
        <ele>110</ele>
        <time>2012-10-23T15:11:55Z</time>
      </trkpt>
      <trkpt lat="46.36201" lon="-0.44421">
        <ele>109</ele>
        <time>2012-10-23T15:12:00Z</time>
      </trkpt>
      <trkpt lat="46.36209" lon="-0.4442">
        <ele>112</ele>
        <time>2012-10-23T15:12:05Z</time>
      </trkpt>
      <trkpt lat="46.36214" lon="-0.44417">
        <ele>113</ele>
        <time>2012-10-23T15:12:10Z</time>
      </trkpt>
      <trkpt lat="46.36219" lon="-0.44415">
        <ele>113</ele>
        <time>2012-10-23T15:12:15Z</time>
      </trkpt>
      <trkpt lat="46.36225" lon="-0.44412">
        <ele>115</ele>
        <time>2012-10-23T15:12:20Z</time>
      </trkpt>
      <trkpt lat="46.3623" lon="-0.44409">
        <ele>118</ele>
        <time>2012-10-23T15:12:25Z</time>
      </trkpt>
      <trkpt lat="46.36236" lon="-0.44405">
        <ele>117</ele>
        <time>2012-10-23T15:12:30Z</time>
      </trkpt>
      <trkpt lat="46.3624" lon="-0.44402">
        <ele>116</ele>
        <time>2012-10-23T15:12:35Z</time>
      </trkpt>
      <trkpt lat="46.36244" lon="-0.44402">
        <ele>114</ele>
        <time>2012-10-23T15:12:40Z</time>
      </trkpt>
      <trkpt lat="46.36248" lon="-0.44404">
        <ele>114</ele>
        <time>2012-10-23T15:12:45Z</time>
      </trkpt>
      <trkpt lat="46.36252" lon="-0.44411">
        <ele>114</ele>
        <time>2012-10-23T15:12:50Z</time>
      </trkpt>
      <trkpt lat="46.36252" lon="-0.4442">
        <ele>115</ele>
        <time>2012-10-23T15:12:55Z</time>
      </trkpt>
      <trkpt lat="46.36254" lon="-0.44429">
        <ele>115</ele>
        <time>2012-10-23T15:13:00Z</time>
      </trkpt>
      <trkpt lat="46.36256" lon="-0.44436">
        <ele>115</ele>
        <time>2012-10-23T15:13:05Z</time>
      </trkpt>
      <trkpt lat="46.36258" lon="-0.44442">
        <ele>114</ele>
        <time>2012-10-23T15:13:10Z</time>
      </trkpt>
      <trkpt lat="46.36261" lon="-0.44452">
        <ele>113</ele>
        <time>2012-10-23T15:13:15Z</time>
      </trkpt>
      <trkpt lat="46.36263" lon="-0.44463">
        <ele>113</ele>
        <time>2012-10-23T15:13:20Z</time>
      </trkpt>
      <trkpt lat="46.36265" lon="-0.44469">
        <ele>113</ele>
        <time>2012-10-23T15:13:25Z</time>
      </trkpt>
      <trkpt lat="46.36267" lon="-0.44475">
        <ele>111</ele>
        <time>2012-10-23T15:13:30Z</time>
      </trkpt>
      <trkpt lat="46.3627" lon="-0.44481">
        <ele>111</ele>
        <time>2012-10-23T15:13:35Z</time>
      </trkpt>
      <trkpt lat="46.36272" lon="-0.44487">
        <ele>110</ele>
        <time>2012-10-23T15:13:40Z</time>
      </trkpt>
      <trkpt lat="46.36273" lon="-0.44496">
        <ele>110</ele>
        <time>2012-10-23T15:13:45Z</time>
      </trkpt>
      <trkpt lat="46.36274" lon="-0.44504">
        <ele>112</ele>
        <time>2012-10-23T15:13:50Z</time>
      </trkpt>
      <trkpt lat="46.36276" lon="-0.44513">
        <ele>112</ele>
        <time>2012-10-23T15:13:55Z</time>
      </trkpt>
      <trkpt lat="46.36277" lon="-0.44521">
        <ele>114</ele>
        <time>2012-10-23T15:14:00Z</time>
      </trkpt>
      <trkpt lat="46.3628" lon="-0.44529">
        <ele>112</ele>
        <time>2012-10-23T15:14:05Z</time>
      </trkpt>
      <trkpt lat="46.36281" lon="-0.44538">
        <ele>113</ele>
        <time>2012-10-23T15:14:10Z</time>
      </trkpt>
      <trkpt lat="46.36284" lon="-0.44545">
        <ele>112</ele>
        <time>2012-10-23T15:14:15Z</time>
      </trkpt>
      <trkpt lat="46.36286" lon="-0.44552">
        <ele>112</ele>
        <time>2012-10-23T15:14:20Z</time>
      </trkpt>
      <trkpt lat="46.36288" lon="-0.4456">
        <ele>111</ele>
        <time>2012-10-23T15:14:25Z</time>
      </trkpt>
      <trkpt lat="46.36291" lon="-0.44568">
        <ele>110</ele>
        <time>2012-10-23T15:14:30Z</time>
      </trkpt>
      <trkpt lat="46.36293" lon="-0.44577">
        <ele>110</ele>
        <time>2012-10-23T15:14:35Z</time>
      </trkpt>
      <trkpt lat="46.36295" lon="-0.44586">
        <ele>110</ele>
        <time>2012-10-23T15:14:40Z</time>
      </trkpt>
      <trkpt lat="46.36297" lon="-0.44593">
        <ele>110</ele>
        <time>2012-10-23T15:14:45Z</time>
      </trkpt>
      <trkpt lat="46.36299" lon="-0.44601">
        <ele>110</ele>
        <time>2012-10-23T15:14:50Z</time>
      </trkpt>
      <trkpt lat="46.36302" lon="-0.44609">
        <ele>110</ele>
        <time>2012-10-23T15:14:55Z</time>
      </trkpt>
      <trkpt lat="46.36309" lon="-0.44614">
        <ele>109</ele>
        <time>2012-10-23T15:15:00Z</time>
      </trkpt>
      <trkpt lat="46.36315" lon="-0.44612">
        <ele>107</ele>
        <time>2012-10-23T15:15:05Z</time>
      </trkpt>
      <trkpt lat="46.36322" lon="-0.44609">
        <ele>107</ele>
        <time>2012-10-23T15:15:10Z</time>
      </trkpt>
      <trkpt lat="46.36326" lon="-0.44607">
        <ele>107</ele>
        <time>2012-10-23T15:15:15Z</time>
      </trkpt>
      <trkpt lat="46.36331" lon="-0.44607">
        <ele>105</ele>
        <time>2012-10-23T15:15:20Z</time>
      </trkpt>
      <trkpt lat="46.36337" lon="-0.44606">
        <ele>106</ele>
        <time>2012-10-23T15:15:25Z</time>
      </trkpt>
      <trkpt lat="46.36342" lon="-0.44607">
        <ele>107</ele>
        <time>2012-10-23T15:15:30Z</time>
      </trkpt>
      <trkpt lat="46.36347" lon="-0.44607">
        <ele>107</ele>
        <time>2012-10-23T15:15:35Z</time>
      </trkpt>
      <trkpt lat="46.36353" lon="-0.44607">
        <ele>107</ele>
        <time>2012-10-23T15:15:40Z</time>
      </trkpt>
      <trkpt lat="46.36359" lon="-0.44604">
        <ele>107</ele>
        <time>2012-10-23T15:15:45Z</time>
      </trkpt>
      <trkpt lat="46.36365" lon="-0.446">
        <ele>106</ele>
        <time>2012-10-23T15:15:50Z</time>
      </trkpt>
      <trkpt lat="46.3637" lon="-0.44596">
        <ele>105</ele>
        <time>2012-10-23T15:15:55Z</time>
      </trkpt>
      <trkpt lat="46.36374" lon="-0.44591">
        <ele>104</ele>
        <time>2012-10-23T15:16:00Z</time>
      </trkpt>
      <trkpt lat="46.36378" lon="-0.44587">
        <ele>103</ele>
        <time>2012-10-23T15:16:05Z</time>
      </trkpt>
      <trkpt lat="46.36384" lon="-0.44585">
        <ele>103</ele>
        <time>2012-10-23T15:16:10Z</time>
      </trkpt>
      <trkpt lat="46.36391" lon="-0.44584">
        <ele>103</ele>
        <time>2012-10-23T15:16:15Z</time>
      </trkpt>
      <trkpt lat="46.36398" lon="-0.4458">
        <ele>105</ele>
        <time>2012-10-23T15:16:20Z</time>
      </trkpt>
      <trkpt lat="46.36404" lon="-0.44578">
        <ele>105</ele>
        <time>2012-10-23T15:16:25Z</time>
      </trkpt>
      <trkpt lat="46.36409" lon="-0.44574">
        <ele>104</ele>
        <time>2012-10-23T15:16:30Z</time>
      </trkpt>
      <trkpt lat="46.36414" lon="-0.44571">
        <ele>104</ele>
        <time>2012-10-23T15:16:35Z</time>
      </trkpt>
      <trkpt lat="46.36419" lon="-0.44568">
        <ele>105</ele>
        <time>2012-10-23T15:16:40Z</time>
      </trkpt>
      <trkpt lat="46.36424" lon="-0.44566">
        <ele>104</ele>
        <time>2012-10-23T15:16:45Z</time>
      </trkpt>
      <trkpt lat="46.36428" lon="-0.44561">
        <ele>103</ele>
        <time>2012-10-23T15:16:50Z</time>
      </trkpt>
      <trkpt lat="46.36432" lon="-0.4456">
        <ele>101</ele>
        <time>2012-10-23T15:16:55Z</time>
      </trkpt>
      <trkpt lat="46.36437" lon="-0.44558">
        <ele>101</ele>
        <time>2012-10-23T15:17:00Z</time>
      </trkpt>
      <trkpt lat="46.36442" lon="-0.44558">
        <ele>101</ele>
        <time>2012-10-23T15:17:05Z</time>
      </trkpt>
      <trkpt lat="46.36448" lon="-0.44557">
        <ele>101</ele>
        <time>2012-10-23T15:17:10Z</time>
      </trkpt>
      <trkpt lat="46.36451" lon="-0.44556">
        <ele>100</ele>
        <time>2012-10-23T15:17:15Z</time>
      </trkpt>
      <trkpt lat="46.36457" lon="-0.44555">
        <ele>100</ele>
        <time>2012-10-23T15:17:20Z</time>
      </trkpt>
      <trkpt lat="46.36462" lon="-0.44554">
        <ele>99</ele>
        <time>2012-10-23T15:17:25Z</time>
      </trkpt>
      <trkpt lat="46.36465" lon="-0.44552">
        <ele>97</ele>
        <time>2012-10-23T15:17:30Z</time>
      </trkpt>
      <trkpt lat="46.36471" lon="-0.4455">
        <ele>98</ele>
        <time>2012-10-23T15:17:35Z</time>
      </trkpt>
      <trkpt lat="46.36479" lon="-0.44551">
        <ele>99</ele>
        <time>2012-10-23T15:17:40Z</time>
      </trkpt>
      <trkpt lat="46.36485" lon="-0.4455">
        <ele>99</ele>
        <time>2012-10-23T15:17:45Z</time>
      </trkpt>
      <trkpt lat="46.3649" lon="-0.44549">
        <ele>99</ele>
        <time>2012-10-23T15:17:50Z</time>
      </trkpt>
      <trkpt lat="46.36495" lon="-0.44548">
        <ele>100</ele>
        <time>2012-10-23T15:17:55Z</time>
      </trkpt>
      <trkpt lat="46.36501" lon="-0.44548">
        <ele>101</ele>
        <time>2012-10-23T15:18:00Z</time>
      </trkpt>
      <trkpt lat="46.36504" lon="-0.44548">
        <ele>102</ele>
        <time>2012-10-23T15:18:05Z</time>
      </trkpt>
      <trkpt lat="46.36506" lon="-0.44546">
        <ele>102</ele>
        <time>2012-10-23T15:18:10Z</time>
      </trkpt>
      <trkpt lat="46.36511" lon="-0.44545">
        <ele>101</ele>
        <time>2012-10-23T15:18:15Z</time>
      </trkpt>
      <trkpt lat="46.36517" lon="-0.44545">
        <ele>102</ele>
        <time>2012-10-23T15:18:20Z</time>
      </trkpt>
      <trkpt lat="46.36523" lon="-0.44543">
        <ele>102</ele>
        <time>2012-10-23T15:18:25Z</time>
      </trkpt>
      <trkpt lat="46.36529" lon="-0.44542">
        <ele>104</ele>
        <time>2012-10-23T15:18:30Z</time>
      </trkpt>
      <trkpt lat="46.36534" lon="-0.44542">
        <ele>104</ele>
        <time>2012-10-23T15:18:35Z</time>
      </trkpt>
      <trkpt lat="46.36539" lon="-0.44541">
        <ele>103</ele>
        <time>2012-10-23T15:18:40Z</time>
      </trkpt>
      <trkpt lat="46.36544" lon="-0.4454">
        <ele>103</ele>
        <time>2012-10-23T15:18:45Z</time>
      </trkpt>
      <trkpt lat="46.3655" lon="-0.4454">
        <ele>103</ele>
        <time>2012-10-23T15:18:50Z</time>
      </trkpt>
      <trkpt lat="46.36554" lon="-0.44538">
        <ele>104</ele>
        <time>2012-10-23T15:18:55Z</time>
      </trkpt>
      <trkpt lat="46.36558" lon="-0.44537">
        <ele>105</ele>
        <time>2012-10-23T15:19:00Z</time>
      </trkpt>
      <trkpt lat="46.36561" lon="-0.44538">
        <ele>105</ele>
        <time>2012-10-23T15:19:05Z</time>
      </trkpt>
      <trkpt lat="46.36567" lon="-0.44536">
        <ele>106</ele>
        <time>2012-10-23T15:19:10Z</time>
      </trkpt>
      <trkpt lat="46.36572" lon="-0.44535">
        <ele>107</ele>
        <time>2012-10-23T15:19:15Z</time>
      </trkpt>
      <trkpt lat="46.36574" lon="-0.4453">
        <ele>107</ele>
        <time>2012-10-23T15:19:20Z</time>
      </trkpt>
      <trkpt lat="46.36575" lon="-0.44526">
        <ele>106</ele>
        <time>2012-10-23T15:19:25Z</time>
      </trkpt>
      <trkpt lat="46.36576" lon="-0.44517">
        <ele>106</ele>
        <time>2012-10-23T15:19:30Z</time>
      </trkpt>
      <trkpt lat="46.36577" lon="-0.44513">
        <ele>106</ele>
        <time>2012-10-23T15:19:35Z</time>
      </trkpt>
      <trkpt lat="46.36576" lon="-0.44523">
        <ele>110</ele>
        <time>2012-10-23T15:19:40Z</time>
      </trkpt>
      <trkpt lat="46.36575" lon="-0.44531">
        <ele>112</ele>
        <time>2012-10-23T15:19:45Z</time>
      </trkpt>
      <trkpt lat="46.36574" lon="-0.44532">
        <ele>111</ele>
        <time>2012-10-23T15:19:50Z</time>
      </trkpt>
      <trkpt lat="46.36572" lon="-0.44537">
        <ele>113</ele>
        <time>2012-10-23T15:19:55Z</time>
      </trkpt>
      <trkpt lat="46.36568" lon="-0.44547">
        <ele>114</ele>
        <time>2012-10-23T15:20:00Z</time>
      </trkpt>
      <trkpt lat="46.36567" lon="-0.44555">
        <ele>113</ele>
        <time>2012-10-23T15:20:05Z</time>
      </trkpt>
      <trkpt lat="46.36566" lon="-0.44563">
        <ele>112</ele>
        <time>2012-10-23T15:20:10Z</time>
      </trkpt>
      <trkpt lat="46.36565" lon="-0.44572">
        <ele>113</ele>
        <time>2012-10-23T15:20:15Z</time>
      </trkpt>
      <trkpt lat="46.36564" lon="-0.44579">
        <ele>112</ele>
        <time>2012-10-23T15:20:20Z</time>
      </trkpt>
      <trkpt lat="46.36563" lon="-0.44587">
        <ele>112</ele>
        <time>2012-10-23T15:20:25Z</time>
      </trkpt>
      <trkpt lat="46.36559" lon="-0.44597">
        <ele>112</ele>
        <time>2012-10-23T15:20:30Z</time>
      </trkpt>
      <trkpt lat="46.36559" lon="-0.44602">
        <ele>112</ele>
        <time>2012-10-23T15:20:35Z</time>
      </trkpt>
      <trkpt lat="46.36558" lon="-0.44612">
        <ele>113</ele>
        <time>2012-10-23T15:20:40Z</time>
      </trkpt>
      <trkpt lat="46.36558" lon="-0.4462">
        <ele>113</ele>
        <time>2012-10-23T15:20:45Z</time>
      </trkpt>
      <trkpt lat="46.36558" lon="-0.44628">
        <ele>113</ele>
        <time>2012-10-23T15:20:50Z</time>
      </trkpt>
      <trkpt lat="46.36558" lon="-0.44637">
        <ele>114</ele>
        <time>2012-10-23T15:20:55Z</time>
      </trkpt>
      <trkpt lat="46.3656" lon="-0.44644">
        <ele>113</ele>
        <time>2012-10-23T15:21:00Z</time>
      </trkpt>
      <trkpt lat="46.36563" lon="-0.4465">
        <ele>112</ele>
        <time>2012-10-23T15:21:05Z</time>
      </trkpt>
      <trkpt lat="46.36564" lon="-0.44659">
        <ele>113</ele>
        <time>2012-10-23T15:21:10Z</time>
      </trkpt>
      <trkpt lat="46.36566" lon="-0.44667">
        <ele>113</ele>
        <time>2012-10-23T15:21:15Z</time>
      </trkpt>
      <trkpt lat="46.36568" lon="-0.44673">
        <ele>114</ele>
        <time>2012-10-23T15:21:20Z</time>
      </trkpt>
      <trkpt lat="46.36569" lon="-0.44682">
        <ele>115</ele>
        <time>2012-10-23T15:21:25Z</time>
      </trkpt>
      <trkpt lat="46.36571" lon="-0.4469">
        <ele>115</ele>
        <time>2012-10-23T15:21:30Z</time>
      </trkpt>
      <trkpt lat="46.36574" lon="-0.44698">
        <ele>114</ele>
        <time>2012-10-23T15:21:35Z</time>
      </trkpt>
      <trkpt lat="46.36576" lon="-0.44704">
        <ele>113</ele>
        <time>2012-10-23T15:21:40Z</time>
      </trkpt>
      <trkpt lat="46.36579" lon="-0.4471">
        <ele>112</ele>
        <time>2012-10-23T15:21:45Z</time>
      </trkpt>
      <trkpt lat="46.36581" lon="-0.44718">
        <ele>112</ele>
        <time>2012-10-23T15:21:50Z</time>
      </trkpt>
      <trkpt lat="46.36583" lon="-0.44726">
        <ele>111</ele>
        <time>2012-10-23T15:21:55Z</time>
      </trkpt>
      <trkpt lat="46.36587" lon="-0.44731">
        <ele>110</ele>
        <time>2012-10-23T15:22:00Z</time>
      </trkpt>
      <trkpt lat="46.36587" lon="-0.44738">
        <ele>111</ele>
        <time>2012-10-23T15:22:05Z</time>
      </trkpt>
      <trkpt lat="46.36589" lon="-0.44744">
        <ele>110</ele>
        <time>2012-10-23T15:22:10Z</time>
      </trkpt>
      <trkpt lat="46.3659" lon="-0.44754">
        <ele>111</ele>
        <time>2012-10-23T15:22:15Z</time>
      </trkpt>
      <trkpt lat="46.36593" lon="-0.44761">
        <ele>113</ele>
        <time>2012-10-23T15:22:20Z</time>
      </trkpt>
      <trkpt lat="46.36595" lon="-0.44767">
        <ele>112</ele>
        <time>2012-10-23T15:22:25Z</time>
      </trkpt>
      <trkpt lat="46.36596" lon="-0.44775">
        <ele>111</ele>
        <time>2012-10-23T15:22:30Z</time>
      </trkpt>
      <trkpt lat="46.36598" lon="-0.44785">
        <ele>111</ele>
        <time>2012-10-23T15:22:35Z</time>
      </trkpt>
      <trkpt lat="46.36601" lon="-0.44793">
        <ele>112</ele>
        <time>2012-10-23T15:22:40Z</time>
      </trkpt>
      <trkpt lat="46.36604" lon="-0.44801">
        <ele>113</ele>
        <time>2012-10-23T15:22:45Z</time>
      </trkpt>
      <trkpt lat="46.36607" lon="-0.44809">
        <ele>113</ele>
        <time>2012-10-23T15:22:50Z</time>
      </trkpt>
      <trkpt lat="46.36609" lon="-0.44816">
        <ele>112</ele>
        <time>2012-10-23T15:22:55Z</time>
      </trkpt>
      <trkpt lat="46.3661" lon="-0.44825">
        <ele>112</ele>
        <time>2012-10-23T15:23:00Z</time>
      </trkpt>
      <trkpt lat="46.36611" lon="-0.44831">
        <ele>113</ele>
        <time>2012-10-23T15:23:05Z</time>
      </trkpt>
      <trkpt lat="46.36613" lon="-0.44838">
        <ele>112</ele>
        <time>2012-10-23T15:23:10Z</time>
      </trkpt>
      <trkpt lat="46.36615" lon="-0.44847">
        <ele>111</ele>
        <time>2012-10-23T15:23:15Z</time>
      </trkpt>
      <trkpt lat="46.36618" lon="-0.44855">
        <ele>112</ele>
        <time>2012-10-23T15:23:20Z</time>
      </trkpt>
      <trkpt lat="46.36619" lon="-0.44861">
        <ele>111</ele>
        <time>2012-10-23T15:23:25Z</time>
      </trkpt>
      <trkpt lat="46.36622" lon="-0.44868">
        <ele>110</ele>
        <time>2012-10-23T15:23:30Z</time>
      </trkpt>
      <trkpt lat="46.36624" lon="-0.44878">
        <ele>111</ele>
        <time>2012-10-23T15:23:35Z</time>
      </trkpt>
      <trkpt lat="46.36626" lon="-0.44884">
        <ele>109</ele>
        <time>2012-10-23T15:23:40Z</time>
      </trkpt>
      <trkpt lat="46.36631" lon="-0.44892">
        <ele>109</ele>
        <time>2012-10-23T15:23:45Z</time>
      </trkpt>
      <trkpt lat="46.36632" lon="-0.44899">
        <ele>109</ele>
        <time>2012-10-23T15:23:50Z</time>
      </trkpt>
      <trkpt lat="46.36634" lon="-0.44905">
        <ele>108</ele>
        <time>2012-10-23T15:23:55Z</time>
      </trkpt>
      <trkpt lat="46.36635" lon="-0.44914">
        <ele>107</ele>
        <time>2012-10-23T15:24:00Z</time>
      </trkpt>
      <trkpt lat="46.36637" lon="-0.44921">
        <ele>107</ele>
        <time>2012-10-23T15:24:05Z</time>
      </trkpt>
      <trkpt lat="46.36639" lon="-0.44929">
        <ele>108</ele>
        <time>2012-10-23T15:24:10Z</time>
      </trkpt>
      <trkpt lat="46.36642" lon="-0.44935">
        <ele>106</ele>
        <time>2012-10-23T15:24:15Z</time>
      </trkpt>
      <trkpt lat="46.36645" lon="-0.44943">
        <ele>106</ele>
        <time>2012-10-23T15:24:20Z</time>
      </trkpt>
      <trkpt lat="46.36647" lon="-0.44951">
        <ele>106</ele>
        <time>2012-10-23T15:24:25Z</time>
      </trkpt>
      <trkpt lat="46.36649" lon="-0.44958">
        <ele>105</ele>
        <time>2012-10-23T15:24:30Z</time>
      </trkpt>
      <trkpt lat="46.36651" lon="-0.44967">
        <ele>105</ele>
        <time>2012-10-23T15:24:35Z</time>
      </trkpt>
      <trkpt lat="46.36653" lon="-0.44975">
        <ele>104</ele>
        <time>2012-10-23T15:24:40Z</time>
      </trkpt>
      <trkpt lat="46.36655" lon="-0.44984">
        <ele>104</ele>
        <time>2012-10-23T15:24:45Z</time>
      </trkpt>
      <trkpt lat="46.36656" lon="-0.44992">
        <ele>105</ele>
        <time>2012-10-23T15:24:50Z</time>
      </trkpt>
      <trkpt lat="46.36658" lon="-0.45">
        <ele>104</ele>
        <time>2012-10-23T15:24:55Z</time>
      </trkpt>
      <trkpt lat="46.3666" lon="-0.45008">
        <ele>104</ele>
        <time>2012-10-23T15:25:00Z</time>
      </trkpt>
      <trkpt lat="46.36661" lon="-0.45016">
        <ele>103</ele>
        <time>2012-10-23T15:25:05Z</time>
      </trkpt>
      <trkpt lat="46.36661" lon="-0.45025">
        <ele>103</ele>
        <time>2012-10-23T15:25:10Z</time>
      </trkpt>
      <trkpt lat="46.36662" lon="-0.45034">
        <ele>104</ele>
        <time>2012-10-23T15:25:15Z</time>
      </trkpt>
      <trkpt lat="46.36657" lon="-0.4504">
        <ele>105</ele>
        <time>2012-10-23T15:25:20Z</time>
      </trkpt>
      <trkpt lat="46.36653" lon="-0.45043">
        <ele>104</ele>
        <time>2012-10-23T15:25:25Z</time>
      </trkpt>
      <trkpt lat="46.36649" lon="-0.45048">
        <ele>102</ele>
        <time>2012-10-23T15:25:30Z</time>
      </trkpt>
      <trkpt lat="46.36645" lon="-0.45053">
        <ele>103</ele>
        <time>2012-10-23T15:25:35Z</time>
      </trkpt>
      <trkpt lat="46.36641" lon="-0.45057">
        <ele>102</ele>
        <time>2012-10-23T15:25:40Z</time>
      </trkpt>
      <trkpt lat="46.36636" lon="-0.45063">
        <ele>102</ele>
        <time>2012-10-23T15:25:45Z</time>
      </trkpt>
      <trkpt lat="46.36632" lon="-0.45067">
        <ele>102</ele>
        <time>2012-10-23T15:25:50Z</time>
      </trkpt>
      <trkpt lat="46.36627" lon="-0.45071">
        <ele>101</ele>
        <time>2012-10-23T15:25:55Z</time>
      </trkpt>
      <trkpt lat="46.36623" lon="-0.45075">
        <ele>101</ele>
        <time>2012-10-23T15:26:00Z</time>
      </trkpt>
      <trkpt lat="46.36618" lon="-0.45078">
        <ele>101</ele>
        <time>2012-10-23T15:26:05Z</time>
      </trkpt>
      <trkpt lat="46.36612" lon="-0.45083">
        <ele>103</ele>
        <time>2012-10-23T15:26:10Z</time>
      </trkpt>
      <trkpt lat="46.36608" lon="-0.45086">
        <ele>101</ele>
        <time>2012-10-23T15:26:15Z</time>
      </trkpt>
      <trkpt lat="46.36604" lon="-0.45086">
        <ele>100</ele>
        <time>2012-10-23T15:26:20Z</time>
      </trkpt>
      <trkpt lat="46.36601" lon="-0.4509">
        <ele>99</ele>
        <time>2012-10-23T15:26:25Z</time>
      </trkpt>
      <trkpt lat="46.36596" lon="-0.45091">
        <ele>98</ele>
        <time>2012-10-23T15:26:30Z</time>
      </trkpt>
      <trkpt lat="46.36592" lon="-0.45094">
        <ele>96</ele>
        <time>2012-10-23T15:26:35Z</time>
      </trkpt>
      <trkpt lat="46.36587" lon="-0.45097">
        <ele>95</ele>
        <time>2012-10-23T15:26:40Z</time>
      </trkpt>
      <trkpt lat="46.36582" lon="-0.451">
        <ele>94</ele>
        <time>2012-10-23T15:26:45Z</time>
      </trkpt>
      <trkpt lat="46.36578" lon="-0.45101">
        <ele>94</ele>
        <time>2012-10-23T15:26:50Z</time>
      </trkpt>
      <trkpt lat="46.36573" lon="-0.45105">
        <ele>93</ele>
        <time>2012-10-23T15:26:55Z</time>
      </trkpt>
      <trkpt lat="46.36569" lon="-0.45112">
        <ele>94</ele>
        <time>2012-10-23T15:27:00Z</time>
      </trkpt>
      <trkpt lat="46.36571" lon="-0.45121">
        <ele>93</ele>
        <time>2012-10-23T15:27:05Z</time>
      </trkpt>
      <trkpt lat="46.36572" lon="-0.45128">
        <ele>94</ele>
        <time>2012-10-23T15:27:10Z</time>
      </trkpt>
      <trkpt lat="46.36574" lon="-0.45136">
        <ele>93</ele>
        <time>2012-10-23T15:27:15Z</time>
      </trkpt>
      <trkpt lat="46.36576" lon="-0.45144">
        <ele>94</ele>
        <time>2012-10-23T15:27:20Z</time>
      </trkpt>
      <trkpt lat="46.36578" lon="-0.45151">
        <ele>93</ele>
        <time>2012-10-23T15:27:25Z</time>
      </trkpt>
      <trkpt lat="46.3658" lon="-0.4516">
        <ele>93</ele>
        <time>2012-10-23T15:27:30Z</time>
      </trkpt>
      <trkpt lat="46.36581" lon="-0.45167">
        <ele>94</ele>
        <time>2012-10-23T15:27:35Z</time>
      </trkpt>
      <trkpt lat="46.36582" lon="-0.45174">
        <ele>95</ele>
        <time>2012-10-23T15:27:40Z</time>
      </trkpt>
      <trkpt lat="46.36586" lon="-0.4518">
        <ele>92</ele>
        <time>2012-10-23T15:27:45Z</time>
      </trkpt>
      <trkpt lat="46.36588" lon="-0.45187">
        <ele>92</ele>
        <time>2012-10-23T15:27:50Z</time>
      </trkpt>
      <trkpt lat="46.36587" lon="-0.45195">
        <ele>93</ele>
        <time>2012-10-23T15:27:55Z</time>
      </trkpt>
      <trkpt lat="46.36588" lon="-0.45203">
        <ele>94</ele>
        <time>2012-10-23T15:28:00Z</time>
      </trkpt>
      <trkpt lat="46.36589" lon="-0.45211">
        <ele>94</ele>
        <time>2012-10-23T15:28:05Z</time>
      </trkpt>
      <trkpt lat="46.36591" lon="-0.45219">
        <ele>93</ele>
        <time>2012-10-23T15:28:10Z</time>
      </trkpt>
      <trkpt lat="46.36593" lon="-0.45226">
        <ele>92</ele>
        <time>2012-10-23T15:28:15Z</time>
      </trkpt>
      <trkpt lat="46.36593" lon="-0.45233">
        <ele>94</ele>
        <time>2012-10-23T15:28:20Z</time>
      </trkpt>
      <trkpt lat="46.36596" lon="-0.45239">
        <ele>92</ele>
        <time>2012-10-23T15:28:25Z</time>
      </trkpt>
      <trkpt lat="46.36597" lon="-0.45248">
        <ele>91</ele>
        <time>2012-10-23T15:28:30Z</time>
      </trkpt>
      <trkpt lat="46.36598" lon="-0.45256">
        <ele>91</ele>
        <time>2012-10-23T15:28:35Z</time>
      </trkpt>
      <trkpt lat="46.36598" lon="-0.45264">
        <ele>90</ele>
        <time>2012-10-23T15:28:40Z</time>
      </trkpt>
      <trkpt lat="46.36597" lon="-0.45274">
        <ele>91</ele>
        <time>2012-10-23T15:28:45Z</time>
      </trkpt>
      <trkpt lat="46.36597" lon="-0.45283">
        <ele>89</ele>
        <time>2012-10-23T15:28:50Z</time>
      </trkpt>
      <trkpt lat="46.36595" lon="-0.45289">
        <ele>88</ele>
        <time>2012-10-23T15:28:55Z</time>
      </trkpt>
      <trkpt lat="46.36595" lon="-0.45296">
        <ele>89</ele>
        <time>2012-10-23T15:29:00Z</time>
      </trkpt>
      <trkpt lat="46.36593" lon="-0.45304">
        <ele>87</ele>
        <time>2012-10-23T15:29:05Z</time>
      </trkpt>
      <trkpt lat="46.36592" lon="-0.45311">
        <ele>87</ele>
        <time>2012-10-23T15:29:10Z</time>
      </trkpt>
      <trkpt lat="46.3659" lon="-0.45316">
        <ele>86</ele>
        <time>2012-10-23T15:29:15Z</time>
      </trkpt>
      <trkpt lat="46.36589" lon="-0.45323">
        <ele>85</ele>
        <time>2012-10-23T15:29:20Z</time>
      </trkpt>
      <trkpt lat="46.36587" lon="-0.45329">
        <ele>85</ele>
        <time>2012-10-23T15:29:25Z</time>
      </trkpt>
      <trkpt lat="46.36585" lon="-0.45337">
        <ele>85</ele>
        <time>2012-10-23T15:29:30Z</time>
      </trkpt>
      <trkpt lat="46.36583" lon="-0.45344">
        <ele>84</ele>
        <time>2012-10-23T15:29:35Z</time>
      </trkpt>
      <trkpt lat="46.36581" lon="-0.45351">
        <ele>84</ele>
        <time>2012-10-23T15:29:40Z</time>
      </trkpt>
      <trkpt lat="46.36578" lon="-0.45357">
        <ele>84</ele>
        <time>2012-10-23T15:29:45Z</time>
      </trkpt>
      <trkpt lat="46.36573" lon="-0.45364">
        <ele>83</ele>
        <time>2012-10-23T15:29:50Z</time>
      </trkpt>
      <trkpt lat="46.36569" lon="-0.4537">
        <ele>82</ele>
        <time>2012-10-23T15:29:55Z</time>
      </trkpt>
      <trkpt lat="46.36565" lon="-0.45377">
        <ele>82</ele>
        <time>2012-10-23T15:30:00Z</time>
      </trkpt>
      <trkpt lat="46.36562" lon="-0.45382">
        <ele>83</ele>
        <time>2012-10-23T15:30:05Z</time>
      </trkpt>
      <trkpt lat="46.36559" lon="-0.45388">
        <ele>82</ele>
        <time>2012-10-23T15:30:10Z</time>
      </trkpt>
      <trkpt lat="46.36556" lon="-0.45394">
        <ele>83</ele>
        <time>2012-10-23T15:30:15Z</time>
      </trkpt>
      <trkpt lat="46.3655" lon="-0.454">
        <ele>84</ele>
        <time>2012-10-23T15:30:20Z</time>
      </trkpt>
      <trkpt lat="46.36546" lon="-0.45407">
        <ele>83</ele>
        <time>2012-10-23T15:30:25Z</time>
      </trkpt>
      <trkpt lat="46.36542" lon="-0.45411">
        <ele>83</ele>
        <time>2012-10-23T15:30:30Z</time>
      </trkpt>
      <trkpt lat="46.36538" lon="-0.45417">
        <ele>83</ele>
        <time>2012-10-23T15:30:35Z</time>
      </trkpt>
      <trkpt lat="46.36532" lon="-0.45423">
        <ele>83</ele>
        <time>2012-10-23T15:30:40Z</time>
      </trkpt>
      <trkpt lat="46.36528" lon="-0.45429">
        <ele>83</ele>
        <time>2012-10-23T15:30:45Z</time>
      </trkpt>
      <trkpt lat="46.36523" lon="-0.45436">
        <ele>84</ele>
        <time>2012-10-23T15:30:50Z</time>
      </trkpt>
      <trkpt lat="46.36517" lon="-0.45441">
        <ele>83</ele>
        <time>2012-10-23T15:30:55Z</time>
      </trkpt>
      <trkpt lat="46.36514" lon="-0.45448">
        <ele>83</ele>
        <time>2012-10-23T15:31:00Z</time>
      </trkpt>
      <trkpt lat="46.3651" lon="-0.45455">
        <ele>85</ele>
        <time>2012-10-23T15:31:05Z</time>
      </trkpt>
      <trkpt lat="46.36507" lon="-0.4546">
        <ele>86</ele>
        <time>2012-10-23T15:31:10Z</time>
      </trkpt>
      <trkpt lat="46.36504" lon="-0.45464">
        <ele>85</ele>
        <time>2012-10-23T15:31:15Z</time>
      </trkpt>
      <trkpt lat="46.365" lon="-0.45469">
        <ele>85</ele>
        <time>2012-10-23T15:31:20Z</time>
      </trkpt>
      <trkpt lat="46.36497" lon="-0.45474">
        <ele>84</ele>
        <time>2012-10-23T15:31:25Z</time>
      </trkpt>
      <trkpt lat="46.36493" lon="-0.45481">
        <ele>84</ele>
        <time>2012-10-23T15:31:30Z</time>
      </trkpt>
      <trkpt lat="46.3649" lon="-0.45486">
        <ele>83</ele>
        <time>2012-10-23T15:31:35Z</time>
      </trkpt>
      <trkpt lat="46.36486" lon="-0.45491">
        <ele>82</ele>
        <time>2012-10-23T15:31:40Z</time>
      </trkpt>
      <trkpt lat="46.36485" lon="-0.455">
        <ele>80</ele>
        <time>2012-10-23T15:31:45Z</time>
      </trkpt>
      <trkpt lat="46.36483" lon="-0.45508">
        <ele>80</ele>
        <time>2012-10-23T15:31:50Z</time>
      </trkpt>
      <trkpt lat="46.36481" lon="-0.45514">
        <ele>77</ele>
        <time>2012-10-23T15:31:55Z</time>
      </trkpt>
      <trkpt lat="46.36478" lon="-0.45521">
        <ele>76</ele>
        <time>2012-10-23T15:32:00Z</time>
      </trkpt>
      <trkpt lat="46.36476" lon="-0.45528">
        <ele>75</ele>
        <time>2012-10-23T15:32:05Z</time>
      </trkpt>
      <trkpt lat="46.3647" lon="-0.4554">
        <ele>80</ele>
        <time>2012-10-23T15:32:10Z</time>
      </trkpt>
      <trkpt lat="46.36465" lon="-0.45547">
        <ele>84</ele>
        <time>2012-10-23T15:32:15Z</time>
      </trkpt>
      <trkpt lat="46.36462" lon="-0.45555">
        <ele>83</ele>
        <time>2012-10-23T15:32:20Z</time>
      </trkpt>
      <trkpt lat="46.36459" lon="-0.45563">
        <ele>82</ele>
        <time>2012-10-23T15:32:25Z</time>
      </trkpt>
      <trkpt lat="46.36456" lon="-0.45571">
        <ele>82</ele>
        <time>2012-10-23T15:32:30Z</time>
      </trkpt>
      <trkpt lat="46.36454" lon="-0.45578">
        <ele>81</ele>
        <time>2012-10-23T15:32:35Z</time>
      </trkpt>
      <trkpt lat="46.36452" lon="-0.45585">
        <ele>82</ele>
        <time>2012-10-23T15:32:40Z</time>
      </trkpt>
      <trkpt lat="46.36452" lon="-0.45585">
        <ele>81</ele>
        <time>2012-10-23T15:32:45Z</time>
      </trkpt>
      <trkpt lat="46.36448" lon="-0.45594">
        <ele>81</ele>
        <time>2012-10-23T15:32:50Z</time>
      </trkpt>
      <trkpt lat="46.36446" lon="-0.45601">
        <ele>81</ele>
        <time>2012-10-23T15:32:55Z</time>
      </trkpt>
      <trkpt lat="46.36443" lon="-0.45609">
        <ele>81</ele>
        <time>2012-10-23T15:33:00Z</time>
      </trkpt>
      <trkpt lat="46.3644" lon="-0.45616">
        <ele>81</ele>
        <time>2012-10-23T15:33:05Z</time>
      </trkpt>
      <trkpt lat="46.36438" lon="-0.45624">
        <ele>81</ele>
        <time>2012-10-23T15:33:10Z</time>
      </trkpt>
      <trkpt lat="46.36436" lon="-0.4563">
        <ele>79</ele>
        <time>2012-10-23T15:33:15Z</time>
      </trkpt>
      <trkpt lat="46.36434" lon="-0.45639">
        <ele>80</ele>
        <time>2012-10-23T15:33:20Z</time>
      </trkpt>
      <trkpt lat="46.36431" lon="-0.45647">
        <ele>80</ele>
        <time>2012-10-23T15:33:25Z</time>
      </trkpt>
      <trkpt lat="46.36429" lon="-0.45654">
        <ele>81</ele>
        <time>2012-10-23T15:33:30Z</time>
      </trkpt>
      <trkpt lat="46.36427" lon="-0.45662">
        <ele>81</ele>
        <time>2012-10-23T15:33:35Z</time>
      </trkpt>
      <trkpt lat="46.36425" lon="-0.45671">
        <ele>81</ele>
        <time>2012-10-23T15:33:40Z</time>
      </trkpt>
      <trkpt lat="46.36421" lon="-0.45679">
        <ele>82</ele>
        <time>2012-10-23T15:33:45Z</time>
      </trkpt>
      <trkpt lat="46.36418" lon="-0.45686">
        <ele>82</ele>
        <time>2012-10-23T15:33:50Z</time>
      </trkpt>
      <trkpt lat="46.36416" lon="-0.45692">
        <ele>81</ele>
        <time>2012-10-23T15:33:55Z</time>
      </trkpt>
      <trkpt lat="46.36412" lon="-0.45699">
        <ele>80</ele>
        <time>2012-10-23T15:34:00Z</time>
      </trkpt>
      <trkpt lat="46.36408" lon="-0.45704">
        <ele>82</ele>
        <time>2012-10-23T15:34:05Z</time>
      </trkpt>
      <trkpt lat="46.36408" lon="-0.45711">
        <ele>79</ele>
        <time>2012-10-23T15:34:10Z</time>
      </trkpt>
      <trkpt lat="46.36404" lon="-0.45717">
        <ele>80</ele>
        <time>2012-10-23T15:34:15Z</time>
      </trkpt>
      <trkpt lat="46.36401" lon="-0.45724">
        <ele>81</ele>
        <time>2012-10-23T15:34:20Z</time>
      </trkpt>
      <trkpt lat="46.36397" lon="-0.45729">
        <ele>81</ele>
        <time>2012-10-23T15:34:25Z</time>
      </trkpt>
      <trkpt lat="46.36394" lon="-0.45735">
        <ele>81</ele>
        <time>2012-10-23T15:34:30Z</time>
      </trkpt>
      <trkpt lat="46.36389" lon="-0.45741">
        <ele>82</ele>
        <time>2012-10-23T15:34:35Z</time>
      </trkpt>
      <trkpt lat="46.36386" lon="-0.45749">
        <ele>82</ele>
        <time>2012-10-23T15:34:40Z</time>
      </trkpt>
      <trkpt lat="46.36382" lon="-0.45757">
        <ele>82</ele>
        <time>2012-10-23T15:34:45Z</time>
      </trkpt>
      <trkpt lat="46.36377" lon="-0.45764">
        <ele>82</ele>
        <time>2012-10-23T15:34:50Z</time>
      </trkpt>
      <trkpt lat="46.36374" lon="-0.4577">
        <ele>83</ele>
        <time>2012-10-23T15:34:55Z</time>
      </trkpt>
      <trkpt lat="46.36371" lon="-0.45777">
        <ele>83</ele>
        <time>2012-10-23T15:35:00Z</time>
      </trkpt>
      <trkpt lat="46.36366" lon="-0.45783">
        <ele>83</ele>
        <time>2012-10-23T15:35:05Z</time>
      </trkpt>
      <trkpt lat="46.36364" lon="-0.45788">
        <ele>81</ele>
        <time>2012-10-23T15:35:10Z</time>
      </trkpt>
      <trkpt lat="46.36361" lon="-0.4579">
        <ele>78</ele>
        <time>2012-10-23T15:35:15Z</time>
      </trkpt>
      <trkpt lat="46.36355" lon="-0.45799">
        <ele>80</ele>
        <time>2012-10-23T15:35:20Z</time>
      </trkpt>
      <trkpt lat="46.36351" lon="-0.45808">
        <ele>83</ele>
        <time>2012-10-23T15:35:25Z</time>
      </trkpt>
      <trkpt lat="46.36347" lon="-0.45814">
        <ele>82</ele>
        <time>2012-10-23T15:35:30Z</time>
      </trkpt>
      <trkpt lat="46.36344" lon="-0.45819">
        <ele>81</ele>
        <time>2012-10-23T15:35:35Z</time>
      </trkpt>
      <trkpt lat="46.3634" lon="-0.45826">
        <ele>81</ele>
        <time>2012-10-23T15:35:40Z</time>
      </trkpt>
      <trkpt lat="46.36335" lon="-0.45832">
        <ele>82</ele>
        <time>2012-10-23T15:35:45Z</time>
      </trkpt>
      <trkpt lat="46.36331" lon="-0.45837">
        <ele>81</ele>
        <time>2012-10-23T15:35:50Z</time>
      </trkpt>
      <trkpt lat="46.36328" lon="-0.45841">
        <ele>81</ele>
        <time>2012-10-23T15:35:55Z</time>
      </trkpt>
      <trkpt lat="46.36325" lon="-0.45846">
        <ele>81</ele>
        <time>2012-10-23T15:36:00Z</time>
      </trkpt>
      <trkpt lat="46.36321" lon="-0.45852">
        <ele>82</ele>
        <time>2012-10-23T15:36:05Z</time>
      </trkpt>
      <trkpt lat="46.36316" lon="-0.45858">
        <ele>82</ele>
        <time>2012-10-23T15:36:10Z</time>
      </trkpt>
      <trkpt lat="46.36311" lon="-0.45863">
        <ele>84</ele>
        <time>2012-10-23T15:36:15Z</time>
      </trkpt>
      <trkpt lat="46.36306" lon="-0.45868">
        <ele>85</ele>
        <time>2012-10-23T15:36:20Z</time>
      </trkpt>
      <trkpt lat="46.36302" lon="-0.45873">
        <ele>88</ele>
        <time>2012-10-23T15:36:25Z</time>
      </trkpt>
      <trkpt lat="46.36299" lon="-0.45879">
        <ele>89</ele>
        <time>2012-10-23T15:36:30Z</time>
      </trkpt>
      <trkpt lat="46.36293" lon="-0.45887">
        <ele>92</ele>
        <time>2012-10-23T15:36:35Z</time>
      </trkpt>
      <trkpt lat="46.36289" lon="-0.45893">
        <ele>92</ele>
        <time>2012-10-23T15:36:40Z</time>
      </trkpt>
      <trkpt lat="46.36285" lon="-0.45897">
        <ele>92</ele>
        <time>2012-10-23T15:36:45Z</time>
      </trkpt>
      <trkpt lat="46.36279" lon="-0.45902">
        <ele>94</ele>
        <time>2012-10-23T15:36:50Z</time>
      </trkpt>
      <trkpt lat="46.36274" lon="-0.45908">
        <ele>95</ele>
        <time>2012-10-23T15:36:55Z</time>
      </trkpt>
      <trkpt lat="46.3627" lon="-0.45912">
        <ele>95</ele>
        <time>2012-10-23T15:37:00Z</time>
      </trkpt>
      <trkpt lat="46.36266" lon="-0.45919">
        <ele>97</ele>
        <time>2012-10-23T15:37:05Z</time>
      </trkpt>
      <trkpt lat="46.36259" lon="-0.45924">
        <ele>97</ele>
        <time>2012-10-23T15:37:10Z</time>
      </trkpt>
      <trkpt lat="46.36256" lon="-0.45927">
        <ele>97</ele>
        <time>2012-10-23T15:37:15Z</time>
      </trkpt>
      <trkpt lat="46.36252" lon="-0.45932">
        <ele>99</ele>
        <time>2012-10-23T15:37:20Z</time>
      </trkpt>
      <trkpt lat="46.36247" lon="-0.45937">
        <ele>101</ele>
        <time>2012-10-23T15:37:25Z</time>
      </trkpt>
      <trkpt lat="46.36243" lon="-0.4594">
        <ele>101</ele>
        <time>2012-10-23T15:37:30Z</time>
      </trkpt>
      <trkpt lat="46.36236" lon="-0.45945">
        <ele>102</ele>
        <time>2012-10-23T15:37:35Z</time>
      </trkpt>
      <trkpt lat="46.36234" lon="-0.45946">
        <ele>98</ele>
        <time>2012-10-23T15:37:40Z</time>
      </trkpt>
      <trkpt lat="46.3623" lon="-0.45952">
        <ele>98</ele>
        <time>2012-10-23T15:37:45Z</time>
      </trkpt>
      <trkpt lat="46.36226" lon="-0.45953">
        <ele>98</ele>
        <time>2012-10-23T15:37:50Z</time>
      </trkpt>
      <trkpt lat="46.36221" lon="-0.45956">
        <ele>98</ele>
        <time>2012-10-23T15:37:55Z</time>
      </trkpt>
      <trkpt lat="46.36216" lon="-0.4596">
        <ele>97</ele>
        <time>2012-10-23T15:38:00Z</time>
      </trkpt>
      <trkpt lat="46.36212" lon="-0.45966">
        <ele>97</ele>
        <time>2012-10-23T15:38:05Z</time>
      </trkpt>
      <trkpt lat="46.36208" lon="-0.45971">
        <ele>97</ele>
        <time>2012-10-23T15:38:10Z</time>
      </trkpt>
      <trkpt lat="46.36204" lon="-0.45975">
        <ele>98</ele>
        <time>2012-10-23T15:38:15Z</time>
      </trkpt>
      <trkpt lat="46.36199" lon="-0.45979">
        <ele>98</ele>
        <time>2012-10-23T15:38:20Z</time>
      </trkpt>
      <trkpt lat="46.36196" lon="-0.45985">
        <ele>94</ele>
        <time>2012-10-23T15:38:25Z</time>
      </trkpt>
      <trkpt lat="46.36192" lon="-0.4599">
        <ele>93</ele>
        <time>2012-10-23T15:38:30Z</time>
      </trkpt>
      <trkpt lat="46.36188" lon="-0.45998">
        <ele>94</ele>
        <time>2012-10-23T15:38:35Z</time>
      </trkpt>
      <trkpt lat="46.36184" lon="-0.46002">
        <ele>93</ele>
        <time>2012-10-23T15:38:40Z</time>
      </trkpt>
      <trkpt lat="46.36184" lon="-0.46005">
        <ele>89</ele>
        <time>2012-10-23T15:38:45Z</time>
      </trkpt>
      <trkpt lat="46.36181" lon="-0.46007">
        <ele>88</ele>
        <time>2012-10-23T15:38:50Z</time>
      </trkpt>
      <trkpt lat="46.36178" lon="-0.4601">
        <ele>87</ele>
        <time>2012-10-23T15:38:55Z</time>
      </trkpt>
      <trkpt lat="46.36174" lon="-0.46017">
        <ele>85</ele>
        <time>2012-10-23T15:39:00Z</time>
      </trkpt>
      <trkpt lat="46.36169" lon="-0.46021">
        <ele>85</ele>
        <time>2012-10-23T15:39:05Z</time>
      </trkpt>
      <trkpt lat="46.36165" lon="-0.46027">
        <ele>85</ele>
        <time>2012-10-23T15:39:10Z</time>
      </trkpt>
      <trkpt lat="46.36162" lon="-0.46031">
        <ele>83</ele>
        <time>2012-10-23T15:39:15Z</time>
      </trkpt>
      <trkpt lat="46.36157" lon="-0.46036">
        <ele>83</ele>
        <time>2012-10-23T15:39:20Z</time>
      </trkpt>
      <trkpt lat="46.36152" lon="-0.46042">
        <ele>81</ele>
        <time>2012-10-23T15:39:25Z</time>
      </trkpt>
      <trkpt lat="46.36145" lon="-0.4605">
        <ele>83</ele>
        <time>2012-10-23T15:39:30Z</time>
      </trkpt>
      <trkpt lat="46.36141" lon="-0.46055">
        <ele>80</ele>
        <time>2012-10-23T15:39:35Z</time>
      </trkpt>
      <trkpt lat="46.36135" lon="-0.4606">
        <ele>80</ele>
        <time>2012-10-23T15:39:40Z</time>
      </trkpt>
      <trkpt lat="46.36132" lon="-0.46068">
        <ele>80</ele>
        <time>2012-10-23T15:39:45Z</time>
      </trkpt>
      <trkpt lat="46.36125" lon="-0.46073">
        <ele>81</ele>
        <time>2012-10-23T15:39:50Z</time>
      </trkpt>
      <trkpt lat="46.36122" lon="-0.46078">
        <ele>80</ele>
        <time>2012-10-23T15:39:55Z</time>
      </trkpt>
      <trkpt lat="46.36116" lon="-0.46084">
        <ele>81</ele>
        <time>2012-10-23T15:40:00Z</time>
      </trkpt>
      <trkpt lat="46.36114" lon="-0.46089">
        <ele>78</ele>
        <time>2012-10-23T15:40:05Z</time>
      </trkpt>
      <trkpt lat="46.36112" lon="-0.46096">
        <ele>76</ele>
        <time>2012-10-23T15:40:10Z</time>
      </trkpt>
      <trkpt lat="46.36109" lon="-0.46102">
        <ele>76</ele>
        <time>2012-10-23T15:40:15Z</time>
      </trkpt>
      <trkpt lat="46.36104" lon="-0.46106">
        <ele>75</ele>
        <time>2012-10-23T15:40:20Z</time>
      </trkpt>
      <trkpt lat="46.36101" lon="-0.46111">
        <ele>75</ele>
        <time>2012-10-23T15:40:25Z</time>
      </trkpt>
      <trkpt lat="46.36094" lon="-0.46113">
        <ele>79</ele>
        <time>2012-10-23T15:40:30Z</time>
      </trkpt>
      <trkpt lat="46.36093" lon="-0.46115">
        <ele>81</ele>
        <time>2012-10-23T15:40:35Z</time>
      </trkpt>
      <trkpt lat="46.36092" lon="-0.46116">
        <ele>82</ele>
        <time>2012-10-23T15:40:40Z</time>
      </trkpt>
      <trkpt lat="46.36091" lon="-0.46116">
        <ele>83</ele>
        <time>2012-10-23T15:40:45Z</time>
      </trkpt>
      <trkpt lat="46.3609" lon="-0.46117">
        <ele>84</ele>
        <time>2012-10-23T15:41:20Z</time>
      </trkpt>
      <trkpt lat="46.36089" lon="-0.46117">
        <ele>85</ele>
        <time>2012-10-23T15:41:25Z</time>
      </trkpt>
      <trkpt lat="46.36088" lon="-0.46116">
        <ele>86</ele>
        <time>2012-10-23T15:41:35Z</time>
      </trkpt>
      <trkpt lat="46.36085" lon="-0.46108">
        <ele>85</ele>
        <time>2012-10-23T15:41:40Z</time>
      </trkpt>
      <trkpt lat="46.3608" lon="-0.461">
        <ele>84</ele>
        <time>2012-10-23T15:41:45Z</time>
      </trkpt>
      <trkpt lat="46.36073" lon="-0.46091">
        <ele>83</ele>
        <time>2012-10-23T15:41:50Z</time>
      </trkpt>
      <trkpt lat="46.36068" lon="-0.46081">
        <ele>83</ele>
        <time>2012-10-23T15:41:55Z</time>
      </trkpt>
      <trkpt lat="46.36064" lon="-0.46071">
        <ele>82</ele>
        <time>2012-10-23T15:42:00Z</time>
      </trkpt>
      <trkpt lat="46.36062" lon="-0.46063">
        <ele>82</ele>
        <time>2012-10-23T15:42:05Z</time>
      </trkpt>
      <trkpt lat="46.3606" lon="-0.46056">
        <ele>82</ele>
        <time>2012-10-23T15:42:10Z</time>
      </trkpt>
      <trkpt lat="46.36059" lon="-0.46048">
        <ele>82</ele>
        <time>2012-10-23T15:42:15Z</time>
      </trkpt>
      <trkpt lat="46.36056" lon="-0.46046">
        <ele>80</ele>
        <time>2012-10-23T15:42:20Z</time>
      </trkpt>
      <trkpt lat="46.36055" lon="-0.46035">
        <ele>83</ele>
        <time>2012-10-23T15:42:25Z</time>
      </trkpt>
      <trkpt lat="46.36053" lon="-0.46032">
        <ele>81</ele>
        <time>2012-10-23T15:42:30Z</time>
      </trkpt>
      <trkpt lat="46.36052" lon="-0.46032">
        <ele>82</ele>
        <time>2012-10-23T15:42:35Z</time>
      </trkpt>
      <trkpt lat="46.36048" lon="-0.46031">
        <ele>82</ele>
        <time>2012-10-23T15:42:40Z</time>
      </trkpt>
      <trkpt lat="46.36043" lon="-0.46033">
        <ele>83</ele>
        <time>2012-10-23T15:42:45Z</time>
      </trkpt>
      <trkpt lat="46.36039" lon="-0.46035">
        <ele>81</ele>
        <time>2012-10-23T15:42:50Z</time>
      </trkpt>
      <trkpt lat="46.36033" lon="-0.46039">
        <ele>82</ele>
        <time>2012-10-23T15:42:55Z</time>
      </trkpt>
      <trkpt lat="46.36028" lon="-0.46042">
        <ele>82</ele>
        <time>2012-10-23T15:43:00Z</time>
      </trkpt>
      <trkpt lat="46.36025" lon="-0.46045">
        <ele>80</ele>
        <time>2012-10-23T15:43:05Z</time>
      </trkpt>
      <trkpt lat="46.3602" lon="-0.46047">
        <ele>80</ele>
        <time>2012-10-23T15:43:10Z</time>
      </trkpt>
      <trkpt lat="46.36014" lon="-0.46051">
        <ele>81</ele>
        <time>2012-10-23T15:43:15Z</time>
      </trkpt>
      <trkpt lat="46.36008" lon="-0.46054">
        <ele>81</ele>
        <time>2012-10-23T15:43:20Z</time>
      </trkpt>
      <trkpt lat="46.36003" lon="-0.46053">
        <ele>81</ele>
        <time>2012-10-23T15:43:25Z</time>
      </trkpt>
      <trkpt lat="46.35999" lon="-0.46047">
        <ele>83</ele>
        <time>2012-10-23T15:43:30Z</time>
      </trkpt>
      <trkpt lat="46.35996" lon="-0.46045">
        <ele>82</ele>
        <time>2012-10-23T15:43:35Z</time>
      </trkpt>
      <trkpt lat="46.35998" lon="-0.46036">
        <ele>84</ele>
        <time>2012-10-23T15:43:40Z</time>
      </trkpt>
      <trkpt lat="46.35997" lon="-0.46028">
        <ele>83</ele>
        <time>2012-10-23T15:43:45Z</time>
      </trkpt>
      <trkpt lat="46.35997" lon="-0.4602">
        <ele>82</ele>
        <time>2012-10-23T15:43:50Z</time>
      </trkpt>
      <trkpt lat="46.35996" lon="-0.46012">
        <ele>82</ele>
        <time>2012-10-23T15:43:55Z</time>
      </trkpt>
      <trkpt lat="46.35993" lon="-0.46005">
        <ele>81</ele>
        <time>2012-10-23T15:44:00Z</time>
      </trkpt>
      <trkpt lat="46.3599" lon="-0.45996">
        <ele>80</ele>
        <time>2012-10-23T15:44:05Z</time>
      </trkpt>
      <trkpt lat="46.35987" lon="-0.45989">
        <ele>79</ele>
        <time>2012-10-23T15:44:10Z</time>
      </trkpt>
      <trkpt lat="46.35985" lon="-0.45985">
        <ele>76</ele>
        <time>2012-10-23T15:44:15Z</time>
      </trkpt>
      <trkpt lat="46.35983" lon="-0.45978">
        <ele>73</ele>
        <time>2012-10-23T15:44:25Z</time>
      </trkpt>
      <trkpt lat="46.3598" lon="-0.45968">
        <ele>74</ele>
        <time>2012-10-23T15:44:30Z</time>
      </trkpt>
      <trkpt lat="46.35978" lon="-0.45959">
        <ele>73</ele>
        <time>2012-10-23T15:44:35Z</time>
      </trkpt>
      <trkpt lat="46.35976" lon="-0.45951">
        <ele>75</ele>
        <time>2012-10-23T15:44:40Z</time>
      </trkpt>
      <trkpt lat="46.35971" lon="-0.45947">
        <ele>78</ele>
        <time>2012-10-23T15:44:45Z</time>
      </trkpt>
      <trkpt lat="46.35966" lon="-0.45948">
        <ele>76</ele>
        <time>2012-10-23T15:44:50Z</time>
      </trkpt>
      <trkpt lat="46.3596" lon="-0.45948">
        <ele>77</ele>
        <time>2012-10-23T15:44:55Z</time>
      </trkpt>
      <trkpt lat="46.35955" lon="-0.45949">
        <ele>77</ele>
        <time>2012-10-23T15:45:00Z</time>
      </trkpt>
      <trkpt lat="46.3595" lon="-0.45946">
        <ele>78</ele>
        <time>2012-10-23T15:45:05Z</time>
      </trkpt>
      <trkpt lat="46.35948" lon="-0.45941">
        <ele>77</ele>
        <time>2012-10-23T15:45:10Z</time>
      </trkpt>
      <trkpt lat="46.35945" lon="-0.45937">
        <ele>77</ele>
        <time>2012-10-23T15:45:15Z</time>
      </trkpt>
      <trkpt lat="46.35943" lon="-0.45934">
        <ele>76</ele>
        <time>2012-10-23T15:45:20Z</time>
      </trkpt>
      <trkpt lat="46.35942" lon="-0.45932">
        <ele>75</ele>
        <time>2012-10-23T15:45:25Z</time>
      </trkpt>
      <trkpt lat="46.35938" lon="-0.45932">
        <ele>73</ele>
        <time>2012-10-23T15:45:30Z</time>
      </trkpt>
      <trkpt lat="46.35936" lon="-0.45932">
        <ele>69</ele>
        <time>2012-10-23T15:45:35Z</time>
      </trkpt>
      <trkpt lat="46.35934" lon="-0.45936">
        <ele>68</ele>
        <time>2012-10-23T15:45:40Z</time>
      </trkpt>
      <trkpt lat="46.35937" lon="-0.45937">
        <ele>65</ele>
        <time>2012-10-23T15:45:45Z</time>
      </trkpt>
      <trkpt lat="46.35934" lon="-0.45939">
        <ele>59</ele>
        <time>2012-10-23T15:45:50Z</time>
      </trkpt>
      <trkpt lat="46.35931" lon="-0.45942">
        <ele>57</ele>
        <time>2012-10-23T15:45:55Z</time>
      </trkpt>
      <trkpt lat="46.3593" lon="-0.45944">
        <ele>53</ele>
        <time>2012-10-23T15:46:00Z</time>
      </trkpt>
      <trkpt lat="46.35926" lon="-0.45949">
        <ele>53</ele>
        <time>2012-10-23T15:46:05Z</time>
      </trkpt>
      <trkpt lat="46.35923" lon="-0.45951">
        <ele>53</ele>
        <time>2012-10-23T15:46:10Z</time>
      </trkpt>
      <trkpt lat="46.35919" lon="-0.45956">
        <ele>55</ele>
        <time>2012-10-23T15:46:15Z</time>
      </trkpt>
      <trkpt lat="46.35917" lon="-0.45963">
        <ele>54</ele>
        <time>2012-10-23T15:46:20Z</time>
      </trkpt>
      <trkpt lat="46.35913" lon="-0.45969">
        <ele>54</ele>
        <time>2012-10-23T15:46:25Z</time>
      </trkpt>
      <trkpt lat="46.3591" lon="-0.45978">
        <ele>53</ele>
        <time>2012-10-23T15:46:30Z</time>
      </trkpt>
      <trkpt lat="46.35904" lon="-0.45984">
        <ele>57</ele>
        <time>2012-10-23T15:46:35Z</time>
      </trkpt>
      <trkpt lat="46.359" lon="-0.45989">
        <ele>57</ele>
        <time>2012-10-23T15:46:40Z</time>
      </trkpt>
      <trkpt lat="46.35896" lon="-0.45991">
        <ele>55</ele>
        <time>2012-10-23T15:46:45Z</time>
      </trkpt>
      <trkpt lat="46.35893" lon="-0.45994">
        <ele>53</ele>
        <time>2012-10-23T15:46:50Z</time>
      </trkpt>
      <trkpt lat="46.3589" lon="-0.45995">
        <ele>52</ele>
        <time>2012-10-23T15:46:55Z</time>
      </trkpt>
      <trkpt lat="46.35886" lon="-0.45993">
        <ele>51</ele>
        <time>2012-10-23T15:47:00Z</time>
      </trkpt>
      <trkpt lat="46.35883" lon="-0.45995">
        <ele>49</ele>
        <time>2012-10-23T15:47:05Z</time>
      </trkpt>
      <trkpt lat="46.35878" lon="-0.45997">
        <ele>48</ele>
        <time>2012-10-23T15:47:10Z</time>
      </trkpt>
      <trkpt lat="46.35875" lon="-0.45997">
        <ele>47</ele>
        <time>2012-10-23T15:47:15Z</time>
      </trkpt>
      <trkpt lat="46.3587" lon="-0.46005">
        <ele>51</ele>
        <time>2012-10-23T15:47:20Z</time>
      </trkpt>
      <trkpt lat="46.35862" lon="-0.46007">
        <ele>55</ele>
        <time>2012-10-23T15:47:25Z</time>
      </trkpt>
      <trkpt lat="46.35856" lon="-0.46008">
        <ele>57</ele>
        <time>2012-10-23T15:47:30Z</time>
      </trkpt>
      <trkpt lat="46.3585" lon="-0.46007">
        <ele>59</ele>
        <time>2012-10-23T15:47:35Z</time>
      </trkpt>
      <trkpt lat="46.35843" lon="-0.46008">
        <ele>62</ele>
        <time>2012-10-23T15:47:40Z</time>
      </trkpt>
      <trkpt lat="46.35836" lon="-0.4601">
        <ele>64</ele>
        <time>2012-10-23T15:47:45Z</time>
      </trkpt>
      <trkpt lat="46.35829" lon="-0.46009">
        <ele>65</ele>
        <time>2012-10-23T15:47:50Z</time>
      </trkpt>
      <trkpt lat="46.35823" lon="-0.4601">
        <ele>65</ele>
        <time>2012-10-23T15:47:55Z</time>
      </trkpt>
      <trkpt lat="46.35817" lon="-0.4601">
        <ele>68</ele>
        <time>2012-10-23T15:48:00Z</time>
      </trkpt>
      <trkpt lat="46.35815" lon="-0.4601">
        <ele>68</ele>
        <time>2012-10-23T15:48:05Z</time>
      </trkpt>
      <trkpt lat="46.3581" lon="-0.46008">
        <ele>70</ele>
        <time>2012-10-23T15:48:10Z</time>
      </trkpt>
      <trkpt lat="46.35805" lon="-0.46006">
        <ele>71</ele>
        <time>2012-10-23T15:48:15Z</time>
      </trkpt>
      <trkpt lat="46.35799" lon="-0.46004">
        <ele>72</ele>
        <time>2012-10-23T15:48:20Z</time>
      </trkpt>
      <trkpt lat="46.35795" lon="-0.45997">
        <ele>73</ele>
        <time>2012-10-23T15:48:25Z</time>
      </trkpt>
      <trkpt lat="46.35789" lon="-0.45992">
        <ele>74</ele>
        <time>2012-10-23T15:48:30Z</time>
      </trkpt>
      <trkpt lat="46.35785" lon="-0.45991">
        <ele>74</ele>
        <time>2012-10-23T15:48:35Z</time>
      </trkpt>
      <trkpt lat="46.3578" lon="-0.4599">
        <ele>76</ele>
        <time>2012-10-23T15:48:40Z</time>
      </trkpt>
      <trkpt lat="46.35776" lon="-0.45984">
        <ele>78</ele>
        <time>2012-10-23T15:48:45Z</time>
      </trkpt>
      <trkpt lat="46.35772" lon="-0.45979">
        <ele>77</ele>
        <time>2012-10-23T15:48:50Z</time>
      </trkpt>
      <trkpt lat="46.35769" lon="-0.45975">
        <ele>77</ele>
        <time>2012-10-23T15:48:55Z</time>
      </trkpt>
      <trkpt lat="46.35766" lon="-0.45967">
        <ele>76</ele>
        <time>2012-10-23T15:49:00Z</time>
      </trkpt>
      <trkpt lat="46.35763" lon="-0.45963">
        <ele>76</ele>
        <time>2012-10-23T15:49:05Z</time>
      </trkpt>
      <trkpt lat="46.35759" lon="-0.45959">
        <ele>76</ele>
        <time>2012-10-23T15:49:10Z</time>
      </trkpt>
      <trkpt lat="46.35758" lon="-0.45956">
        <ele>75</ele>
        <time>2012-10-23T15:49:15Z</time>
      </trkpt>
      <trkpt lat="46.35758" lon="-0.45957">
        <ele>73</ele>
        <time>2012-10-23T15:49:20Z</time>
      </trkpt>
      <trkpt lat="46.35757" lon="-0.45951">
        <ele>75</ele>
        <time>2012-10-23T15:49:25Z</time>
      </trkpt>
      <trkpt lat="46.35756" lon="-0.45945">
        <ele>75</ele>
        <time>2012-10-23T15:49:30Z</time>
      </trkpt>
      <trkpt lat="46.35755" lon="-0.4594">
        <ele>73</ele>
        <time>2012-10-23T15:49:35Z</time>
      </trkpt>
      <trkpt lat="46.35752" lon="-0.45931">
        <ele>71</ele>
        <time>2012-10-23T15:49:40Z</time>
      </trkpt>
      <trkpt lat="46.35754" lon="-0.45924">
        <ele>67</ele>
        <time>2012-10-23T15:49:45Z</time>
      </trkpt>
      <trkpt lat="46.3575" lon="-0.45916">
        <ele>67</ele>
        <time>2012-10-23T15:49:50Z</time>
      </trkpt>
      <trkpt lat="46.35748" lon="-0.45908">
        <ele>67</ele>
        <time>2012-10-23T15:49:55Z</time>
      </trkpt>
      <trkpt lat="46.35745" lon="-0.45899">
        <ele>70</ele>
        <time>2012-10-23T15:50:00Z</time>
      </trkpt>
      <trkpt lat="46.35744" lon="-0.4589">
        <ele>72</ele>
        <time>2012-10-23T15:50:05Z</time>
      </trkpt>
      <trkpt lat="46.35741" lon="-0.45888">
        <ele>70</ele>
        <time>2012-10-23T15:50:10Z</time>
      </trkpt>
      <trkpt lat="46.35737" lon="-0.4589">
        <ele>64</ele>
        <time>2012-10-23T15:50:15Z</time>
      </trkpt>
      <trkpt lat="46.35735" lon="-0.45881">
        <ele>65</ele>
        <time>2012-10-23T15:50:20Z</time>
      </trkpt>
      <trkpt lat="46.35731" lon="-0.45871">
        <ele>66</ele>
        <time>2012-10-23T15:50:25Z</time>
      </trkpt>
      <trkpt lat="46.3573" lon="-0.45863">
        <ele>69</ele>
        <time>2012-10-23T15:50:30Z</time>
      </trkpt>
      <trkpt lat="46.35728" lon="-0.45853">
        <ele>71</ele>
        <time>2012-10-23T15:50:35Z</time>
      </trkpt>
      <trkpt lat="46.35725" lon="-0.45843">
        <ele>74</ele>
        <time>2012-10-23T15:50:40Z</time>
      </trkpt>
      <trkpt lat="46.35722" lon="-0.45834">
        <ele>76</ele>
        <time>2012-10-23T15:50:45Z</time>
      </trkpt>
      <trkpt lat="46.35719" lon="-0.45824">
        <ele>78</ele>
        <time>2012-10-23T15:50:50Z</time>
      </trkpt>
      <trkpt lat="46.35717" lon="-0.45816">
        <ele>79</ele>
        <time>2012-10-23T15:50:55Z</time>
      </trkpt>
      <trkpt lat="46.35715" lon="-0.45808">
        <ele>79</ele>
        <time>2012-10-23T15:51:00Z</time>
      </trkpt>
      <trkpt lat="46.35715" lon="-0.45802">
        <ele>79</ele>
        <time>2012-10-23T15:51:05Z</time>
      </trkpt>
      <trkpt lat="46.35712" lon="-0.45797">
        <ele>80</ele>
        <time>2012-10-23T15:51:10Z</time>
      </trkpt>
      <trkpt lat="46.35713" lon="-0.45799">
        <ele>80</ele>
        <time>2012-10-23T15:51:15Z</time>
      </trkpt>
      <trkpt lat="46.35714" lon="-0.45798">
        <ele>80</ele>
        <time>2012-10-23T15:51:20Z</time>
      </trkpt>
      <trkpt lat="46.35714" lon="-0.45797">
        <ele>80</ele>
        <time>2012-10-23T15:51:25Z</time>
      </trkpt>
      <trkpt lat="46.35714" lon="-0.45796">
        <ele>79</ele>
        <time>2012-10-23T15:51:30Z</time>
      </trkpt>
      <trkpt lat="46.35713" lon="-0.45795">
        <ele>79</ele>
        <time>2012-10-23T15:51:45Z</time>
      </trkpt>
      <trkpt lat="46.35712" lon="-0.45794">
        <ele>78</ele>
        <time>2012-10-23T15:51:50Z</time>
      </trkpt>
      <trkpt lat="46.35707" lon="-0.45789">
        <ele>78</ele>
        <time>2012-10-23T15:51:55Z</time>
      </trkpt>
      <trkpt lat="46.35704" lon="-0.45789">
        <ele>79</ele>
        <time>2012-10-23T15:52:00Z</time>
      </trkpt>
      <trkpt lat="46.35699" lon="-0.45786">
        <ele>78</ele>
        <time>2012-10-23T15:52:05Z</time>
      </trkpt>
      <trkpt lat="46.35695" lon="-0.45793">
        <ele>78</ele>
        <time>2012-10-23T15:52:10Z</time>
      </trkpt>
      <trkpt lat="46.3569" lon="-0.45796">
        <ele>79</ele>
        <time>2012-10-23T15:52:15Z</time>
      </trkpt>
      <trkpt lat="46.35685" lon="-0.45798">
        <ele>78</ele>
        <time>2012-10-23T15:52:20Z</time>
      </trkpt>
      <trkpt lat="46.3568" lon="-0.45799">
        <ele>77</ele>
        <time>2012-10-23T15:52:25Z</time>
      </trkpt>
      <trkpt lat="46.35672" lon="-0.458">
        <ele>77</ele>
        <time>2012-10-23T15:52:30Z</time>
      </trkpt>
      <trkpt lat="46.35667" lon="-0.45794">
        <ele>76</ele>
        <time>2012-10-23T15:52:35Z</time>
      </trkpt>
      <trkpt lat="46.35666" lon="-0.45787">
        <ele>77</ele>
        <time>2012-10-23T15:52:40Z</time>
      </trkpt>
      <trkpt lat="46.35663" lon="-0.45778">
        <ele>77</ele>
        <time>2012-10-23T15:52:45Z</time>
      </trkpt>
      <trkpt lat="46.3566" lon="-0.45774">
        <ele>78</ele>
        <time>2012-10-23T15:52:50Z</time>
      </trkpt>
      <trkpt lat="46.35654" lon="-0.4577">
        <ele>76</ele>
        <time>2012-10-23T15:52:55Z</time>
      </trkpt>
      <trkpt lat="46.35651" lon="-0.45761">
        <ele>76</ele>
        <time>2012-10-23T15:53:00Z</time>
      </trkpt>
      <trkpt lat="46.35648" lon="-0.45753">
        <ele>76</ele>
        <time>2012-10-23T15:53:05Z</time>
      </trkpt>
      <trkpt lat="46.35645" lon="-0.45745">
        <ele>78</ele>
        <time>2012-10-23T15:53:10Z</time>
      </trkpt>
      <trkpt lat="46.3564" lon="-0.45739">
        <ele>78</ele>
        <time>2012-10-23T15:53:15Z</time>
      </trkpt>
      <trkpt lat="46.35639" lon="-0.45732">
        <ele>80</ele>
        <time>2012-10-23T15:53:20Z</time>
      </trkpt>
      <trkpt lat="46.35636" lon="-0.45727">
        <ele>80</ele>
        <time>2012-10-23T15:53:25Z</time>
      </trkpt>
      <trkpt lat="46.35631" lon="-0.4572">
        <ele>79</ele>
        <time>2012-10-23T15:53:30Z</time>
      </trkpt>
      <trkpt lat="46.35627" lon="-0.45715">
        <ele>81</ele>
        <time>2012-10-23T15:53:35Z</time>
      </trkpt>
      <trkpt lat="46.35624" lon="-0.45708">
        <ele>80</ele>
        <time>2012-10-23T15:53:40Z</time>
      </trkpt>
      <trkpt lat="46.35622" lon="-0.45704">
        <ele>80</ele>
        <time>2012-10-23T15:53:45Z</time>
      </trkpt>
      <trkpt lat="46.35618" lon="-0.45696">
        <ele>82</ele>
        <time>2012-10-23T15:53:50Z</time>
      </trkpt>
      <trkpt lat="46.35614" lon="-0.45691">
        <ele>82</ele>
        <time>2012-10-23T15:53:55Z</time>
      </trkpt>
      <trkpt lat="46.35609" lon="-0.45683">
        <ele>81</ele>
        <time>2012-10-23T15:54:00Z</time>
      </trkpt>
      <trkpt lat="46.35606" lon="-0.45676">
        <ele>82</ele>
        <time>2012-10-23T15:54:05Z</time>
      </trkpt>
      <trkpt lat="46.35602" lon="-0.45671">
        <ele>78</ele>
        <time>2012-10-23T15:54:10Z</time>
      </trkpt>
      <trkpt lat="46.356" lon="-0.45665">
        <ele>77</ele>
        <time>2012-10-23T15:54:15Z</time>
      </trkpt>
      <trkpt lat="46.35594" lon="-0.45659">
        <ele>77</ele>
        <time>2012-10-23T15:54:20Z</time>
      </trkpt>
      <trkpt lat="46.35588" lon="-0.45656">
        <ele>78</ele>
        <time>2012-10-23T15:54:25Z</time>
      </trkpt>
      <trkpt lat="46.35583" lon="-0.45648">
        <ele>77</ele>
        <time>2012-10-23T15:54:30Z</time>
      </trkpt>
      <trkpt lat="46.3558" lon="-0.45645">
        <ele>77</ele>
        <time>2012-10-23T15:54:35Z</time>
      </trkpt>
      <trkpt lat="46.35575" lon="-0.45633">
        <ele>75</ele>
        <time>2012-10-23T15:54:40Z</time>
      </trkpt>
      <trkpt lat="46.35572" lon="-0.45632">
        <ele>74</ele>
        <time>2012-10-23T15:54:45Z</time>
      </trkpt>
      <trkpt lat="46.35566" lon="-0.45631">
        <ele>74</ele>
        <time>2012-10-23T15:54:50Z</time>
      </trkpt>
      <trkpt lat="46.3556" lon="-0.45635">
        <ele>75</ele>
        <time>2012-10-23T15:54:55Z</time>
      </trkpt>
      <trkpt lat="46.35555" lon="-0.45637">
        <ele>71</ele>
        <time>2012-10-23T15:55:00Z</time>
      </trkpt>
      <trkpt lat="46.3555" lon="-0.45645">
        <ele>72</ele>
        <time>2012-10-23T15:55:05Z</time>
      </trkpt>
      <trkpt lat="46.35549" lon="-0.45657">
        <ele>73</ele>
        <time>2012-10-23T15:55:10Z</time>
      </trkpt>
      <trkpt lat="46.35544" lon="-0.45666">
        <ele>74</ele>
        <time>2012-10-23T15:55:15Z</time>
      </trkpt>
      <trkpt lat="46.35541" lon="-0.45674">
        <ele>74</ele>
        <time>2012-10-23T15:55:20Z</time>
      </trkpt>
      <trkpt lat="46.35536" lon="-0.45678">
        <ele>78</ele>
        <time>2012-10-23T15:55:25Z</time>
      </trkpt>
      <trkpt lat="46.35533" lon="-0.45682">
        <ele>75</ele>
        <time>2012-10-23T15:55:30Z</time>
      </trkpt>
      <trkpt lat="46.35527" lon="-0.45688">
        <ele>76</ele>
        <time>2012-10-23T15:55:35Z</time>
      </trkpt>
      <trkpt lat="46.35523" lon="-0.45693">
        <ele>74</ele>
        <time>2012-10-23T15:55:40Z</time>
      </trkpt>
      <trkpt lat="46.35519" lon="-0.45697">
        <ele>73</ele>
        <time>2012-10-23T15:55:45Z</time>
      </trkpt>
      <trkpt lat="46.35513" lon="-0.45706">
        <ele>75</ele>
        <time>2012-10-23T15:55:50Z</time>
      </trkpt>
      <trkpt lat="46.35514" lon="-0.45708">
        <ele>72</ele>
        <time>2012-10-23T15:55:55Z</time>
      </trkpt>
      <trkpt lat="46.35513" lon="-0.45713">
        <ele>71</ele>
        <time>2012-10-23T15:56:00Z</time>
      </trkpt>
      <trkpt lat="46.35506" lon="-0.45717">
        <ele>71</ele>
        <time>2012-10-23T15:56:05Z</time>
      </trkpt>
      <trkpt lat="46.35501" lon="-0.45724">
        <ele>71</ele>
        <time>2012-10-23T15:56:10Z</time>
      </trkpt>
      <trkpt lat="46.35498" lon="-0.45729">
        <ele>70</ele>
        <time>2012-10-23T15:56:15Z</time>
      </trkpt>
      <trkpt lat="46.35495" lon="-0.45735">
        <ele>70</ele>
        <time>2012-10-23T15:56:20Z</time>
      </trkpt>
      <trkpt lat="46.35487" lon="-0.45738">
        <ele>68</ele>
        <time>2012-10-23T15:56:25Z</time>
      </trkpt>
      <trkpt lat="46.35487" lon="-0.45753">
        <ele>70</ele>
        <time>2012-10-23T15:56:30Z</time>
      </trkpt>
      <trkpt lat="46.35483" lon="-0.45756">
        <ele>70</ele>
        <time>2012-10-23T15:56:35Z</time>
      </trkpt>
      <trkpt lat="46.35481" lon="-0.45755">
        <ele>69</ele>
        <time>2012-10-23T15:56:40Z</time>
      </trkpt>
      <trkpt lat="46.35481" lon="-0.45757">
        <ele>69</ele>
        <time>2012-10-23T15:56:45Z</time>
      </trkpt>
      <trkpt lat="46.35481" lon="-0.45758">
        <ele>69</ele>
        <time>2012-10-23T15:56:50Z</time>
      </trkpt>
      <trkpt lat="46.35481" lon="-0.45759">
        <ele>68</ele>
        <time>2012-10-23T15:56:55Z</time>
      </trkpt>
      <trkpt lat="46.35481" lon="-0.45758">
        <ele>69</ele>
        <time>2012-10-23T15:57:05Z</time>
      </trkpt>
      <trkpt lat="46.35481" lon="-0.45757">
        <ele>69</ele>
        <time>2012-10-23T15:57:10Z</time>
      </trkpt>
      <trkpt lat="46.3548" lon="-0.45757">
        <ele>70</ele>
        <time>2012-10-23T15:57:15Z</time>
      </trkpt>
      <trkpt lat="46.3548" lon="-0.45756">
        <ele>70</ele>
        <time>2012-10-23T15:57:50Z</time>
      </trkpt>
      <trkpt lat="46.35479" lon="-0.45756">
        <ele>69</ele>
        <time>2012-10-23T15:57:55Z</time>
      </trkpt>
      <trkpt lat="46.35477" lon="-0.45755">
        <ele>71</ele>
        <time>2012-10-23T15:58:05Z</time>
      </trkpt>
      <trkpt lat="46.35478" lon="-0.45756">
        <ele>71</ele>
        <time>2012-10-23T15:58:10Z</time>
      </trkpt>
      <trkpt lat="46.35477" lon="-0.45756">
        <ele>71</ele>
        <time>2012-10-23T15:59:00Z</time>
      </trkpt>
      <trkpt lat="46.35477" lon="-0.45756">
        <ele>71</ele>
        <time>2012-10-23T15:59:05Z</time>
      </trkpt>
      <trkpt lat="46.35475" lon="-0.45756">
        <ele>71</ele>
        <time>2012-10-23T15:59:10Z</time>
      </trkpt>
      <trkpt lat="46.35471" lon="-0.45758">
        <ele>72</ele>
        <time>2012-10-23T15:59:15Z</time>
      </trkpt>
      <trkpt lat="46.3547" lon="-0.4576">
        <ele>71</ele>
        <time>2012-10-23T15:59:20Z</time>
      </trkpt>
      <trkpt lat="46.35471" lon="-0.4576">
        <ele>71</ele>
        <time>2012-10-23T15:59:25Z</time>
      </trkpt>
      <trkpt lat="46.3547" lon="-0.45758">
        <ele>70</ele>
        <time>2012-10-23T15:59:30Z</time>
      </trkpt>
      <trkpt lat="46.35468" lon="-0.45758">
        <ele>69</ele>
        <time>2012-10-23T15:59:35Z</time>
      </trkpt>
      <trkpt lat="46.35469" lon="-0.45757">
        <ele>69</ele>
        <time>2012-10-23T15:59:40Z</time>
      </trkpt>
      <trkpt lat="46.35466" lon="-0.45752">
        <ele>69</ele>
        <time>2012-10-23T15:59:45Z</time>
      </trkpt>
      <trkpt lat="46.35464" lon="-0.45752">
        <ele>69</ele>
        <time>2012-10-23T15:59:50Z</time>
      </trkpt>
      <trkpt lat="46.35463" lon="-0.4575">
        <ele>68</ele>
        <time>2012-10-23T15:59:55Z</time>
      </trkpt>
      <trkpt lat="46.35457" lon="-0.45745">
        <ele>67</ele>
        <time>2012-10-23T16:00:00Z</time>
      </trkpt>
      <trkpt lat="46.3545" lon="-0.45738">
        <ele>67</ele>
        <time>2012-10-23T16:00:05Z</time>
      </trkpt>
      <trkpt lat="46.35445" lon="-0.45732">
        <ele>69</ele>
        <time>2012-10-23T16:00:10Z</time>
      </trkpt>
      <trkpt lat="46.35442" lon="-0.45728">
        <ele>69</ele>
        <time>2012-10-23T16:00:15Z</time>
      </trkpt>
      <trkpt lat="46.35438" lon="-0.45725">
        <ele>69</ele>
        <time>2012-10-23T16:00:20Z</time>
      </trkpt>
      <trkpt lat="46.35432" lon="-0.45719">
        <ele>70</ele>
        <time>2012-10-23T16:00:25Z</time>
      </trkpt>
      <trkpt lat="46.35426" lon="-0.45716">
        <ele>71</ele>
        <time>2012-10-23T16:00:30Z</time>
      </trkpt>
      <trkpt lat="46.35419" lon="-0.45711">
        <ele>73</ele>
        <time>2012-10-23T16:00:35Z</time>
      </trkpt>
      <trkpt lat="46.35411" lon="-0.45708">
        <ele>73</ele>
        <time>2012-10-23T16:00:40Z</time>
      </trkpt>
      <trkpt lat="46.35403" lon="-0.45705">
        <ele>73</ele>
        <time>2012-10-23T16:00:45Z</time>
      </trkpt>
      <trkpt lat="46.35398" lon="-0.45711">
        <ele>72</ele>
        <time>2012-10-23T16:00:50Z</time>
      </trkpt>
      <trkpt lat="46.35394" lon="-0.45713">
        <ele>70</ele>
        <time>2012-10-23T16:00:55Z</time>
      </trkpt>
      <trkpt lat="46.35391" lon="-0.45719">
        <ele>70</ele>
        <time>2012-10-23T16:01:00Z</time>
      </trkpt>
      <trkpt lat="46.35386" lon="-0.45725">
        <ele>72</ele>
        <time>2012-10-23T16:01:05Z</time>
      </trkpt>
      <trkpt lat="46.35382" lon="-0.45731">
        <ele>73</ele>
        <time>2012-10-23T16:01:10Z</time>
      </trkpt>
      <trkpt lat="46.35378" lon="-0.45736">
        <ele>73</ele>
        <time>2012-10-23T16:01:15Z</time>
      </trkpt>
      <trkpt lat="46.35373" lon="-0.45742">
        <ele>72</ele>
        <time>2012-10-23T16:01:20Z</time>
      </trkpt>
      <trkpt lat="46.35368" lon="-0.45748">
        <ele>73</ele>
        <time>2012-10-23T16:01:25Z</time>
      </trkpt>
      <trkpt lat="46.35364" lon="-0.45753">
        <ele>73</ele>
        <time>2012-10-23T16:01:30Z</time>
      </trkpt>
      <trkpt lat="46.35359" lon="-0.45758">
        <ele>76</ele>
        <time>2012-10-23T16:01:35Z</time>
      </trkpt>
      <trkpt lat="46.35355" lon="-0.45763">
        <ele>76</ele>
        <time>2012-10-23T16:01:40Z</time>
      </trkpt>
      <trkpt lat="46.35351" lon="-0.45767">
        <ele>76</ele>
        <time>2012-10-23T16:01:45Z</time>
      </trkpt>
      <trkpt lat="46.35346" lon="-0.45773">
        <ele>76</ele>
        <time>2012-10-23T16:01:50Z</time>
      </trkpt>
      <trkpt lat="46.35343" lon="-0.45778">
        <ele>76</ele>
        <time>2012-10-23T16:01:55Z</time>
      </trkpt>
      <trkpt lat="46.3534" lon="-0.45783">
        <ele>74</ele>
        <time>2012-10-23T16:02:00Z</time>
      </trkpt>
      <trkpt lat="46.35336" lon="-0.45788">
        <ele>73</ele>
        <time>2012-10-23T16:02:05Z</time>
      </trkpt>
      <trkpt lat="46.35332" lon="-0.45794">
        <ele>74</ele>
        <time>2012-10-23T16:02:10Z</time>
      </trkpt>
      <trkpt lat="46.35327" lon="-0.458">
        <ele>74</ele>
        <time>2012-10-23T16:02:15Z</time>
      </trkpt>
      <trkpt lat="46.35323" lon="-0.45804">
        <ele>74</ele>
        <time>2012-10-23T16:02:20Z</time>
      </trkpt>
      <trkpt lat="46.35319" lon="-0.4581">
        <ele>74</ele>
        <time>2012-10-23T16:02:25Z</time>
      </trkpt>
      <trkpt lat="46.35315" lon="-0.45816">
        <ele>73</ele>
        <time>2012-10-23T16:02:30Z</time>
      </trkpt>
      <trkpt lat="46.35309" lon="-0.45824">
        <ele>75</ele>
        <time>2012-10-23T16:02:35Z</time>
      </trkpt>
      <trkpt lat="46.35304" lon="-0.45831">
        <ele>76</ele>
        <time>2012-10-23T16:02:40Z</time>
      </trkpt>
      <trkpt lat="46.353" lon="-0.45837">
        <ele>76</ele>
        <time>2012-10-23T16:02:45Z</time>
      </trkpt>
      <trkpt lat="46.35294" lon="-0.45845">
        <ele>76</ele>
        <time>2012-10-23T16:02:50Z</time>
      </trkpt>
      <trkpt lat="46.35292" lon="-0.45848">
        <ele>74</ele>
        <time>2012-10-23T16:02:55Z</time>
      </trkpt>
      <trkpt lat="46.3529" lon="-0.45852">
        <ele>73</ele>
        <time>2012-10-23T16:03:00Z</time>
      </trkpt>
      <trkpt lat="46.35286" lon="-0.45859">
        <ele>73</ele>
        <time>2012-10-23T16:03:05Z</time>
      </trkpt>
      <trkpt lat="46.35281" lon="-0.45866">
        <ele>74</ele>
        <time>2012-10-23T16:03:10Z</time>
      </trkpt>
      <trkpt lat="46.35276" lon="-0.45873">
        <ele>74</ele>
        <time>2012-10-23T16:03:15Z</time>
      </trkpt>
      <trkpt lat="46.35272" lon="-0.4588">
        <ele>74</ele>
        <time>2012-10-23T16:03:20Z</time>
      </trkpt>
      <trkpt lat="46.35269" lon="-0.45886">
        <ele>75</ele>
        <time>2012-10-23T16:03:25Z</time>
      </trkpt>
      <trkpt lat="46.35269" lon="-0.45887">
        <ele>74</ele>
        <time>2012-10-23T16:03:30Z</time>
      </trkpt>
      <trkpt lat="46.35265" lon="-0.45892">
        <ele>74</ele>
        <time>2012-10-23T16:03:35Z</time>
      </trkpt>
      <trkpt lat="46.35262" lon="-0.45899">
        <ele>75</ele>
        <time>2012-10-23T16:03:40Z</time>
      </trkpt>
      <trkpt lat="46.35257" lon="-0.45905">
        <ele>76</ele>
        <time>2012-10-23T16:03:45Z</time>
      </trkpt>
      <trkpt lat="46.35253" lon="-0.45912">
        <ele>76</ele>
        <time>2012-10-23T16:03:50Z</time>
      </trkpt>
      <trkpt lat="46.35249" lon="-0.45922">
        <ele>78</ele>
        <time>2012-10-23T16:03:55Z</time>
      </trkpt>
      <trkpt lat="46.35245" lon="-0.4593">
        <ele>78</ele>
        <time>2012-10-23T16:04:00Z</time>
      </trkpt>
      <trkpt lat="46.35242" lon="-0.45936">
        <ele>77</ele>
        <time>2012-10-23T16:04:05Z</time>
      </trkpt>
      <trkpt lat="46.35239" lon="-0.45942">
        <ele>76</ele>
        <time>2012-10-23T16:04:10Z</time>
      </trkpt>
      <trkpt lat="46.35234" lon="-0.45948">
        <ele>77</ele>
        <time>2012-10-23T16:04:15Z</time>
      </trkpt>
      <trkpt lat="46.35231" lon="-0.45954">
        <ele>78</ele>
        <time>2012-10-23T16:04:20Z</time>
      </trkpt>
      <trkpt lat="46.35228" lon="-0.45962">
        <ele>78</ele>
        <time>2012-10-23T16:04:25Z</time>
      </trkpt>
      <trkpt lat="46.35226" lon="-0.45969">
        <ele>76</ele>
        <time>2012-10-23T16:04:30Z</time>
      </trkpt>
      <trkpt lat="46.35224" lon="-0.45978">
        <ele>74</ele>
        <time>2012-10-23T16:04:35Z</time>
      </trkpt>
      <trkpt lat="46.3522" lon="-0.45984">
        <ele>75</ele>
        <time>2012-10-23T16:04:40Z</time>
      </trkpt>
      <trkpt lat="46.35219" lon="-0.45992">
        <ele>74</ele>
        <time>2012-10-23T16:04:45Z</time>
      </trkpt>
      <trkpt lat="46.35218" lon="-0.45999">
        <ele>73</ele>
        <time>2012-10-23T16:04:50Z</time>
      </trkpt>
      <trkpt lat="46.35216" lon="-0.46006">
        <ele>74</ele>
        <time>2012-10-23T16:04:55Z</time>
      </trkpt>
      <trkpt lat="46.35214" lon="-0.46015">
        <ele>75</ele>
        <time>2012-10-23T16:05:00Z</time>
      </trkpt>
      <trkpt lat="46.35212" lon="-0.46023">
        <ele>74</ele>
        <time>2012-10-23T16:05:05Z</time>
      </trkpt>
      <trkpt lat="46.3521" lon="-0.4603">
        <ele>74</ele>
        <time>2012-10-23T16:05:10Z</time>
      </trkpt>
      <trkpt lat="46.35206" lon="-0.4604">
        <ele>78</ele>
        <time>2012-10-23T16:05:15Z</time>
      </trkpt>
      <trkpt lat="46.35204" lon="-0.46047">
        <ele>80</ele>
        <time>2012-10-23T16:05:20Z</time>
      </trkpt>
      <trkpt lat="46.35202" lon="-0.46055">
        <ele>80</ele>
        <time>2012-10-23T16:05:25Z</time>
      </trkpt>
      <trkpt lat="46.35199" lon="-0.46063">
        <ele>80</ele>
        <time>2012-10-23T16:05:30Z</time>
      </trkpt>
      <trkpt lat="46.35196" lon="-0.46071">
        <ele>80</ele>
        <time>2012-10-23T16:05:35Z</time>
      </trkpt>
      <trkpt lat="46.35192" lon="-0.46078">
        <ele>81</ele>
        <time>2012-10-23T16:05:40Z</time>
      </trkpt>
      <trkpt lat="46.35188" lon="-0.46087">
        <ele>81</ele>
        <time>2012-10-23T16:05:45Z</time>
      </trkpt>
      <trkpt lat="46.35184" lon="-0.46094">
        <ele>80</ele>
        <time>2012-10-23T16:05:50Z</time>
      </trkpt>
      <trkpt lat="46.35181" lon="-0.461">
        <ele>81</ele>
        <time>2012-10-23T16:05:55Z</time>
      </trkpt>
      <trkpt lat="46.35179" lon="-0.46106">
        <ele>83</ele>
        <time>2012-10-23T16:06:00Z</time>
      </trkpt>
      <trkpt lat="46.35176" lon="-0.4611">
        <ele>82</ele>
        <time>2012-10-23T16:06:05Z</time>
      </trkpt>
      <trkpt lat="46.35174" lon="-0.46118">
        <ele>83</ele>
        <time>2012-10-23T16:06:10Z</time>
      </trkpt>
      <trkpt lat="46.35172" lon="-0.46124">
        <ele>84</ele>
        <time>2012-10-23T16:06:15Z</time>
      </trkpt>
      <trkpt lat="46.35171" lon="-0.46132">
        <ele>83</ele>
        <time>2012-10-23T16:06:20Z</time>
      </trkpt>
      <trkpt lat="46.3517" lon="-0.4614">
        <ele>85</ele>
        <time>2012-10-23T16:06:25Z</time>
      </trkpt>
      <trkpt lat="46.35171" lon="-0.46147">
        <ele>86</ele>
        <time>2012-10-23T16:06:30Z</time>
      </trkpt>
      <trkpt lat="46.35171" lon="-0.46153">
        <ele>88</ele>
        <time>2012-10-23T16:06:35Z</time>
      </trkpt>
      <trkpt lat="46.35173" lon="-0.46161">
        <ele>88</ele>
        <time>2012-10-23T16:06:40Z</time>
      </trkpt>
      <trkpt lat="46.35174" lon="-0.4617">
        <ele>91</ele>
        <time>2012-10-23T16:06:45Z</time>
      </trkpt>
      <trkpt lat="46.35179" lon="-0.46178">
        <ele>90</ele>
        <time>2012-10-23T16:06:50Z</time>
      </trkpt>
      <trkpt lat="46.35184" lon="-0.46182">
        <ele>87</ele>
        <time>2012-10-23T16:06:55Z</time>
      </trkpt>
      <trkpt lat="46.35187" lon="-0.46188">
        <ele>85</ele>
        <time>2012-10-23T16:07:00Z</time>
      </trkpt>
      <trkpt lat="46.35191" lon="-0.46195">
        <ele>86</ele>
        <time>2012-10-23T16:07:05Z</time>
      </trkpt>
      <trkpt lat="46.35194" lon="-0.46203">
        <ele>86</ele>
        <time>2012-10-23T16:07:10Z</time>
      </trkpt>
      <trkpt lat="46.35198" lon="-0.46207">
        <ele>86</ele>
        <time>2012-10-23T16:07:15Z</time>
      </trkpt>
      <trkpt lat="46.35199" lon="-0.46214">
        <ele>86</ele>
        <time>2012-10-23T16:07:20Z</time>
      </trkpt>
      <trkpt lat="46.35201" lon="-0.46223">
        <ele>88</ele>
        <time>2012-10-23T16:07:25Z</time>
      </trkpt>
      <trkpt lat="46.35206" lon="-0.46225">
        <ele>85</ele>
        <time>2012-10-23T16:07:30Z</time>
      </trkpt>
      <trkpt lat="46.3521" lon="-0.4623">
        <ele>85</ele>
        <time>2012-10-23T16:07:35Z</time>
      </trkpt>
      <trkpt lat="46.35213" lon="-0.46238">
        <ele>84</ele>
        <time>2012-10-23T16:07:40Z</time>
      </trkpt>
      <trkpt lat="46.35214" lon="-0.46245">
        <ele>87</ele>
        <time>2012-10-23T16:07:45Z</time>
      </trkpt>
      <trkpt lat="46.35218" lon="-0.46253">
        <ele>87</ele>
        <time>2012-10-23T16:07:50Z</time>
      </trkpt>
      <trkpt lat="46.35224" lon="-0.46256">
        <ele>87</ele>
        <time>2012-10-23T16:07:55Z</time>
      </trkpt>
      <trkpt lat="46.35226" lon="-0.46263">
        <ele>87</ele>
        <time>2012-10-23T16:08:00Z</time>
      </trkpt>
      <trkpt lat="46.35228" lon="-0.46273">
        <ele>86</ele>
        <time>2012-10-23T16:08:05Z</time>
      </trkpt>
      <trkpt lat="46.35229" lon="-0.4628">
        <ele>84</ele>
        <time>2012-10-23T16:08:10Z</time>
      </trkpt>
      <trkpt lat="46.35232" lon="-0.46288">
        <ele>82</ele>
        <time>2012-10-23T16:08:15Z</time>
      </trkpt>
      <trkpt lat="46.35236" lon="-0.46294">
        <ele>83</ele>
        <time>2012-10-23T16:08:20Z</time>
      </trkpt>
      <trkpt lat="46.35238" lon="-0.46299">
        <ele>84</ele>
        <time>2012-10-23T16:08:25Z</time>
      </trkpt>
      <trkpt lat="46.35239" lon="-0.46306">
        <ele>82</ele>
        <time>2012-10-23T16:08:30Z</time>
      </trkpt>
      <trkpt lat="46.35241" lon="-0.46312">
        <ele>82</ele>
        <time>2012-10-23T16:08:35Z</time>
      </trkpt>
      <trkpt lat="46.35241" lon="-0.46317">
        <ele>76</ele>
        <time>2012-10-23T16:08:40Z</time>
      </trkpt>
      <trkpt lat="46.3524" lon="-0.46327">
        <ele>78</ele>
        <time>2012-10-23T16:08:45Z</time>
      </trkpt>
      <trkpt lat="46.35241" lon="-0.46335">
        <ele>77</ele>
        <time>2012-10-23T16:08:50Z</time>
      </trkpt>
      <trkpt lat="46.3524" lon="-0.46343">
        <ele>78</ele>
        <time>2012-10-23T16:08:55Z</time>
      </trkpt>
      <trkpt lat="46.3524" lon="-0.4635">
        <ele>82</ele>
        <time>2012-10-23T16:09:00Z</time>
      </trkpt>
      <trkpt lat="46.3524" lon="-0.46355">
        <ele>82</ele>
        <time>2012-10-23T16:09:05Z</time>
      </trkpt>
      <trkpt lat="46.35237" lon="-0.46362">
        <ele>85</ele>
        <time>2012-10-23T16:09:10Z</time>
      </trkpt>
      <trkpt lat="46.35236" lon="-0.46369">
        <ele>86</ele>
        <time>2012-10-23T16:09:15Z</time>
      </trkpt>
      <trkpt lat="46.35234" lon="-0.46379">
        <ele>88</ele>
        <time>2012-10-23T16:09:20Z</time>
      </trkpt>
      <trkpt lat="46.35232" lon="-0.46387">
        <ele>87</ele>
        <time>2012-10-23T16:09:25Z</time>
      </trkpt>
      <trkpt lat="46.35228" lon="-0.46395">
        <ele>90</ele>
        <time>2012-10-23T16:09:30Z</time>
      </trkpt>
      <trkpt lat="46.35226" lon="-0.46402">
        <ele>94</ele>
        <time>2012-10-23T16:09:35Z</time>
      </trkpt>
      <trkpt lat="46.35225" lon="-0.4641">
        <ele>94</ele>
        <time>2012-10-23T16:09:40Z</time>
      </trkpt>
      <trkpt lat="46.35222" lon="-0.46419">
        <ele>95</ele>
        <time>2012-10-23T16:09:45Z</time>
      </trkpt>
      <trkpt lat="46.35221" lon="-0.46427">
        <ele>95</ele>
        <time>2012-10-23T16:09:50Z</time>
      </trkpt>
      <trkpt lat="46.35219" lon="-0.46433">
        <ele>97</ele>
        <time>2012-10-23T16:09:55Z</time>
      </trkpt>
      <trkpt lat="46.35218" lon="-0.46438">
        <ele>96</ele>
        <time>2012-10-23T16:10:00Z</time>
      </trkpt>
      <trkpt lat="46.35217" lon="-0.46446">
        <ele>96</ele>
        <time>2012-10-23T16:10:05Z</time>
      </trkpt>
      <trkpt lat="46.35214" lon="-0.46454">
        <ele>95</ele>
        <time>2012-10-23T16:10:10Z</time>
      </trkpt>
      <trkpt lat="46.35213" lon="-0.46463">
        <ele>95</ele>
        <time>2012-10-23T16:10:15Z</time>
      </trkpt>
      <trkpt lat="46.35212" lon="-0.46471">
        <ele>95</ele>
        <time>2012-10-23T16:10:20Z</time>
      </trkpt>
      <trkpt lat="46.35211" lon="-0.4648">
        <ele>95</ele>
        <time>2012-10-23T16:10:25Z</time>
      </trkpt>
      <trkpt lat="46.35209" lon="-0.46486">
        <ele>95</ele>
        <time>2012-10-23T16:10:30Z</time>
      </trkpt>
      <trkpt lat="46.35207" lon="-0.46492">
        <ele>94</ele>
        <time>2012-10-23T16:10:35Z</time>
      </trkpt>
      <trkpt lat="46.35205" lon="-0.46497">
        <ele>92</ele>
        <time>2012-10-23T16:10:40Z</time>
      </trkpt>
      <trkpt lat="46.352" lon="-0.46503">
        <ele>92</ele>
        <time>2012-10-23T16:10:45Z</time>
      </trkpt>
      <trkpt lat="46.35196" lon="-0.46506">
        <ele>93</ele>
        <time>2012-10-23T16:10:50Z</time>
      </trkpt>
      <trkpt lat="46.35191" lon="-0.46511">
        <ele>95</ele>
        <time>2012-10-23T16:10:55Z</time>
      </trkpt>
      <trkpt lat="46.35187" lon="-0.46516">
        <ele>94</ele>
        <time>2012-10-23T16:11:00Z</time>
      </trkpt>
      <trkpt lat="46.35182" lon="-0.46519">
        <ele>93</ele>
        <time>2012-10-23T16:11:05Z</time>
      </trkpt>
      <trkpt lat="46.35179" lon="-0.46523">
        <ele>92</ele>
        <time>2012-10-23T16:11:10Z</time>
      </trkpt>
      <trkpt lat="46.35173" lon="-0.46526">
        <ele>90</ele>
        <time>2012-10-23T16:11:15Z</time>
      </trkpt>
      <trkpt lat="46.35168" lon="-0.4653">
        <ele>90</ele>
        <time>2012-10-23T16:11:20Z</time>
      </trkpt>
      <trkpt lat="46.35163" lon="-0.46534">
        <ele>88</ele>
        <time>2012-10-23T16:11:25Z</time>
      </trkpt>
      <trkpt lat="46.35159" lon="-0.46538">
        <ele>88</ele>
        <time>2012-10-23T16:11:30Z</time>
      </trkpt>
      <trkpt lat="46.35153" lon="-0.46541">
        <ele>88</ele>
        <time>2012-10-23T16:11:35Z</time>
      </trkpt>
      <trkpt lat="46.35147" lon="-0.46545">
        <ele>88</ele>
        <time>2012-10-23T16:11:40Z</time>
      </trkpt>
      <trkpt lat="46.35143" lon="-0.4655">
        <ele>88</ele>
        <time>2012-10-23T16:11:45Z</time>
      </trkpt>
      <trkpt lat="46.35139" lon="-0.46555">
        <ele>87</ele>
        <time>2012-10-23T16:11:50Z</time>
      </trkpt>
      <trkpt lat="46.35134" lon="-0.4656">
        <ele>86</ele>
        <time>2012-10-23T16:11:55Z</time>
      </trkpt>
      <trkpt lat="46.3513" lon="-0.46566">
        <ele>85</ele>
        <time>2012-10-23T16:12:00Z</time>
      </trkpt>
      <trkpt lat="46.35127" lon="-0.4657">
        <ele>82</ele>
        <time>2012-10-23T16:12:05Z</time>
      </trkpt>
      <trkpt lat="46.35121" lon="-0.46575">
        <ele>83</ele>
        <time>2012-10-23T16:12:10Z</time>
      </trkpt>
      <trkpt lat="46.35117" lon="-0.4658">
        <ele>84</ele>
        <time>2012-10-23T16:12:15Z</time>
      </trkpt>
      <trkpt lat="46.35115" lon="-0.46584">
        <ele>84</ele>
        <time>2012-10-23T16:12:20Z</time>
      </trkpt>
      <trkpt lat="46.3511" lon="-0.46588">
        <ele>85</ele>
        <time>2012-10-23T16:12:25Z</time>
      </trkpt>
      <trkpt lat="46.35104" lon="-0.46593">
        <ele>85</ele>
        <time>2012-10-23T16:12:30Z</time>
      </trkpt>
      <trkpt lat="46.351" lon="-0.46596">
        <ele>86</ele>
        <time>2012-10-23T16:12:35Z</time>
      </trkpt>
      <trkpt lat="46.35095" lon="-0.46601">
        <ele>87</ele>
        <time>2012-10-23T16:12:40Z</time>
      </trkpt>
      <trkpt lat="46.3509" lon="-0.46607">
        <ele>87</ele>
        <time>2012-10-23T16:12:45Z</time>
      </trkpt>
      <trkpt lat="46.35086" lon="-0.46611">
        <ele>87</ele>
        <time>2012-10-23T16:12:50Z</time>
      </trkpt>
      <trkpt lat="46.35081" lon="-0.46613">
        <ele>89</ele>
        <time>2012-10-23T16:12:55Z</time>
      </trkpt>
      <trkpt lat="46.35078" lon="-0.46616">
        <ele>91</ele>
        <time>2012-10-23T16:13:00Z</time>
      </trkpt>
      <trkpt lat="46.35073" lon="-0.46622">
        <ele>91</ele>
        <time>2012-10-23T16:13:05Z</time>
      </trkpt>
      <trkpt lat="46.3507" lon="-0.46628">
        <ele>91</ele>
        <time>2012-10-23T16:13:10Z</time>
      </trkpt>
      <trkpt lat="46.35066" lon="-0.46634">
        <ele>92</ele>
        <time>2012-10-23T16:13:15Z</time>
      </trkpt>
      <trkpt lat="46.35062" lon="-0.46644">
        <ele>96</ele>
        <time>2012-10-23T16:13:20Z</time>
      </trkpt>
      <trkpt lat="46.35058" lon="-0.46649">
        <ele>97</ele>
        <time>2012-10-23T16:13:25Z</time>
      </trkpt>
      <trkpt lat="46.35053" lon="-0.46652">
        <ele>99</ele>
        <time>2012-10-23T16:13:30Z</time>
      </trkpt>
      <trkpt lat="46.35049" lon="-0.46653">
        <ele>97</ele>
        <time>2012-10-23T16:13:35Z</time>
      </trkpt>
      <trkpt lat="46.35044" lon="-0.46658">
        <ele>97</ele>
        <time>2012-10-23T16:13:40Z</time>
      </trkpt>
      <trkpt lat="46.35038" lon="-0.46659">
        <ele>96</ele>
        <time>2012-10-23T16:13:45Z</time>
      </trkpt>
      <trkpt lat="46.35033" lon="-0.46661">
        <ele>96</ele>
        <time>2012-10-23T16:13:50Z</time>
      </trkpt>
      <trkpt lat="46.35028" lon="-0.46664">
        <ele>96</ele>
        <time>2012-10-23T16:13:55Z</time>
      </trkpt>
      <trkpt lat="46.35023" lon="-0.46666">
        <ele>95</ele>
        <time>2012-10-23T16:14:00Z</time>
      </trkpt>
      <trkpt lat="46.35017" lon="-0.46669">
        <ele>95</ele>
        <time>2012-10-23T16:14:05Z</time>
      </trkpt>
      <trkpt lat="46.35011" lon="-0.46674">
        <ele>94</ele>
        <time>2012-10-23T16:14:10Z</time>
      </trkpt>
      <trkpt lat="46.35007" lon="-0.46676">
        <ele>94</ele>
        <time>2012-10-23T16:14:15Z</time>
      </trkpt>
      <trkpt lat="46.35004" lon="-0.46679">
        <ele>92</ele>
        <time>2012-10-23T16:14:20Z</time>
      </trkpt>
      <trkpt lat="46.34999" lon="-0.46682">
        <ele>90</ele>
        <time>2012-10-23T16:14:25Z</time>
      </trkpt>
      <trkpt lat="46.34995" lon="-0.46687">
        <ele>87</ele>
        <time>2012-10-23T16:14:30Z</time>
      </trkpt>
      <trkpt lat="46.34991" lon="-0.4669">
        <ele>87</ele>
        <time>2012-10-23T16:14:35Z</time>
      </trkpt>
      <trkpt lat="46.34987" lon="-0.46695">
        <ele>87</ele>
        <time>2012-10-23T16:14:40Z</time>
      </trkpt>
      <trkpt lat="46.34984" lon="-0.46698">
        <ele>85</ele>
        <time>2012-10-23T16:14:45Z</time>
      </trkpt>
      <trkpt lat="46.34981" lon="-0.46702">
        <ele>83</ele>
        <time>2012-10-23T16:14:50Z</time>
      </trkpt>
      <trkpt lat="46.34977" lon="-0.46707">
        <ele>82</ele>
        <time>2012-10-23T16:14:55Z</time>
      </trkpt>
      <trkpt lat="46.34972" lon="-0.46712">
        <ele>81</ele>
        <time>2012-10-23T16:15:00Z</time>
      </trkpt>
      <trkpt lat="46.34968" lon="-0.46718">
        <ele>79</ele>
        <time>2012-10-23T16:15:05Z</time>
      </trkpt>
      <trkpt lat="46.34964" lon="-0.46724">
        <ele>78</ele>
        <time>2012-10-23T16:15:10Z</time>
      </trkpt>
      <trkpt lat="46.34959" lon="-0.46726">
        <ele>79</ele>
        <time>2012-10-23T16:15:15Z</time>
      </trkpt>
      <trkpt lat="46.34952" lon="-0.4673">
        <ele>82</ele>
        <time>2012-10-23T16:15:20Z</time>
      </trkpt>
      <trkpt lat="46.34947" lon="-0.46737">
        <ele>84</ele>
        <time>2012-10-23T16:15:25Z</time>
      </trkpt>
      <trkpt lat="46.34943" lon="-0.4674">
        <ele>84</ele>
        <time>2012-10-23T16:15:30Z</time>
      </trkpt>
      <trkpt lat="46.34938" lon="-0.46747">
        <ele>83</ele>
        <time>2012-10-23T16:15:35Z</time>
      </trkpt>
      <trkpt lat="46.34935" lon="-0.46751">
        <ele>82</ele>
        <time>2012-10-23T16:15:40Z</time>
      </trkpt>
      <trkpt lat="46.34938" lon="-0.46759">
        <ele>83</ele>
        <time>2012-10-23T16:15:45Z</time>
      </trkpt>
      <trkpt lat="46.34939" lon="-0.46767">
        <ele>84</ele>
        <time>2012-10-23T16:15:50Z</time>
      </trkpt>
      <trkpt lat="46.34941" lon="-0.46774">
        <ele>84</ele>
        <time>2012-10-23T16:15:55Z</time>
      </trkpt>
      <trkpt lat="46.34946" lon="-0.46781">
        <ele>86</ele>
        <time>2012-10-23T16:16:00Z</time>
      </trkpt>
      <trkpt lat="46.34949" lon="-0.46787">
        <ele>88</ele>
        <time>2012-10-23T16:16:05Z</time>
      </trkpt>
      <trkpt lat="46.34952" lon="-0.46791">
        <ele>86</ele>
        <time>2012-10-23T16:16:10Z</time>
      </trkpt>
      <trkpt lat="46.34954" lon="-0.46797">
        <ele>87</ele>
        <time>2012-10-23T16:16:15Z</time>
      </trkpt>
      <trkpt lat="46.34953" lon="-0.46804">
        <ele>93</ele>
        <time>2012-10-23T16:16:20Z</time>
      </trkpt>
      <trkpt lat="46.34957" lon="-0.4681">
        <ele>91</ele>
        <time>2012-10-23T16:16:25Z</time>
      </trkpt>
      <trkpt lat="46.34961" lon="-0.46817">
        <ele>91</ele>
        <time>2012-10-23T16:16:30Z</time>
      </trkpt>
      <trkpt lat="46.34965" lon="-0.46823">
        <ele>89</ele>
        <time>2012-10-23T16:16:35Z</time>
      </trkpt>
      <trkpt lat="46.34966" lon="-0.46828">
        <ele>87</ele>
        <time>2012-10-23T16:16:40Z</time>
      </trkpt>
      <trkpt lat="46.34969" lon="-0.46833">
        <ele>86</ele>
        <time>2012-10-23T16:16:45Z</time>
      </trkpt>
      <trkpt lat="46.34972" lon="-0.46839">
        <ele>87</ele>
        <time>2012-10-23T16:16:50Z</time>
      </trkpt>
      <trkpt lat="46.34974" lon="-0.46845">
        <ele>87</ele>
        <time>2012-10-23T16:16:55Z</time>
      </trkpt>
      <trkpt lat="46.34976" lon="-0.46853">
        <ele>87</ele>
        <time>2012-10-23T16:17:00Z</time>
      </trkpt>
      <trkpt lat="46.34978" lon="-0.4686">
        <ele>90</ele>
        <time>2012-10-23T16:17:05Z</time>
      </trkpt>
      <trkpt lat="46.34979" lon="-0.46868">
        <ele>89</ele>
        <time>2012-10-23T16:17:10Z</time>
      </trkpt>
      <trkpt lat="46.34981" lon="-0.46874">
        <ele>88</ele>
        <time>2012-10-23T16:17:15Z</time>
      </trkpt>
      <trkpt lat="46.34984" lon="-0.4688">
        <ele>86</ele>
        <time>2012-10-23T16:17:20Z</time>
      </trkpt>
      <trkpt lat="46.34985" lon="-0.46888">
        <ele>89</ele>
        <time>2012-10-23T16:17:25Z</time>
      </trkpt>
      <trkpt lat="46.34984" lon="-0.46894">
        <ele>89</ele>
        <time>2012-10-23T16:17:30Z</time>
      </trkpt>
      <trkpt lat="46.34981" lon="-0.46899">
        <ele>91</ele>
        <time>2012-10-23T16:17:35Z</time>
      </trkpt>
      <trkpt lat="46.34978" lon="-0.46901">
        <ele>95</ele>
        <time>2012-10-23T16:17:40Z</time>
      </trkpt>
      <trkpt lat="46.34974" lon="-0.46904">
        <ele>97</ele>
        <time>2012-10-23T16:17:45Z</time>
      </trkpt>
      <trkpt lat="46.34968" lon="-0.46904">
        <ele>96</ele>
        <time>2012-10-23T16:17:50Z</time>
      </trkpt>
      <trkpt lat="46.34963" lon="-0.46903">
        <ele>93</ele>
        <time>2012-10-23T16:17:55Z</time>
      </trkpt>
      <trkpt lat="46.3496" lon="-0.46901">
        <ele>94</ele>
        <time>2012-10-23T16:18:00Z</time>
      </trkpt>
      <trkpt lat="46.34955" lon="-0.469">
        <ele>94</ele>
        <time>2012-10-23T16:18:05Z</time>
      </trkpt>
      <trkpt lat="46.34949" lon="-0.46898">
        <ele>95</ele>
        <time>2012-10-23T16:18:10Z</time>
      </trkpt>
      <trkpt lat="46.34943" lon="-0.46897">
        <ele>98</ele>
        <time>2012-10-23T16:18:15Z</time>
      </trkpt>
      <trkpt lat="46.34937" lon="-0.46895">
        <ele>100</ele>
        <time>2012-10-23T16:18:20Z</time>
      </trkpt>
      <trkpt lat="46.34932" lon="-0.46896">
        <ele>101</ele>
        <time>2012-10-23T16:18:25Z</time>
      </trkpt>
      <trkpt lat="46.34927" lon="-0.46895">
        <ele>102</ele>
        <time>2012-10-23T16:18:30Z</time>
      </trkpt>
      <trkpt lat="46.34923" lon="-0.46894">
        <ele>100</ele>
        <time>2012-10-23T16:18:35Z</time>
      </trkpt>
      <trkpt lat="46.34917" lon="-0.46893">
        <ele>102</ele>
        <time>2012-10-23T16:18:40Z</time>
      </trkpt>
      <trkpt lat="46.34911" lon="-0.46893">
        <ele>102</ele>
        <time>2012-10-23T16:18:45Z</time>
      </trkpt>
      <trkpt lat="46.34904" lon="-0.46892">
        <ele>105</ele>
        <time>2012-10-23T16:18:50Z</time>
      </trkpt>
      <trkpt lat="46.349" lon="-0.4689">
        <ele>104</ele>
        <time>2012-10-23T16:18:55Z</time>
      </trkpt>
      <trkpt lat="46.34898" lon="-0.46889">
        <ele>104</ele>
        <time>2012-10-23T16:19:00Z</time>
      </trkpt>
      <trkpt lat="46.34895" lon="-0.46886">
        <ele>104</ele>
        <time>2012-10-23T16:19:05Z</time>
      </trkpt>
      <trkpt lat="46.34892" lon="-0.46891">
        <ele>107</ele>
        <time>2012-10-23T16:19:10Z</time>
      </trkpt>
      <trkpt lat="46.34888" lon="-0.46895">
        <ele>108</ele>
        <time>2012-10-23T16:19:15Z</time>
      </trkpt>
      <trkpt lat="46.34883" lon="-0.46898">
        <ele>109</ele>
        <time>2012-10-23T16:19:20Z</time>
      </trkpt>
      <trkpt lat="46.3488" lon="-0.46906">
        <ele>108</ele>
        <time>2012-10-23T16:19:25Z</time>
      </trkpt>
      <trkpt lat="46.34878" lon="-0.46913">
        <ele>107</ele>
        <time>2012-10-23T16:19:30Z</time>
      </trkpt>
      <trkpt lat="46.34878" lon="-0.46919">
        <ele>106</ele>
        <time>2012-10-23T16:19:35Z</time>
      </trkpt>
      <trkpt lat="46.34878" lon="-0.46927">
        <ele>106</ele>
        <time>2012-10-23T16:19:40Z</time>
      </trkpt>
      <trkpt lat="46.34881" lon="-0.46934">
        <ele>100</ele>
        <time>2012-10-23T16:19:45Z</time>
      </trkpt>
      <trkpt lat="46.34885" lon="-0.46939">
        <ele>96</ele>
        <time>2012-10-23T16:19:50Z</time>
      </trkpt>
      <trkpt lat="46.3489" lon="-0.46944">
        <ele>88</ele>
        <time>2012-10-23T16:19:55Z</time>
      </trkpt>
      <trkpt lat="46.34893" lon="-0.46949">
        <ele>86</ele>
        <time>2012-10-23T16:20:00Z</time>
      </trkpt>
      <trkpt lat="46.34888" lon="-0.46961">
        <ele>88</ele>
        <time>2012-10-23T16:20:05Z</time>
      </trkpt>
      <trkpt lat="46.34888" lon="-0.46971">
        <ele>89</ele>
        <time>2012-10-23T16:20:10Z</time>
      </trkpt>
      <trkpt lat="46.34887" lon="-0.4698">
        <ele>89</ele>
        <time>2012-10-23T16:20:15Z</time>
      </trkpt>
      <trkpt lat="46.34885" lon="-0.46987">
        <ele>91</ele>
        <time>2012-10-23T16:20:20Z</time>
      </trkpt>
      <trkpt lat="46.34886" lon="-0.46993">
        <ele>92</ele>
        <time>2012-10-23T16:20:25Z</time>
      </trkpt>
      <trkpt lat="46.34888" lon="-0.46998">
        <ele>94</ele>
        <time>2012-10-23T16:20:30Z</time>
      </trkpt>
      <trkpt lat="46.34887" lon="-0.47005">
        <ele>93</ele>
        <time>2012-10-23T16:20:35Z</time>
      </trkpt>
      <trkpt lat="46.34883" lon="-0.47013">
        <ele>93</ele>
        <time>2012-10-23T16:20:40Z</time>
      </trkpt>
      <trkpt lat="46.34879" lon="-0.47019">
        <ele>96</ele>
        <time>2012-10-23T16:20:45Z</time>
      </trkpt>
      <trkpt lat="46.34875" lon="-0.47025">
        <ele>99</ele>
        <time>2012-10-23T16:20:50Z</time>
      </trkpt>
      <trkpt lat="46.34873" lon="-0.47027">
        <ele>101</ele>
        <time>2012-10-23T16:20:55Z</time>
      </trkpt>
      <trkpt lat="46.34868" lon="-0.47032">
        <ele>101</ele>
        <time>2012-10-23T16:21:00Z</time>
      </trkpt>
      <trkpt lat="46.34864" lon="-0.47035">
        <ele>101</ele>
        <time>2012-10-23T16:21:05Z</time>
      </trkpt>
      <trkpt lat="46.3486" lon="-0.47031">
        <ele>101</ele>
        <time>2012-10-23T16:21:10Z</time>
      </trkpt>
      <trkpt lat="46.34854" lon="-0.47031">
        <ele>100</ele>
        <time>2012-10-23T16:21:15Z</time>
      </trkpt>
      <trkpt lat="46.34848" lon="-0.47037">
        <ele>101</ele>
        <time>2012-10-23T16:21:20Z</time>
      </trkpt>
      <trkpt lat="46.34838" lon="-0.47044">
        <ele>103</ele>
        <time>2012-10-23T16:21:25Z</time>
      </trkpt>
      <trkpt lat="46.34834" lon="-0.47046">
        <ele>102</ele>
        <time>2012-10-23T16:21:30Z</time>
      </trkpt>
      <trkpt lat="46.34829" lon="-0.47049">
        <ele>101</ele>
        <time>2012-10-23T16:21:35Z</time>
      </trkpt>
      <trkpt lat="46.34828" lon="-0.4705">
        <ele>101</ele>
        <time>2012-10-23T16:21:40Z</time>
      </trkpt>
      <trkpt lat="46.34827" lon="-0.47051">
        <ele>101</ele>
        <time>2012-10-23T16:21:45Z</time>
      </trkpt>
      <trkpt lat="46.34826" lon="-0.47052">
        <ele>100</ele>
        <time>2012-10-23T16:21:50Z</time>
      </trkpt>
      <trkpt lat="46.34815" lon="-0.47064">
        <ele>99</ele>
        <time>2012-10-23T16:21:55Z</time>
      </trkpt>
      <trkpt lat="46.34813" lon="-0.47061">
        <ele>97</ele>
        <time>2012-10-23T16:22:00Z</time>
      </trkpt>
      <trkpt lat="46.34801" lon="-0.47057">
        <ele>102</ele>
        <time>2012-10-23T16:22:05Z</time>
      </trkpt>
      <trkpt lat="46.348" lon="-0.47053">
        <ele>99</ele>
        <time>2012-10-23T16:22:10Z</time>
      </trkpt>
      <trkpt lat="46.34797" lon="-0.47046">
        <ele>99</ele>
        <time>2012-10-23T16:22:15Z</time>
      </trkpt>
      <trkpt lat="46.34793" lon="-0.4704">
        <ele>99</ele>
        <time>2012-10-23T16:22:20Z</time>
      </trkpt>
      <trkpt lat="46.34791" lon="-0.47032">
        <ele>97</ele>
        <time>2012-10-23T16:22:25Z</time>
      </trkpt>
      <trkpt lat="46.34791" lon="-0.47025">
        <ele>97</ele>
        <time>2012-10-23T16:22:30Z</time>
      </trkpt>
      <trkpt lat="46.3479" lon="-0.4702">
        <ele>94</ele>
        <time>2012-10-23T16:22:35Z</time>
      </trkpt>
      <trkpt lat="46.34789" lon="-0.47018">
        <ele>95</ele>
        <time>2012-10-23T16:22:40Z</time>
      </trkpt>
    </trkseg>
  </trk>
</gpx>